
Distance (Route):
Temperature : 3.7°C
Humidity : 58.9%
Pressure : 785.1hPa| Receiver | Date | Latitude | Longitude | Direction | Speed | Altitude | Climb | Temperature | Humidity | Pressure | Voltage | Killtimer | Uptime | BKT | XDATA |
|---|---|---|---|---|---|---|---|---|---|---|---|---|---|---|---|
| SP4MAZ | 2026-09-03 01:12:08 | -12.04350 | -77.05891 | 311° | 197km/h | 993m | 1.0m/s | 3.7°C | 58.9% | 785.1hPa | 0V | 00:00:00 | 00:00:00 | 00:00:00 | |
| SP4MAZ | 2026-09-03 01:10:22 | -12.03964 | -77.05871 | 360° | 203km/h | 988m | -0.0m/s | -5.9°C | 47.0% | 650.2hPa | 0V | 00:00:00 | 00:00:00 | 00:00:00 | |
| SP4MAZ | 2026-09-03 01:09:52 | -12.04832 | -77.04826 | 263° | 197km/h | 994m | -0.2m/s | -9.7°C | 78.2% | 614.9hPa | 0V | 00:00:00 | 00:00:00 | 00:00:00 | |
| SP4MAZ | 2026-09-03 01:09:28 | -12.04013 | -77.04042 | 186° | 199km/h | 993m | -0.1m/s | -11.7°C | 88.7% | 588.4hPa | 0V | 00:00:00 | 00:00:00 | 00:00:00 | |
| SP4MAZ | 2026-09-03 01:09:08 | -12.03158 | -77.04486 | 122° | 199km/h | 992m | 0.0m/s | -13.7°C | 93.1% | 567.4hPa | 0V | 00:00:00 | 00:00:00 | 00:00:00 | |
| SP4MAZ | 2026-09-03 01:08:48 | -12.03180 | -77.05460 | 58° | 199km/h | 991m | 0.0m/s | -15.2°C | 93.3% | 547.3hPa | 0V | 00:00:00 | 00:00:00 | 00:00:00 | |
| SP4MAZ | 2026-09-03 01:08:17 | -12.04510 | -77.05661 | 321° | 199km/h | 990m | -0.1m/s | -17.9°C | 97.1% | 518.1hPa | 0V | 00:00:00 | 00:00:00 | 00:00:00 | |
| SP4MAZ | 2026-09-03 01:07:24 | -13.58044 | -79.42838 | 0° | 0km/h | 36272m | 0.0m/s | -23.3°C | 0% | 467.9hPa | 0V | 00:00:00 | 00:00:00 | 00:00:00 | |
| SP4MAZ | 2026-09-03 01:07:05 | -13.58044 | -79.42838 | 0° | 0km/h | 36272m | 0.0m/s | -25.9°C | 0% | 449.3hPa | 0V | 00:00:00 | 00:00:00 | 00:00:00 | |
| SP4MAZ | 2026-09-03 01:06:43 | -13.58044 | -79.42838 | 0° | 0km/h | 36272m | 0.0m/s | -27.2°C | 81.8% | 429.7hPa | 0V | 00:00:00 | 00:00:00 | 00:00:00 | |
| SP4MAZ | 2026-09-03 01:06:12 | -9.68720 | 2.46781 | 0° | 0km/h | 600m | 0.0m/s | -30.8°C | 83.4% | 403.8hPa | 0V | 00:00:00 | 00:00:00 | 00:00:00 | |
| SP4MAZ | 2026-09-03 01:05:49 | 5.10237 | 33.96004 | 0° | 0km/h | 168m | 0.0m/s | -34.0°C | 83.3% | 384.3hPa | 0V | 00:00:00 | 00:00:00 | 00:00:00 | |
| SP4MAZ | 2026-09-03 01:05:29 | 37.14694 | 30.28714 | 0° | 0km/h | 7756m | 0.0m/s | -36.7°C | 63.0% | 367.5hPa | 0V | 00:00:00 | 00:00:00 | 00:00:00 | |
| SP4MAZ | 2026-09-03 01:04:58 | 37.14694 | 30.28714 | 0° | 0km/h | 7756m | 0.0m/s | -39.8°C | 40.9% | 341.3hPa | 0V | 00:00:00 | 00:00:00 | 00:00:00 | |
| SP4MAZ | 2026-09-03 01:04:38 | 37.14694 | 30.28714 | 0° | 0km/h | 7756m | 0.0m/s | -42.0°C | 37.4% | 325.0hPa | 0V | 00:00:00 | 00:00:00 | 00:00:00 | |
| SP4MAZ | 2026-09-03 01:04:15 | 37.14694 | 30.28714 | 0° | 0km/h | 7756m | 0.0m/s | -45.2°C | 28.1% | 306.5hPa | 0V | 00:00:00 | 00:00:00 | 00:00:00 | |
| SP4MAZ | 2026-09-03 01:03:55 | 37.14694 | 30.28714 | 0° | 0km/h | 7756m | 0.0m/s | -47.2°C | 25.0% | 290.6hPa | 0V | 00:00:00 | 00:00:00 | 00:00:00 | |
| KRY50SP | 2026-09-03 01:03:32 | 52.39149 | 21.56672 | 321° | 166km/h | 19283m | -80.1m/s | -50.6°C | 27.5% | 272.6hPa | 0V | 00:00:00 | 00:00:00 | 00:00:00 | |
| KRY50SP | 2026-09-03 01:03:26 | 52.39149 | 21.56672 | 321° | 166km/h | 19283m | -80.1m/s | -51.4°C | 26.6% | 268.0hPa | 0V | 00:00:00 | 00:00:00 | 00:00:00 | |
| SP4MAZ | 2026-09-03 01:03:25 | 37.14694 | 30.28714 | 0° | 0km/h | 7756m | 0.0m/s | -51.6°C | 26.5% | 267.2hPa | 0V | 00:00:00 | 00:00:00 | 00:00:00 | |
| KRY50SP | 2026-09-03 01:03:21 | 52.39149 | 21.56672 | 321° | 166km/h | 19283m | -80.1m/s | -52.1°C | 25.5% | 264.1hPa | 0V | 00:00:00 | 00:00:00 | 00:00:00 | |
| KRY50SP | 2026-09-03 01:03:16 | 52.39149 | 21.56672 | 321° | 166km/h | 19283m | -80.1m/s | -52.8°C | 23.8% | 260.3hPa | 0V | 00:00:00 | 00:00:00 | 00:00:00 | |
| KRY50SP | 2026-09-03 01:03:10 | 52.39149 | 21.56672 | 321° | 166km/h | 19283m | -80.1m/s | -53.2°C | 20.9% | 255.7hPa | 0V | 00:00:00 | 00:00:00 | 00:00:00 | |
| KRY50SP | 2026-09-03 01:03:04 | 52.39149 | 21.56672 | 321° | 166km/h | 19283m | -80.1m/s | -53.4°C | 18.3% | 251.3hPa | 0V | 00:00:00 | 00:00:00 | 00:00:00 | |
| SP4MAZ | 2026-09-03 01:03:03 | 37.14694 | 30.28714 | 0° | 0km/h | 7756m | 0.0m/s | -53.5°C | 18.1% | 250.5hPa | 0V | 00:00:00 | 00:00:00 | 00:00:00 | |
| KRY50SP | 2026-09-03 01:02:58 | 52.39149 | 21.56672 | 321° | 166km/h | 19283m | -80.1m/s | -53.9°C | 16.4% | 246.9hPa | 0V | 00:00:00 | 00:00:00 | 00:00:00 | |
| KRY50SP | 2026-09-03 01:02:52 | 52.39149 | 21.56672 | 321° | 166km/h | 19283m | -80.1m/s | -53.8°C | 13.6% | 242.6hPa | 0V | 00:00:00 | 00:00:00 | 00:00:00 | |
| KRY50SP | 2026-09-03 01:02:46 | 52.39149 | 21.56672 | 321° | 166km/h | 19283m | -80.1m/s | -53.3°C | 9.9% | 238.2hPa | 0V | 00:00:00 | 00:00:00 | 00:00:00 | |
| SP4MAZ | 2026-09-03 01:02:43 | 37.14694 | 30.28714 | 0° | 0km/h | 7756m | 0.0m/s | -52.3°C | 8.2% | 236.1hPa | 0V | 00:00:00 | 00:00:00 | 00:00:00 | |
| KRY50SP | 2026-09-03 01:02:41 | 52.39149 | 21.56672 | 321° | 166km/h | 19283m | -80.1m/s | -52.0°C | 7.3% | 234.7hPa | 0V | 00:00:00 | 00:00:00 | 00:00:00 | |
| KRY50SP | 2026-09-03 01:02:32 | 52.39149 | 21.56672 | 321° | 166km/h | 19283m | -80.1m/s | -51.7°C | 4.8% | 228.4hPa | 0V | 00:00:00 | 00:00:00 | 00:00:00 | |
| KRY50SP | 2026-09-03 01:02:27 | 52.39149 | 21.56672 | 321° | 166km/h | 19283m | -80.1m/s | -51.7°C | 3.9% | 224.9hPa | 0V | 00:00:00 | 00:00:00 | 00:00:00 | |
| KRY50SP | 2026-09-03 01:02:21 | 52.39149 | 21.56672 | 321° | 166km/h | 19283m | -80.1m/s | -51.4°C | 3.1% | 220.7hPa | 0V | 00:00:00 | 00:00:00 | 00:00:00 | |
| KRY50SP | 2026-09-03 01:02:16 | 52.39149 | 21.56672 | 321° | 166km/h | 19283m | -80.1m/s | -51.5°C | 2.7% | 217.4hPa | 0V | 00:00:00 | 00:00:00 | 00:00:00 | |
| KRY50SP | 2026-09-03 01:02:07 | 52.39149 | 21.56672 | 321° | 166km/h | 19283m | -80.1m/s | -50.6°C | 2.0% | 211.2hPa | 0V | 00:00:00 | 00:00:00 | 00:00:00 | |
| KRY50SP | 2026-09-03 01:02:01 | 52.39149 | 21.56672 | 321° | 166km/h | 19283m | -80.1m/s | -49.8°C | 1.7% | 207.3hPa | 0V | 00:00:00 | 00:00:00 | 00:00:00 | |
| KRY50SP | 2026-09-03 01:01:55 | 52.39149 | 21.56672 | 321° | 166km/h | 19283m | -80.1m/s | -49.4°C | 1.6% | 203.3hPa | 0V | 00:00:00 | 00:00:00 | 00:00:00 | |
| KRY50SP | 2026-09-03 01:01:49 | 52.39149 | 21.56672 | 321° | 166km/h | 19283m | -80.1m/s | -49.0°C | 1.5% | 199.4hPa | 0V | 00:00:00 | 00:00:00 | 00:00:00 | |
| KRY50SP | 2026-09-03 01:01:43 | 52.39149 | 21.56672 | 321° | 166km/h | 19283m | -80.1m/s | -48.9°C | 1.4% | 195.6hPa | 0V | 00:00:00 | 00:00:00 | 00:00:00 | |
| KRY50SP | 2026-09-03 01:01:38 | 52.39149 | 21.56672 | 321° | 166km/h | 19283m | -80.1m/s | -48.8°C | 1.4% | 192.4hPa | 0V | 00:00:00 | 00:00:00 | 00:00:00 | |
| SP4MAZ | 2026-09-03 01:01:34 | 37.14694 | 30.28714 | 0° | 0km/h | 7756m | 0.0m/s | -49.2°C | 1.4% | 189.9hPa | 0V | 00:00:00 | 00:00:00 | 00:00:00 | |
| KRY50SP | 2026-09-03 01:01:32 | 52.39149 | 21.56672 | 321° | 166km/h | 19283m | -80.1m/s | -49.5°C | 1.4% | 188.7hPa | 0V | 00:00:00 | 00:00:00 | 00:00:00 | |
| KRY50SP | 2026-09-03 01:01:25 | 52.39149 | 21.56672 | 321° | 166km/h | 19283m | -80.1m/s | -49.0°C | 1.3% | 184.3hPa | 0V | 00:00:00 | 00:00:00 | 00:00:00 | |
| KRY50SP | 2026-09-03 01:01:20 | 52.39149 | 21.56672 | 321° | 166km/h | 19283m | -80.1m/s | -48.7°C | 1.2% | 181.4hPa | 0V | 00:00:00 | 00:00:00 | 00:00:00 | |
| KRY50SP | 2026-09-03 01:01:15 | 52.39149 | 21.56672 | 321° | 166km/h | 19283m | -80.1m/s | -48.7°C | 1.1% | 178.4hPa | 0V | 00:00:00 | 00:00:00 | 00:00:00 | |
| SP4MAZ | 2026-09-03 01:01:11 | 37.14694 | 30.28714 | 0° | 0km/h | 7756m | 0.0m/s | -48.2°C | 1.1% | 175.9hPa | 0V | 00:00:00 | 00:00:00 | 00:00:00 | |
| KRY50SP | 2026-09-03 01:01:10 | 52.39149 | 21.56672 | 321° | 166km/h | 19283m | -80.1m/s | -48.4°C | 1.1% | 175.3hPa | 0V | 00:00:00 | 00:00:00 | 00:00:00 | |
| KRY50SP | 2026-09-03 01:01:04 | 52.39149 | 21.56672 | 321° | 166km/h | 19283m | -80.1m/s | -48.6°C | 1.1% | 171.8hPa | 0V | 00:00:00 | 00:00:00 | 00:00:00 | |
| KRY50SP | 2026-09-03 01:00:59 | 52.39149 | 21.56672 | 321° | 166km/h | 19283m | -80.1m/s | -48.7°C | 1.1% | 169.0hPa | 0V | 00:00:00 | 00:00:00 | 00:00:00 | |
| KRY50SP | 2026-09-03 01:00:53 | 52.39149 | 21.56672 | 321° | 166km/h | 19283m | -80.1m/s | -48.6°C | 1.1% | 165.5hPa | 0V | 00:00:00 | 00:00:00 | 00:00:00 | |
| KRY50SP | 2026-09-03 01:00:47 | 52.39149 | 21.56672 | 321° | 166km/h | 19283m | -80.1m/s | -48.8°C | 1.1% | 162.1hPa | 0V | 00:00:00 | 00:00:00 | 00:00:00 | |
| KRY50SP | 2026-09-03 01:00:41 | 52.39149 | 21.56672 | 321° | 166km/h | 19283m | -80.1m/s | -48.8°C | 1.0% | 158.8hPa | 0V | 00:00:00 | 00:00:00 | 00:00:00 | |
| KRY50SP | 2026-09-03 01:00:35 | 52.39149 | 21.56672 | 321° | 166km/h | 19283m | -80.1m/s | -48.4°C | 1.0% | 155.5hPa | 0V | 00:00:00 | 00:00:00 | 00:00:00 | |
| KRY50SP | 2026-09-03 01:00:29 | 52.39149 | 21.56672 | 321° | 166km/h | 19283m | -80.1m/s | -48.9°C | 1.0% | 152.3hPa | 0V | 00:00:00 | 00:00:00 | 00:00:00 | |
| KRY50SP | 2026-09-03 01:00:23 | 52.39149 | 21.56672 | 321° | 166km/h | 19283m | -80.1m/s | -49.4°C | 1.0% | 149.1hPa | 0V | 00:00:00 | 00:00:00 | 00:00:00 | |
| KRY50SP | 2026-09-03 01:00:18 | 52.39149 | 21.56672 | 321° | 166km/h | 19283m | -80.1m/s | -49.6°C | 1.1% | 145.9hPa | 0V | 00:00:00 | 00:00:00 | 00:00:00 | |
| KRY50SP | 2026-09-03 01:00:11 | 52.39149 | 21.56672 | 321° | 166km/h | 19283m | -80.1m/s | -49.9°C | 1.0% | 142.8hPa | 0V | 00:00:00 | 00:00:00 | 00:00:00 | |
| KRY50SP | 2026-09-03 01:00:05 | 52.39149 | 21.56672 | 321° | 166km/h | 19283m | -80.1m/s | -49.6°C | 1.0% | 139.7hPa | 0V | 00:00:00 | 00:00:00 | 00:00:00 | |
| SP4MAZ | 2026-09-03 01:00:01 | -17.15303 | 82.46548 | 0° | 0km/h | 1846m | 0.0m/s | -49.5°C | 1.0% | 137.6hPa | 0V | 00:00:00 | 00:00:00 | 00:00:00 | |
| KRY50SP | 2026-09-03 01:00:00 | 52.39149 | 21.56672 | 321° | 166km/h | 19283m | -80.1m/s | -49.6°C | 1.0% | 137.1hPa | 0V | 00:00:00 | 00:00:00 | 00:00:00 | |
| KRY50SP | 2026-09-03 00:59:54 | 52.39149 | 21.56672 | 321° | 166km/h | 19283m | -80.1m/s | -50.0°C | 1.0% | 133.9hPa | 0V | 00:00:00 | 00:00:00 | 00:00:00 | |
| KRY50SP | 2026-09-03 00:59:49 | 52.39149 | 21.56672 | 321° | 166km/h | 19283m | -80.1m/s | -50.0°C | 1.0% | 131.4hPa | 0V | 00:00:00 | 00:00:00 | 00:00:00 | |
| KRY50SP | 2026-09-03 00:59:44 | 52.39149 | 21.56672 | 321° | 166km/h | 19283m | -80.1m/s | -50.2°C | 1.0% | 128.8hPa | 0V | 00:00:00 | 00:00:00 | 00:00:00 | |
| SP4MAZ | 2026-09-03 00:59:41 | -17.15303 | 82.46548 | 0° | 0km/h | 1846m | 0.0m/s | -50.1°C | 1.0% | 127.3hPa | 0V | 00:00:00 | 00:00:00 | 00:00:00 | |
| KRY50SP | 2026-09-03 00:59:39 | 52.39149 | 21.56672 | 321° | 166km/h | 19283m | -80.1m/s | -49.9°C | 1.0% | 126.3hPa | 0V | 00:00:00 | 00:00:00 | 00:00:00 | |
| KRY50SP | 2026-09-03 00:59:33 | 52.39149 | 21.56672 | 321° | 166km/h | 19283m | -80.1m/s | -49.9°C | 1.0% | 123.3hPa | 0V | 00:00:00 | 00:00:00 | 00:00:00 | |
| KRY50SP | 2026-09-03 00:59:27 | 52.39149 | 21.56672 | 321° | 166km/h | 19283m | -80.1m/s | -50.0°C | 1.0% | 120.3hPa | 0V | 00:00:00 | 00:00:00 | 00:00:00 | |
| KRY50SP | 2026-09-03 00:59:21 | 52.39149 | 21.56672 | 321° | 166km/h | 19283m | -80.1m/s | -49.6°C | 0.9% | 117.4hPa | 0V | 00:00:00 | 00:00:00 | 00:00:00 | |
| SP4MAZ | 2026-09-03 00:59:18 | -17.15303 | 82.46548 | 0° | 0km/h | 1846m | 0.0m/s | -49.8°C | 0.9% | 116.0hPa | 0V | 00:00:00 | 00:00:00 | 00:00:00 | |
| KRY50SP | 2026-09-03 00:59:16 | 52.39149 | 21.56672 | 321° | 166km/h | 19283m | -80.1m/s | -50.0°C | 0.9% | 115.1hPa | 0V | 00:00:00 | 00:00:00 | 00:00:00 | |
| KRY50SP | 2026-09-03 00:59:11 | 52.39149 | 21.56672 | 321° | 166km/h | 19283m | -80.1m/s | -50.2°C | 1.0% | 112.7hPa | 0V | 00:00:00 | 00:00:00 | 00:00:00 | |
| KRY50SP | 2026-09-03 00:59:05 | 52.39149 | 21.56672 | 321° | 166km/h | 19283m | -80.1m/s | -50.0°C | 0.9% | 109.9hPa | 0V | 00:00:00 | 00:00:00 | 00:00:00 | |
| KRY50SP | 2026-09-03 00:58:59 | 52.39149 | 21.56672 | 321° | 166km/h | 19283m | -80.1m/s | -50.6°C | 0.9% | 107.2hPa | 0V | 00:00:00 | 00:00:00 | 00:00:00 | |
| SP4MAZ | 2026-09-03 00:58:57 | -17.15303 | 82.46548 | 0° | 0km/h | 1846m | 0.0m/s | -50.9°C | 0.9% | 106.3hPa | 0V | 00:00:00 | 00:00:00 | 00:00:00 | |
| KRY50SP | 2026-09-03 00:58:53 | 52.39149 | 21.56672 | 321° | 166km/h | 19283m | -80.1m/s | -51.2°C | 1.0% | 104.5hPa | 0V | 00:00:00 | 00:00:00 | 00:00:00 | |
| KRY50SP | 2026-09-03 00:58:47 | 52.39149 | 21.56672 | 321° | 166km/h | 19283m | -80.1m/s | -50.9°C | 0.9% | 101.8hPa | 0V | 00:00:00 | 00:00:00 | 00:00:00 | |
| KRY50SP | 2026-09-03 00:58:42 | 52.39149 | 21.56672 | 321° | 166km/h | 19283m | -80.1m/s | -50.3°C | 0.9% | 99.6hPa | 0V | 00:00:00 | 00:00:00 | 00:00:00 | |
| KRY50SP | 2026-09-03 00:58:36 | 52.39149 | 21.56672 | 321° | 166km/h | 19283m | -80.1m/s | -50.2°C | 0.9% | 97.0hPa | 0V | 00:00:00 | 00:00:00 | 00:00:00 | |
| KRY50SP | 2026-09-03 00:58:31 | 52.39149 | 21.56672 | 321° | 166km/h | 19283m | -80.1m/s | -50.1°C | 0.9% | 94.8hPa | 0V | 00:00:00 | 00:00:00 | 00:00:00 | |
| KRY50SP | 2026-09-03 00:58:26 | 52.39149 | 21.56672 | 321° | 166km/h | 19283m | -80.1m/s | -49.6°C | 0.8% | 92.7hPa | 0V | 00:00:00 | 00:00:00 | 00:00:00 | |
| KRY50SP | 2026-09-03 00:58:21 | 52.39149 | 21.56672 | 321° | 166km/h | 19283m | -80.1m/s | -49.4°C | 0.8% | 90.6hPa | 0V | 00:00:00 | 00:00:00 | 00:00:00 | |
| KRY50SP | 2026-09-03 00:58:15 | 52.39149 | 21.56672 | 321° | 166km/h | 19283m | -80.1m/s | -49.1°C | 0.7% | 88.2hPa | 0V | 00:00:00 | 00:00:00 | 00:00:00 | |
| KRY50SP | 2026-09-03 00:58:10 | 52.39149 | 21.56672 | 321° | 166km/h | 19283m | -80.1m/s | -48.8°C | 0.8% | 86.2hPa | 0V | 00:00:00 | 00:00:00 | 00:00:00 | |
| KRY50SP | 2026-09-03 00:58:04 | 52.39149 | 21.56672 | 321° | 166km/h | 19283m | -80.1m/s | -49.1°C | 0.8% | 83.8hPa | 0V | 00:00:00 | 00:00:00 | 00:00:00 | |
| KRY50SP | 2026-09-03 00:57:58 | 52.39149 | 21.56672 | 321° | 166km/h | 19283m | -80.1m/s | -50.2°C | 0.8% | 81.5hPa | 0V | 00:00:00 | 00:00:00 | 00:00:00 | |
| KRY50SP | 2026-09-03 00:57:53 | 52.39149 | 21.56672 | 321° | 166km/h | 19283m | -80.1m/s | -50.7°C | 0.8% | 79.6hPa | 0V | 00:00:00 | 00:00:00 | 00:00:00 | |
| SP4MAZ | 2026-09-03 00:57:49 | -17.15303 | 82.46548 | 0° | 0km/h | 1846m | 0.0m/s | -50.3°C | 0.8% | 78.1hPa | 0V | 00:00:00 | 00:00:00 | 00:00:00 | |
| KRY50SP | 2026-09-03 00:57:48 | 52.39149 | 21.56672 | 321° | 166km/h | 19283m | -80.1m/s | -50.5°C | 0.8% | 77.7hPa | 0V | 00:00:00 | 00:00:00 | 00:00:00 | |
| KRY50SP | 2026-09-03 00:57:42 | 52.39149 | 21.56672 | 321° | 166km/h | 19283m | -80.1m/s | -50.4°C | 0.8% | 75.6hPa | 0V | 00:00:00 | 00:00:00 | 00:00:00 | |
| KRY50SP | 2026-09-03 00:57:35 | 52.39149 | 21.56672 | 321° | 166km/h | 19283m | -80.1m/s | -51.2°C | 0.9% | 73.0hPa | 0V | 00:00:00 | 00:00:00 | 00:00:00 | |
| KRY50SP | 2026-09-03 00:57:30 | 52.39149 | 21.56672 | 321° | 166km/h | 19283m | -80.1m/s | -52.1°C | 0.9% | 71.1hPa | 0V | 00:00:00 | 00:00:00 | 00:00:00 | |
| SP4MAZ | 2026-09-03 00:57:28 | -17.15303 | 82.46548 | 0° | 0km/h | 1846m | 0.0m/s | -52.2°C | 0.9% | 70.4hPa | 0V | 00:00:00 | 00:00:00 | 00:00:00 | |
| KRY50SP | 2026-09-03 00:57:24 | 52.39149 | 21.56672 | 321° | 166km/h | 19283m | -80.1m/s | -51.7°C | 0.9% | 69.0hPa | 0V | 00:00:00 | 00:00:00 | 00:00:00 | |
| KRY50SP | 2026-09-03 00:57:19 | 52.39149 | 21.56672 | 321° | 166km/h | 19283m | -80.1m/s | -51.8°C | 0.8% | 67.2hPa | 0V | 00:00:00 | 00:00:00 | 00:00:00 | |
| KRY50SP | 2026-09-03 00:57:13 | 52.39149 | 21.56672 | 321° | 166km/h | 19283m | -80.1m/s | -51.6°C | 0.9% | 65.0hPa | 0V | 00:00:00 | 00:00:00 | 00:00:00 | |
| KRY50SP | 2026-09-03 00:57:07 | 52.39149 | 21.56672 | 321° | 166km/h | 19283m | -80.1m/s | -52.4°C | 0.9% | 63.0hPa | 0V | 00:00:00 | 00:00:00 | 00:00:00 | |
| SP4MAZ | 2026-09-03 00:57:04 | -17.15303 | 82.46548 | 0° | 0km/h | 1846m | 0.0m/s | -52.5°C | 0.9% | 61.9hPa | 0V | 00:00:00 | 00:00:00 | 00:00:00 | |
| KRY50SP | 2026-09-03 00:57:01 | 52.39149 | 21.56672 | 321° | 166km/h | 19283m | -80.1m/s | -52.6°C | 0.9% | 60.9hPa | 0V | 00:00:00 | 00:00:00 | 00:00:00 | |
| KRY50SP | 2026-09-03 00:56:56 | 52.39149 | 21.56672 | 321° | 166km/h | 19283m | -80.1m/s | -51.7°C | 0.9% | 59.3hPa | 0V | 00:00:00 | 00:00:00 | 00:00:00 | |
| KRY50SP | 2026-09-03 00:56:50 | 52.39149 | 21.56672 | 321° | 166km/h | 19283m | -80.1m/s | -51.2°C | 0.8% | 57.3hPa | 0V | 00:00:00 | 00:00:00 | 00:00:00 | |
| SP4MAZ | 2026-09-03 00:56:44 | -17.15303 | 82.46548 | 0° | 0km/h | 1846m | 0.0m/s | -51.2°C | 0.8% | 55.3hPa | 0V | 00:00:00 | 00:00:00 | 00:00:00 | |
| KRY50SP | 2026-09-03 00:56:44 | 52.39149 | 21.56672 | 321° | 166km/h | 19283m | -80.1m/s | -51.2°C | 0.8% | 55.3hPa | 0V | 00:00:00 | 00:00:00 | 00:00:00 | |
| KRY50SP | 2026-09-03 00:56:38 | 52.39149 | 21.56672 | 321° | 166km/h | 19283m | -80.1m/s | -51.4°C | 0.8% | 53.5hPa | 0V | 00:00:00 | 00:00:00 | 00:00:00 | |
| KRY50SP | 2026-09-03 00:56:32 | 52.39149 | 21.56672 | 321° | 166km/h | 19283m | -80.1m/s | -51.8°C | 0.9% | 51.6hPa | 0V | 00:00:00 | 00:00:00 | 00:00:00 | |
| KRY50SP | 2026-09-03 00:56:27 | 52.39149 | 21.56672 | 321° | 166km/h | 19283m | -80.1m/s | -52.1°C | 0.8% | 50.1hPa | 0V | 00:00:00 | 00:00:00 | 00:00:00 | |
| KRY50SP | 2026-09-03 00:56:21 | 52.39149 | 21.56672 | 321° | 166km/h | 19283m | -80.1m/s | -52.2°C | 0.9% | 48.3hPa | 0V | 00:00:00 | 00:00:00 | 00:00:00 | |
| KRY50SP | 2026-09-03 00:56:15 | 52.39149 | 21.56672 | 321° | 166km/h | 19283m | -80.1m/s | -51.5°C | 0.8% | 46.5hPa | 0V | 00:00:00 | 00:00:00 | 00:00:00 | |
| KRY50SP | 2026-09-03 00:56:09 | 52.39149 | 21.56672 | 321° | 166km/h | 19283m | -80.1m/s | -51.5°C | 0.8% | 44.9hPa | 0V | 00:00:00 | 00:00:00 | 00:00:00 | |
| KRY50SP | 2026-09-03 00:56:04 | 52.39149 | 21.56672 | 321° | 166km/h | 19283m | -80.1m/s | -51.0°C | 0.7% | 43.4hPa | 0V | 00:00:00 | 00:00:00 | 00:00:00 | |
| KRY50SP | 2026-09-03 00:55:59 | 52.39149 | 21.56672 | 321° | 166km/h | 19283m | -80.1m/s | -50.7°C | 0.7% | 42.0hPa | 0V | 00:00:00 | 00:00:00 | 00:00:00 | |
| KRY50SP | 2026-09-03 00:55:54 | 52.39149 | 21.56672 | 321° | 166km/h | 19283m | -80.1m/s | -51.0°C | 0.7% | 40.7hPa | 0V | 00:00:00 | 00:00:00 | 00:00:00 | |
| KRY50SP | 2026-09-03 00:55:49 | 52.39149 | 21.56672 | 321° | 166km/h | 19283m | -80.1m/s | -51.0°C | 0.7% | 39.4hPa | 0V | 00:00:00 | 00:00:00 | 00:00:00 | |
| KRY50SP | 2026-09-03 00:55:44 | 52.39149 | 21.56672 | 321° | 166km/h | 19283m | -80.1m/s | -51.0°C | 0.7% | 38.0hPa | 0V | 00:00:00 | 00:00:00 | 00:00:00 | |
| SP4MAZ | 2026-09-03 00:55:38 | -17.15303 | 82.46548 | 0° | 0km/h | 1846m | 0.0m/s | -51.4°C | 0.8% | 36.5hPa | 0V | 00:00:00 | 00:00:00 | 00:00:00 | |
| KRY50SP | 2026-09-03 00:55:32 | 52.39149 | 21.56672 | 321° | 166km/h | 19283m | -80.1m/s | -51.8°C | 0.8% | 35.0hPa | 0V | 00:00:00 | 00:00:00 | 00:00:00 | |
| KRY50SP | 2026-09-03 00:55:26 | 52.39149 | 21.56672 | 321° | 166km/h | 19283m | -80.1m/s | -51.2°C | 0.8% | 33.6hPa | 0V | 00:00:00 | 00:00:00 | 00:00:00 | |
| KRY50SP | 2026-09-03 00:55:20 | 52.39149 | 21.56672 | 321° | 166km/h | 19283m | -80.1m/s | -51.3°C | 0.7% | 32.1hPa | 0V | 00:00:00 | 00:00:00 | 00:00:00 | |
| KRY50SP | 2026-09-03 00:55:15 | 52.39149 | 21.56672 | 321° | 166km/h | 19283m | -80.1m/s | -50.6°C | 0.7% | 30.9hPa | 0V | 00:00:00 | 00:00:00 | 00:00:00 | |
| SP4MAZ | 2026-09-03 00:55:09 | -17.15303 | 82.46548 | 0° | 0km/h | 1846m | 0.0m/s | -49.9°C | 0.7% | 29.6hPa | 0V | 00:00:00 | 00:00:00 | 00:00:00 | |
| KRY50SP | 2026-09-03 00:55:04 | 52.39149 | 21.56672 | 321° | 166km/h | 19283m | -80.1m/s | -50.2°C | 0.7% | 28.4hPa | 0V | 00:00:00 | 00:00:00 | 00:00:00 | |
| KRY50SP | 2026-09-03 00:54:58 | 52.39149 | 21.56672 | 321° | 166km/h | 19283m | -80.1m/s | -50.6°C | 0.8% | 27.1hPa | 0V | 00:00:00 | 00:00:00 | 00:00:00 | |
| KRY50SP | 2026-09-03 00:54:52 | 52.39149 | 21.56672 | 321° | 166km/h | 19283m | -80.1m/s | -49.9°C | 0.7% | 25.8hPa | 0V | 00:00:00 | 00:00:00 | 00:00:00 | |
| SP4MAZ | 2026-09-03 00:54:46 | -17.15303 | 82.46548 | 0° | 0km/h | 1846m | 0.0m/s | -49.0°C | 0.7% | 24.5hPa | 0V | 00:00:00 | 00:00:00 | 00:00:00 | |
| KRY50SP | 2026-09-03 00:54:46 | 52.39149 | 21.56672 | 321° | 166km/h | 19283m | -80.1m/s | -49.0°C | 0.7% | 24.5hPa | 0V | 00:00:00 | 00:00:00 | 00:00:00 | |
| KRY50SP | 2026-09-03 00:54:40 | 52.39149 | 21.56672 | 321° | 166km/h | 19283m | -80.1m/s | -48.2°C | 0.6% | 23.3hPa | 0V | 00:00:00 | 00:00:00 | 00:00:00 | |
| KRY50SP | 2026-09-03 00:54:34 | 52.39149 | 21.56672 | 321° | 166km/h | 19283m | -80.1m/s | -47.2°C | 0.6% | 22.1hPa | 0V | 00:00:00 | 00:00:00 | 00:00:00 | |
| KRY50SP | 2026-09-03 00:54:28 | 52.39149 | 21.56672 | 321° | 166km/h | 19283m | -80.1m/s | -46.9°C | 0.6% | 21.0hPa | 0V | 00:00:00 | 00:00:00 | 00:00:00 | |
| KRY50SP | 2026-09-03 00:54:23 | 52.39149 | 21.56672 | 321° | 166km/h | 19283m | -80.1m/s | -47.0°C | 0.6% | 20.0hPa | 0V | 00:00:00 | 00:00:00 | 00:00:00 | |
| KRY50SP | 2026-09-03 00:54:17 | 52.39149 | 21.56672 | 321° | 166km/h | 19283m | -80.1m/s | -45.9°C | 0.5% | 18.9hPa | 0V | 00:00:00 | 00:00:00 | 00:00:00 | |
| KRY50SP | 2026-09-03 00:54:11 | 52.39149 | 21.56672 | 321° | 166km/h | 19283m | -80.1m/s | -45.2°C | 0.5% | 17.8hPa | 0V | 00:00:00 | 00:00:00 | 00:00:00 | |
| KRY50SP | 2026-09-03 00:54:05 | 52.39149 | 21.56672 | 321° | 166km/h | 19283m | -80.1m/s | -44.1°C | 0.5% | 16.8hPa | 0V | 00:00:00 | 00:00:00 | 00:00:00 | |
| KRY50SP | 2026-09-03 00:53:59 | 52.39149 | 21.56672 | 321° | 166km/h | 19283m | -80.1m/s | -43.7°C | 0.5% | 15.9hPa | 0V | 00:00:00 | 00:00:00 | 00:00:00 | |
| SP4MAZ | 2026-09-03 00:53:58 | -17.15303 | 82.46548 | 0° | 0km/h | 1846m | 0.0m/s | -43.9°C | 0.5% | 15.7hPa | 0V | 00:00:00 | 00:00:00 | 00:00:00 | |
| KRY50SP | 2026-09-03 00:53:54 | 52.39149 | 21.56672 | 321° | 166km/h | 19283m | -80.1m/s | -43.5°C | 0.5% | 15.1hPa | 0V | 00:00:00 | 00:00:00 | 00:00:00 | |
| KRY50SP | 2026-09-03 00:53:49 | 52.39149 | 21.56672 | 321° | 166km/h | 19283m | -80.1m/s | -42.9°C | 0.5% | 14.3hPa | 0V | 00:00:00 | 00:00:00 | 00:00:00 | |
| KRY50SP | 2026-09-03 00:53:44 | 52.39149 | 21.56672 | 321° | 166km/h | 19283m | -80.1m/s | -42.6°C | 0.4% | 13.6hPa | 0V | 00:00:00 | 00:00:00 | 00:00:00 | |
| KRY50SP | 2026-09-03 00:53:39 | 52.39149 | 21.56672 | 321° | 166km/h | 19283m | -80.1m/s | -41.8°C | 0.4% | 12.9hPa | 0V | 00:00:00 | 00:00:00 | 00:00:00 | |
| SP4MAZ | 2026-09-03 00:53:36 | -17.15303 | 82.46548 | 0° | 0km/h | 1846m | 0.0m/s | -40.9°C | 0.4% | 12.5hPa | 0V | 00:00:00 | 00:00:00 | 00:00:00 | |
| KRY50SP | 2026-09-03 00:53:33 | 52.39149 | 21.56672 | 321° | 166km/h | 19283m | -80.1m/s | -40.1°C | 0.4% | 12.0hPa | 0V | 00:00:00 | 00:00:00 | 00:00:00 | |
| KRY50SP | 2026-09-03 00:53:27 | 52.39149 | 21.56672 | 321° | 166km/h | 19283m | -80.1m/s | -38.5°C | 0.3% | 11.2hPa | 0V | 00:00:00 | 00:00:00 | 00:00:00 | |
| KRY50SP | 2026-09-03 00:53:21 | 52.39149 | 21.56672 | 321° | 166km/h | 19283m | -80.1m/s | -37.9°C | 0.3% | 10.5hPa | 0V | 00:00:00 | 00:00:00 | 00:00:00 | |
| KRY50SP | 2026-09-03 00:53:16 | 52.39149 | 21.56672 | 321° | 166km/h | 19283m | -80.1m/s | -37.3°C | 0.3% | 9.9hPa | 0V | 00:00:00 | 00:00:00 | 00:00:00 | |
| SP4MAZ | 2026-09-03 00:53:12 | -16.09943 | 81.63199 | 0° | 0km/h | 1632m | 0.0m/s | -36.5°C | 0.3% | 9.4hPa | 0V | 00:00:00 | 00:00:00 | 00:00:00 | |
| KRY50SP | 2026-09-03 00:53:10 | 52.39149 | 21.56672 | 321° | 166km/h | 19283m | -80.1m/s | -36.5°C | 0.3% | 9.2hPa | 0V | 00:00:00 | 00:00:00 | 00:00:00 | |
| KRY50SP | 2026-09-03 00:53:04 | 52.39149 | 21.56672 | 321° | 166km/h | 19283m | -80.1m/s | -36.0°C | 0.3% | 8.5hPa | 0V | 00:00:00 | 00:00:00 | 00:00:00 | |
| KRY50SP | 2026-09-03 00:52:59 | 52.39149 | 21.56672 | 321° | 166km/h | 19283m | -80.1m/s | -34.3°C | 0.2% | 7.9hPa | 0V | 00:00:00 | 00:00:00 | 00:00:00 | |
| KRY50SP | 2026-09-03 00:52:53 | 52.39149 | 21.56672 | 321° | 166km/h | 19283m | -80.1m/s | -34.0°C | 0.2% | 7.5hPa | 0V | 00:00:00 | 00:00:00 | 00:00:00 | |
| SP4MAZ | 2026-09-03 00:52:52 | 5.07183 | 62.53401 | 0° | 0km/h | 166m | 0.0m/s | -34.0°C | 0.2% | 7.4hPa | 0V | 00:00:00 | 00:00:00 | 00:00:00 | |
| KRY50SP | 2026-09-03 00:52:36 | 52.39149 | 21.56672 | 321° | 166km/h | 19283m | -80.1m/s | -34.5°C | 0.2% | 7.1hPa | 0V | 00:00:00 | 00:00:00 | 00:00:00 | |
| SP4MAZ | 2026-09-03 00:52:31 | 5.07183 | 62.53401 | 0° | 0km/h | 166m | 0.0m/s | -34.6°C | 0.2% | 7.1hPa | 0V | 00:00:00 | 00:00:00 | 00:00:00 | |
| KRY50SP | 2026-09-03 00:52:30 | 52.39149 | 21.56672 | 321° | 166km/h | 19283m | -80.1m/s | -34.6°C | 0.2% | 7.1hPa | 0V | 00:00:00 | 00:00:00 | 00:00:00 | |
| KRY50SP | 2026-09-03 00:52:25 | 52.39149 | 21.56672 | 321° | 166km/h | 19283m | -80.1m/s | -34.6°C | 0.2% | 7.2hPa | 0V | 00:00:00 | 00:00:00 | 00:00:00 | |
| KRY50SP | 2026-09-03 00:52:20 | 52.39149 | 21.56672 | 321° | 166km/h | 19283m | -80.1m/s | -34.7°C | 0.3% | 7.2hPa | 0V | 00:00:00 | 00:00:00 | 00:00:00 | |
| KRY50SP | 2026-09-03 00:52:14 | 52.39149 | 21.56672 | 321° | 166km/h | 19283m | -80.1m/s | -35.2°C | 0.2% | 7.3hPa | 0V | 00:00:00 | 00:00:00 | 00:00:00 | |
| SP4MAZ | 2026-09-03 00:52:11 | 5.07183 | 62.53401 | 0° | 0km/h | 166m | 0.0m/s | -35.3°C | 0.2% | 7.3hPa | 0V | 00:00:00 | 00:00:00 | 00:00:00 | |
| KRY50SP | 2026-09-03 00:52:08 | 52.39149 | 21.56672 | 321° | 166km/h | 19283m | -80.1m/s | -35.3°C | 0.2% | 7.3hPa | 0V | 00:00:00 | 00:00:00 | 00:00:00 | |
| KRY50SP | 2026-09-03 00:52:03 | 52.39149 | 21.56672 | 321° | 166km/h | 19283m | -80.1m/s | -35.5°C | 0.2% | 7.3hPa | 0V | 00:00:00 | 00:00:00 | 00:00:00 | |
| KRY50SP | 2026-09-03 00:51:57 | 52.39149 | 21.56672 | 321° | 166km/h | 19283m | -80.1m/s | -35.7°C | 0.2% | 7.4hPa | 0V | 00:00:00 | 00:00:00 | 00:00:00 | |
| KRY50SP | 2026-09-03 00:51:51 | 52.39149 | 21.56672 | 321° | 166km/h | 19283m | -80.1m/s | -35.9°C | 0.2% | 7.4hPa | 0V | 00:00:00 | 00:00:00 | 00:00:00 | |
| KRY50SP | 2026-09-03 00:51:40 | 52.39149 | 21.56672 | 321° | 166km/h | 19283m | -80.1m/s | -36.0°C | 0.3% | 7.5hPa | 0V | 00:00:00 | 00:00:00 | 00:00:00 | |
| KRY50SP | 2026-09-03 00:51:34 | 52.39149 | 21.56672 | 321° | 166km/h | 19283m | -80.1m/s | -35.8°C | 0.2% | 7.6hPa | 0V | 00:00:00 | 00:00:00 | 00:00:00 | |
| KRY50SP | 2026-09-03 00:51:28 | 52.39149 | 21.56672 | 321° | 166km/h | 19283m | -80.1m/s | -35.9°C | 0.2% | 7.6hPa | 0V | 00:00:00 | 00:00:00 | 00:00:00 | |
| KRY50SP | 2026-09-03 00:51:22 | 52.39149 | 21.56672 | 321° | 166km/h | 19283m | -80.1m/s | -36.0°C | 0.2% | 7.7hPa | 0V | 00:00:00 | 00:00:00 | 00:00:00 | |
| KRY50SP | 2026-09-03 00:51:17 | 52.39149 | 21.56672 | 321° | 166km/h | 19283m | -80.1m/s | -36.1°C | 0.3% | 7.7hPa | 0V | 00:00:00 | 00:00:00 | 00:00:00 | |
| KRY50SP | 2026-09-03 00:51:11 | 52.39149 | 21.56672 | 321° | 166km/h | 19283m | -80.1m/s | -36.5°C | 0.3% | 7.8hPa | 0V | 00:00:00 | 00:00:00 | 00:00:00 | |
| KRY50SP | 2026-09-03 00:51:06 | 52.39149 | 21.56672 | 321° | 166km/h | 19283m | -80.1m/s | -37.1°C | 0.3% | 7.8hPa | 0V | 00:00:00 | 00:00:00 | 00:00:00 | |
| SP4MAZ | 2026-09-03 00:51:03 | 2.30337 | 64.59686 | 0° | 0km/h | 34m | 0.0m/s | -37.2°C | 0.3% | 7.9hPa | 0V | 00:00:00 | 00:00:00 | 00:00:00 | |
| KRY50SP | 2026-09-03 00:51:00 | 52.39149 | 21.56672 | 321° | 166km/h | 19283m | -80.1m/s | -37.4°C | 0.3% | 7.9hPa | 0V | 00:00:00 | 00:00:00 | 00:00:00 | |
| KRY50SP | 2026-09-03 00:50:55 | 52.39149 | 21.56672 | 321° | 166km/h | 19283m | -80.1m/s | -37.6°C | 0.3% | 7.9hPa | 0V | 00:00:00 | 00:00:00 | 00:00:00 | |
| KRY50SP | 2026-09-03 00:50:49 | 52.39149 | 21.56672 | 321° | 166km/h | 19283m | -80.1m/s | -38.1°C | 0.3% | 7.9hPa | 0V | 00:00:00 | 00:00:00 | 00:00:00 | |
| SP4MAZ | 2026-09-03 00:50:43 | 7.84249 | 59.84086 | 0° | 0km/h | 395m | 0.0m/s | -38.3°C | 0.3% | 8.0hPa | 0V | 00:00:00 | 00:00:00 | 00:00:00 | |
| KRY50SP | 2026-09-03 00:50:38 | 52.39149 | 21.56672 | 321° | 166km/h | 19283m | -80.1m/s | -38.7°C | 0.3% | 8.0hPa | 0V | 00:00:00 | 00:00:00 | 00:00:00 | |
| KRY50SP | 2026-09-03 00:50:32 | 52.39149 | 21.56672 | 321° | 166km/h | 19283m | -80.1m/s | -38.9°C | 0.3% | 8.1hPa | 0V | 00:00:00 | 00:00:00 | 00:00:00 | |
| SP4MAZ | 2026-09-03 00:50:22 | 7.84249 | 59.84086 | 0° | 0km/h | 395m | 0.0m/s | -38.9°C | 0.3% | 8.2hPa | 0V | 00:00:00 | 00:00:00 | 00:00:00 | |
| KRY50SP | 2026-09-03 00:50:21 | 52.39149 | 21.56672 | 321° | 166km/h | 19283m | -80.1m/s | -38.9°C | 0.3% | 8.2hPa | 0V | 00:00:00 | 00:00:00 | 00:00:00 | |
| KRY50SP | 2026-09-03 00:50:15 | 52.39149 | 21.56672 | 321° | 166km/h | 19283m | -80.1m/s | -39.1°C | 0.3% | 8.3hPa | 0V | 00:00:00 | 00:00:00 | 00:00:00 | |
| KRY50SP | 2026-09-03 00:50:09 | 52.39149 | 21.56672 | 321° | 166km/h | 19283m | -80.1m/s | -39.4°C | 0.3% | 8.3hPa | 0V | 00:00:00 | 00:00:00 | 00:00:00 | |
| KRY50SP | 2026-09-03 00:50:04 | 52.39149 | 21.56672 | 321° | 166km/h | 19283m | -80.1m/s | -39.7°C | 0.3% | 8.3hPa | 0V | 00:00:00 | 00:00:00 | 00:00:00 | |
| SP4MAZ | 2026-09-03 00:50:02 | 7.84249 | 59.84086 | 0° | 0km/h | 395m | 0.0m/s | -39.8°C | 0.3% | 8.4hPa | 0V | 00:00:00 | 00:00:00 | 00:00:00 | |
| KRY50SP | 2026-09-03 00:49:58 | 52.39149 | 21.56672 | 321° | 166km/h | 19283m | -80.1m/s | -39.8°C | 0.3% | 8.4hPa | 0V | 00:00:00 | 00:00:00 | 00:00:00 | |
| KRY50SP | 2026-09-03 00:49:53 | 52.39149 | 21.56672 | 321° | 166km/h | 19283m | -80.1m/s | -40.1°C | 0.3% | 8.4hPa | 0V | 00:00:00 | 00:00:00 | 00:00:00 | |
| KRY50SP | 2026-09-03 00:49:47 | 52.39149 | 21.56672 | 321° | 166km/h | 19283m | -80.1m/s | -40.1°C | 0.3% | 8.5hPa | 0V | 00:00:00 | 00:00:00 | 00:00:00 | |
| KRY50SP | 2026-09-03 00:49:41 | 52.39149 | 21.56672 | 321° | 166km/h | 19283m | -80.1m/s | -40.0°C | 0.3% | 8.5hPa | 0V | 00:00:00 | 00:00:00 | 00:00:00 | |
| KRY50SP | 2026-09-03 00:49:35 | 52.39149 | 21.56672 | 321° | 166km/h | 19283m | -80.1m/s | -40.0°C | 0.3% | 8.6hPa | 0V | 00:00:00 | 00:00:00 | 00:00:00 | |
| KRY50SP | 2026-09-03 00:49:24 | 52.39149 | 21.56672 | 321° | 166km/h | 19283m | -80.1m/s | -40.1°C | 0.3% | 8.7hPa | 0V | 00:00:00 | 00:00:00 | 00:00:00 | |
| KRY50SP | 2026-09-03 00:49:18 | 52.39149 | 21.56672 | 321° | 166km/h | 19283m | -80.1m/s | -40.1°C | 0.3% | 8.8hPa | 0V | 00:00:00 | 00:00:00 | 00:00:00 | |
| KRY50SP | 2026-09-03 00:49:12 | 52.39149 | 21.56672 | 321° | 166km/h | 19283m | -80.1m/s | -40.2°C | 0.3% | 8.8hPa | 0V | 00:00:00 | 00:00:00 | 00:00:00 | |
| KRY50SP | 2026-09-03 00:49:06 | 52.39149 | 21.56672 | 321° | 166km/h | 19283m | -80.1m/s | -40.2°C | 0.3% | 8.9hPa | 0V | 00:00:00 | 00:00:00 | 00:00:00 | |
| KRY50SP | 2026-09-03 00:49:00 | 52.39149 | 21.56672 | 321° | 166km/h | 19283m | -80.1m/s | -40.2°C | 0.4% | 9.0hPa | 0V | 00:00:00 | 00:00:00 | 00:00:00 | |
| KRY50SP | 2026-09-03 00:48:55 | 52.39149 | 21.56672 | 321° | 166km/h | 19283m | -80.1m/s | -40.4°C | 0.3% | 9.0hPa | 0V | 00:00:00 | 00:00:00 | 00:00:00 | |
| SP4MAZ | 2026-09-03 00:48:54 | 7.84249 | 59.84086 | 0° | 0km/h | 395m | 0.0m/s | -40.4°C | 0.4% | 9.0hPa | 0V | 00:00:00 | 00:00:00 | 00:00:00 | |
| KRY50SP | 2026-09-03 00:48:49 | 52.39149 | 21.56672 | 321° | 166km/h | 19283m | -80.1m/s | -40.4°C | 0.3% | 9.1hPa | 0V | 00:00:00 | 00:00:00 | 00:00:00 | |
| KRY50SP | 2026-09-03 00:48:43 | 52.39149 | 21.56672 | 321° | 166km/h | 19283m | -80.1m/s | -40.3°C | 0.4% | 9.1hPa | 0V | 00:00:00 | 00:00:00 | 00:00:00 | |
| KRY50SP | 2026-09-03 00:48:38 | 52.39149 | 21.56672 | 321° | 166km/h | 19283m | -80.1m/s | -40.5°C | 0.4% | 9.1hPa | 0V | 00:00:00 | 00:00:00 | 00:00:00 | |
| SP4MAZ | 2026-09-03 00:48:32 | 7.84249 | 59.84086 | 0° | 0km/h | 395m | 0.0m/s | -40.5°C | 0.4% | 9.2hPa | 0V | 00:00:00 | 00:00:00 | 00:00:00 | |
| KRY50SP | 2026-09-03 00:48:21 | 52.39149 | 21.56672 | 321° | 166km/h | 19283m | -80.1m/s | -40.6°C | 0.4% | 9.3hPa | 0V | 00:00:00 | 00:00:00 | 00:00:00 | |
| KRY50SP | 2026-09-03 00:48:16 | 52.39149 | 21.56672 | 321° | 166km/h | 19283m | -80.1m/s | -40.7°C | 0.4% | 9.3hPa | 0V | 00:00:00 | 00:00:00 | 00:00:00 | |
| KRY50SP | 2026-09-03 00:48:10 | 52.39149 | 21.56672 | 321° | 166km/h | 19283m | -80.1m/s | -40.5°C | 0.3% | 9.4hPa | 0V | 00:00:00 | 00:00:00 | 00:00:00 | |
| KRY50SP | 2026-09-03 00:48:04 | 52.39149 | 21.56672 | 321° | 166km/h | 19283m | -80.1m/s | -40.7°C | 0.4% | 9.5hPa | 0V | 00:00:00 | 00:00:00 | 00:00:00 | |
| KRY50SP | 2026-09-03 00:47:58 | 52.39149 | 21.56672 | 321° | 166km/h | 19283m | -80.1m/s | -40.7°C | 0.3% | 9.6hPa | 0V | 00:00:00 | 00:00:00 | 00:00:00 | |
| KRY50SP | 2026-09-03 00:47:53 | 52.39149 | 21.56672 | 321° | 166km/h | 19283m | -80.1m/s | -40.8°C | 0.4% | 9.6hPa | 0V | 00:00:00 | 00:00:00 | 00:00:00 | |
| KRY50SP | 2026-09-03 00:47:48 | 52.39149 | 21.56672 | 321° | 166km/h | 19283m | -80.1m/s | -40.7°C | 0.4% | 9.7hPa | 0V | 00:00:00 | 00:00:00 | 00:00:00 | |
| KRY50SP | 2026-09-03 00:47:42 | 52.39149 | 21.56672 | 321° | 166km/h | 19283m | -80.1m/s | -40.6°C | 0.4% | 9.7hPa | 0V | 00:00:00 | 00:00:00 | 00:00:00 | |
| KRY50SP | 2026-09-03 00:47:36 | 52.39149 | 21.56672 | 321° | 166km/h | 19283m | -80.1m/s | -40.3°C | 0.3% | 9.8hPa | 0V | 00:00:00 | 00:00:00 | 00:00:00 | |
| KRY50SP | 2026-09-03 00:47:30 | 52.39149 | 21.56672 | 321° | 166km/h | 19283m | -80.1m/s | -40.2°C | 0.3% | 9.8hPa | 0V | 00:00:00 | 00:00:00 | 00:00:00 | |
| KRY50SP | 2026-09-03 00:47:25 | 52.39149 | 21.56672 | 321° | 166km/h | 19283m | -80.1m/s | -40.2°C | 0.3% | 9.9hPa | 0V | 00:00:00 | 00:00:00 | 00:00:00 | |
| KRY50SP | 2026-09-03 00:47:20 | 52.39149 | 21.56672 | 321° | 166km/h | 19283m | -80.1m/s | -40.3°C | 0.3% | 10.0hPa | 0V | 00:00:00 | 00:00:00 | 00:00:00 | |
| KRY50SP | 2026-09-03 00:47:14 | 52.39149 | 21.56672 | 321° | 166km/h | 19283m | -80.1m/s | -40.6°C | 0.4% | 10.0hPa | 0V | 00:00:00 | 00:00:00 | 00:00:00 | |
| KRY50SP | 2026-09-03 00:47:09 | 52.39149 | 21.56672 | 321° | 166km/h | 19283m | -80.1m/s | -40.7°C | 0.4% | 10.1hPa | 0V | 00:00:00 | 00:00:00 | 00:00:00 | |
| KRY50SP | 2026-09-03 00:47:03 | 52.39149 | 21.56672 | 321° | 166km/h | 19283m | -80.1m/s | -40.6°C | 0.4% | 10.1hPa | 0V | 00:00:00 | 00:00:00 | 00:00:00 | |
| SP4MAZ | 2026-09-03 00:47:01 | 9.10455 | 58.85327 | 0° | 0km/h | 531m | 0.0m/s | -40.6°C | 0.4% | 10.1hPa | 0V | 00:00:00 | 00:00:00 | 00:00:00 | |
| KRY50SP | 2026-09-03 00:46:58 | 52.39149 | 21.56672 | 321° | 166km/h | 19283m | -80.1m/s | -40.6°C | 0.3% | 10.2hPa | 0V | 00:00:00 | 00:00:00 | 00:00:00 | |
| KRY50SP | 2026-09-03 00:46:53 | 52.39149 | 21.56672 | 321° | 166km/h | 19283m | -80.1m/s | -40.8°C | 0.4% | 10.3hPa | 0V | 00:00:00 | 00:00:00 | 00:00:00 | |
| KRY50SP | 2026-09-03 00:46:47 | 52.39149 | 21.56672 | 321° | 166km/h | 19283m | -80.1m/s | -40.9°C | 0.3% | 10.3hPa | 0V | 00:00:00 | 00:00:00 | 00:00:00 | |
| KRY50SP | 2026-09-03 00:46:41 | 52.39149 | 21.56672 | 321° | 166km/h | 19283m | -80.1m/s | -41.0°C | 0.4% | 10.4hPa | 0V | 00:00:00 | 00:00:00 | 00:00:00 | |
| SP4MAZ | 2026-09-03 00:46:39 | 26.09289 | 46.83819 | 0° | 0km/h | 4109m | 0.0m/s | -40.9°C | 0.4% | 10.4hPa | 0V | 00:00:00 | 00:00:00 | 00:00:00 | |
| KRY50SP | 2026-09-03 00:46:36 | 52.39149 | 21.56672 | 321° | 166km/h | 19283m | -80.1m/s | -41.0°C | 0.4% | 10.5hPa | 0V | 00:00:00 | 00:00:00 | 00:00:00 | |
| KRY50SP | 2026-09-03 00:46:30 | 52.39149 | 21.56672 | 321° | 166km/h | 19283m | -80.1m/s | -40.9°C | 0.4% | 10.5hPa | 0V | 00:00:00 | 00:00:00 | 00:00:00 | |
| KRY50SP | 2026-09-03 00:46:24 | 52.39149 | 21.56672 | 321° | 166km/h | 19283m | -80.1m/s | -40.9°C | 0.4% | 10.6hPa | 0V | 00:00:00 | 00:00:00 | 00:00:00 | |
| SP4MAZ | 2026-09-03 00:46:19 | 28.46561 | 44.57818 | 0° | 0km/h | 4827m | 0.0m/s | -40.8°C | 0.4% | 10.6hPa | 0V | 00:00:00 | 00:00:00 | 00:00:00 | |
| KRY50SP | 2026-09-03 00:46:18 | 52.39149 | 21.56672 | 321° | 166km/h | 19283m | -80.1m/s | -40.8°C | 0.4% | 10.6hPa | 0V | 00:00:00 | 00:00:00 | 00:00:00 | |
| KRY50SP | 2026-09-03 00:46:12 | 52.39149 | 21.56672 | 321° | 166km/h | 19283m | -80.1m/s | -40.7°C | 0.4% | 10.7hPa | 0V | 00:00:00 | 00:00:00 | 00:00:00 | |
| KRY50SP | 2026-09-03 00:46:00 | 52.39149 | 21.56672 | 321° | 166km/h | 19283m | -80.1m/s | -40.9°C | 0.4% | 10.8hPa | 0V | 00:00:00 | 00:00:00 | 00:00:00 | |
| SP4MAZ | 2026-09-03 00:45:58 | 30.58257 | 42.49883 | 0° | 0km/h | 5501m | 0.0m/s | -41.0°C | 0.4% | 10.9hPa | 0V | 00:00:00 | 00:00:00 | 00:00:00 | |
| KRY50SP | 2026-09-03 00:45:55 | 52.39149 | 21.56672 | 321° | 166km/h | 19283m | -80.1m/s | -41.0°C | 0.3% | 10.9hPa | 0V | 00:00:00 | 00:00:00 | 00:00:00 | |
| KRY50SP | 2026-09-03 00:45:49 | 52.39149 | 21.56672 | 321° | 166km/h | 19283m | -80.1m/s | -41.3°C | 0.4% | 10.9hPa | 0V | 00:00:00 | 00:00:00 | 00:00:00 | |
| KRY50SP | 2026-09-03 00:45:44 | 52.39149 | 21.56672 | 321° | 166km/h | 19283m | -80.1m/s | -41.4°C | 0.4% | 11.0hPa | 0V | 00:00:00 | 00:00:00 | 00:00:00 | |
| KRY50SP | 2026-09-03 00:45:39 | 52.39149 | 21.56672 | 321° | 166km/h | 19283m | -80.1m/s | -41.4°C | 0.4% | 11.1hPa | 0V | 00:00:00 | 00:00:00 | 00:00:00 | |
| KRY50SP | 2026-09-03 00:45:34 | 52.39149 | 21.56672 | 321° | 166km/h | 19283m | -80.1m/s | -41.5°C | 0.4% | 11.1hPa | 0V | 00:00:00 | 00:00:00 | 00:00:00 | |
| KRY50SP | 2026-09-03 00:45:28 | 52.39149 | 21.56672 | 321° | 166km/h | 19283m | -80.1m/s | -41.8°C | 0.4% | 11.2hPa | 0V | 00:00:00 | 00:00:00 | 00:00:00 | |
| KRY50SP | 2026-09-03 00:45:22 | 52.39149 | 21.56672 | 321° | 166km/h | 19283m | -80.1m/s | -42.0°C | 0.4% | 11.3hPa | 0V | 00:00:00 | 00:00:00 | 00:00:00 | |
| KRY50SP | 2026-09-03 00:45:18 | 52.39149 | 21.56672 | 321° | 166km/h | 19283m | -80.1m/s | -42.2°C | 0.4% | 11.3hPa | 0V | 00:00:00 | 00:00:00 | 00:00:00 | |
| KRY50SP | 2026-09-03 00:45:11 | 52.39149 | 21.56672 | 321° | 166km/h | 19283m | -80.1m/s | -42.4°C | 0.4% | 11.4hPa | 0V | 00:00:00 | 00:00:00 | 00:00:00 | |
| SP4MAZ | 2026-09-03 00:45:10 | 45.10683 | 22.85982 | 0° | 0km/h | 10688m | 0.0m/s | -42.4°C | 0.4% | 11.4hPa | 0V | 00:00:00 | 00:00:00 | 00:00:00 | |
| KRY50SP | 2026-09-03 00:45:05 | 52.39149 | 21.56672 | 321° | 166km/h | 19283m | -80.1m/s | -42.6°C | 0.4% | 11.5hPa | 0V | 00:00:00 | 00:00:00 | 00:00:00 | |
| KRY50SP | 2026-09-03 00:45:00 | 52.39149 | 21.56672 | 321° | 166km/h | 19283m | -80.1m/s | -42.8°C | 0.4% | 11.5hPa | 0V | 00:00:00 | 00:00:00 | 00:00:00 | |
| KRY50SP | 2026-09-03 00:44:54 | 52.39149 | 21.56672 | 321° | 166km/h | 19283m | -80.1m/s | -43.1°C | 0.4% | 11.6hPa | 0V | 00:00:00 | 00:00:00 | 00:00:00 | |
| KRY50SP | 2026-09-03 00:44:48 | 52.39149 | 21.56672 | 321° | 166km/h | 19283m | -80.1m/s | -43.3°C | 0.4% | 11.6hPa | 0V | 00:00:00 | 00:00:00 | 00:00:00 | |
| SP4MAZ | 2026-09-03 00:44:47 | 45.25935 | 22.66890 | 0° | 0km/h | 10744m | 0.0m/s | -43.4°C | 0.4% | 11.7hPa | 0V | 00:00:00 | 00:00:00 | 00:00:00 | |
| KRY50SP | 2026-09-03 00:44:43 | 52.39149 | 21.56672 | 321° | 166km/h | 19283m | -80.1m/s | -43.5°C | 0.4% | 11.7hPa | 0V | 00:00:00 | 00:00:00 | 00:00:00 | |
| KRY50SP | 2026-09-03 00:44:37 | 52.39149 | 21.56672 | 321° | 166km/h | 19283m | -80.1m/s | -43.7°C | 0.4% | 11.8hPa | 0V | 00:00:00 | 00:00:00 | 00:00:00 | |
| KRY50SP | 2026-09-03 00:44:31 | 52.39149 | 21.56672 | 321° | 166km/h | 19283m | -80.1m/s | -44.0°C | 0.4% | 11.9hPa | 0V | 00:00:00 | 00:00:00 | 00:00:00 | |
| KRY50SP | 2026-09-03 00:44:26 | 52.39149 | 21.56672 | 321° | 166km/h | 19283m | -80.1m/s | -44.2°C | 0.5% | 11.9hPa | 0V | 00:00:00 | 00:00:00 | 00:00:00 | |
| KRY50SP | 2026-09-03 00:44:21 | 52.39149 | 21.56672 | 321° | 166km/h | 19283m | -80.1m/s | -44.5°C | 0.4% | 12.0hPa | 0V | 00:00:00 | 00:00:00 | 00:00:00 | |
| KRY50SP | 2026-09-03 00:44:14 | 52.39149 | 21.56672 | 321° | 166km/h | 19283m | -80.1m/s | -44.6°C | 0.5% | 12.1hPa | 0V | 00:00:00 | 00:00:00 | 00:00:00 | |
| KRY50SP | 2026-09-03 00:44:09 | 52.39149 | 21.56672 | 321° | 166km/h | 19283m | -80.1m/s | -44.9°C | 0.5% | 12.1hPa | 0V | 00:00:00 | 00:00:00 | 00:00:00 | |
| SP4MAZ | 2026-09-03 00:44:00 | 43.61556 | 28.30703 | 0° | 0km/h | 10131m | 0.0m/s | -45.1°C | 0.5% | 12.2hPa | 0V | 00:00:00 | 00:00:00 | 00:00:00 | |
| KRY50SP | 2026-09-03 00:43:58 | 52.39149 | 21.56672 | 321° | 166km/h | 19283m | -80.1m/s | -45.1°C | 0.5% | 12.2hPa | 0V | 00:00:00 | 00:00:00 | 00:00:00 | |
| KRY50SP | 2026-09-03 00:43:52 | 52.39149 | 21.56672 | 321° | 166km/h | 19283m | -80.1m/s | -45.2°C | 0.5% | 12.3hPa | 0V | 00:00:00 | 00:00:00 | 00:00:00 | |
| KRY50SP | 2026-09-03 00:43:47 | 52.39149 | 21.56672 | 321° | 166km/h | 19283m | -80.1m/s | -45.3°C | 0.5% | 12.4hPa | 0V | 00:00:00 | 00:00:00 | 00:00:00 | |
| KRY50SP | 2026-09-03 00:43:41 | 52.39149 | 21.56672 | 321° | 166km/h | 19283m | -80.1m/s | -45.6°C | 0.5% | 12.4hPa | 0V | 00:00:00 | 00:00:00 | 00:00:00 | |
| SP4MAZ | 2026-09-03 00:43:40 | 43.61556 | 28.30703 | 0° | 0km/h | 10131m | 0.0m/s | -45.6°C | 0.5% | 12.5hPa | 0V | 00:00:00 | 00:00:00 | 00:00:00 | |
| KRY50SP | 2026-09-03 00:43:35 | 52.39149 | 21.56672 | 321° | 166km/h | 19283m | -80.1m/s | -45.6°C | 0.5% | 12.5hPa | 0V | 00:00:00 | 00:00:00 | 00:00:00 | |
| KRY50SP | 2026-09-03 00:43:29 | 52.39149 | 21.56672 | 321° | 166km/h | 19283m | -80.1m/s | -45.6°C | 0.5% | 12.6hPa | 0V | 00:00:00 | 00:00:00 | 00:00:00 | |
| KRY50SP | 2026-09-03 00:43:23 | 52.39149 | 21.56672 | 321° | 166km/h | 19283m | -80.1m/s | -45.6°C | 0.5% | 12.7hPa | 0V | 00:00:00 | 00:00:00 | 00:00:00 | |
| SP4MAZ | 2026-09-03 00:43:20 | 43.61556 | 28.30703 | 0° | 0km/h | 10131m | 0.0m/s | -45.7°C | 0.5% | 12.7hPa | 0V | 00:00:00 | 00:00:00 | 00:00:00 | |
| KRY50SP | 2026-09-03 00:43:18 | 52.39149 | 21.56672 | 321° | 166km/h | 19283m | -80.1m/s | -45.7°C | 0.5% | 12.8hPa | 0V | 00:00:00 | 00:00:00 | 00:00:00 | |
| KRY50SP | 2026-09-03 00:43:13 | 52.39149 | 21.56672 | 321° | 166km/h | 19283m | -80.1m/s | -45.6°C | 0.5% | 12.8hPa | 0V | 00:00:00 | 00:00:00 | 00:00:00 | |
| KRY50SP | 2026-09-03 00:43:07 | 52.39149 | 21.56672 | 321° | 166km/h | 19283m | -80.1m/s | -45.5°C | 0.5% | 12.9hPa | 0V | 00:00:00 | 00:00:00 | 00:00:00 | |
| SP4MAZ | 2026-09-03 00:42:57 | 43.61556 | 28.30703 | 0° | 0km/h | 10131m | 0.0m/s | -45.2°C | 0.5% | 13.0hPa | 0V | 00:00:00 | 00:00:00 | 00:00:00 | |
| KRY50SP | 2026-09-03 00:42:56 | 52.39149 | 21.56672 | 321° | 166km/h | 19283m | -80.1m/s | -45.2°C | 0.5% | 13.0hPa | 0V | 00:00:00 | 00:00:00 | 00:00:00 | |
| KRY50SP | 2026-09-03 00:42:50 | 52.39149 | 21.56672 | 321° | 166km/h | 19283m | -80.1m/s | -45.2°C | 0.5% | 13.1hPa | 0V | 00:00:00 | 00:00:00 | 00:00:00 | |
| KRY50SP | 2026-09-03 00:42:44 | 52.39149 | 21.56672 | 321° | 166km/h | 19283m | -80.1m/s | -45.1°C | 0.5% | 13.2hPa | 0V | 00:00:00 | 00:00:00 | 00:00:00 | |
| KRY50SP | 2026-09-03 00:42:39 | 52.39149 | 21.56672 | 321° | 166km/h | 19283m | -80.1m/s | -45.2°C | 0.5% | 13.3hPa | 0V | 00:00:00 | 00:00:00 | 00:00:00 | |
| KRY50SP | 2026-09-03 00:42:33 | 52.39149 | 21.56672 | 321° | 166km/h | 19283m | -80.1m/s | -45.4°C | 0.5% | 13.4hPa | 0V | 00:00:00 | 00:00:00 | 00:00:00 | |
| KRY50SP | 2026-09-03 00:42:28 | 52.39149 | 21.56672 | 321° | 166km/h | 19283m | -80.1m/s | -45.3°C | 0.5% | 13.4hPa | 0V | 00:00:00 | 00:00:00 | 00:00:00 | |
| KRY50SP | 2026-09-03 00:42:17 | 52.39149 | 21.56672 | 321° | 166km/h | 19283m | -80.1m/s | -45.0°C | 0.5% | 13.6hPa | 0V | 00:00:00 | 00:00:00 | 00:00:00 | |
| KRY50SP | 2026-09-03 00:42:12 | 52.39149 | 21.56672 | 321° | 166km/h | 19283m | -80.1m/s | -45.0°C | 0.5% | 13.7hPa | 0V | 00:00:00 | 00:00:00 | 00:00:00 | |
| SP4MAZ | 2026-09-03 00:42:07 | 8.28626 | 60.79531 | 0° | 0km/h | 440m | 0.0m/s | -45.0°C | 0.5% | 13.8hPa | 0V | 00:00:00 | 00:00:00 | 00:00:00 | |
| KRY50SP | 2026-09-03 00:42:01 | 52.39149 | 21.56672 | 321° | 166km/h | 19283m | -80.1m/s | -45.0°C | 0.5% | 13.8hPa | 0V | 00:00:00 | 00:00:00 | 00:00:00 | |
| KRY50SP | 2026-09-03 00:41:50 | 52.39149 | 21.56672 | 321° | 166km/h | 19283m | -80.1m/s | -44.9°C | 0.5% | 14.0hPa | 0V | 00:00:00 | 00:00:00 | 00:00:00 | |
| SP4MAZ | 2026-09-03 00:41:44 | 13.08166 | 57.43099 | 0° | 0km/h | 1087m | 0.0m/s | -44.9°C | 0.5% | 14.1hPa | 0V | 00:00:00 | 00:00:00 | 00:00:00 | |
| KRY50SP | 2026-09-03 00:41:27 | 52.39149 | 21.56672 | 321° | 166km/h | 19283m | -80.1m/s | -45.2°C | 0.5% | 14.4hPa | 0V | 00:00:00 | 00:00:00 | 00:00:00 | |
| KRY50SP | 2026-09-03 00:41:15 | 52.39149 | 21.56672 | 321° | 166km/h | 19283m | -80.1m/s | -45.2°C | 0.5% | 14.5hPa | 0V | 00:00:00 | 00:00:00 | 00:00:00 | |
| KRY50SP | 2026-09-03 00:41:10 | 52.39149 | 21.56672 | 321° | 166km/h | 19283m | -80.1m/s | -45.2°C | 0.5% | 14.6hPa | 0V | 00:00:00 | 00:00:00 | 00:00:00 | |
| KRY50SP | 2026-09-03 00:41:04 | 52.39149 | 21.56672 | 321° | 166km/h | 19283m | -80.1m/s | -45.1°C | 0.5% | 14.7hPa | 0V | 00:00:00 | 00:00:00 | 00:00:00 | |
| KRY50SP | 2026-09-03 00:40:58 | 52.39149 | 21.56672 | 321° | 166km/h | 19283m | -80.1m/s | -45.1°C | 0.5% | 14.8hPa | 0V | 00:00:00 | 00:00:00 | 00:00:00 | |
| KRY50SP | 2026-09-03 00:40:52 | 52.39149 | 21.56672 | 321° | 166km/h | 19283m | -80.1m/s | -45.4°C | 0.5% | 14.9hPa | 0V | 00:00:00 | 00:00:00 | 00:00:00 | |
| KRY50SP | 2026-09-03 00:40:47 | 52.39149 | 21.56672 | 321° | 166km/h | 19283m | -80.1m/s | -45.7°C | 0.5% | 15.0hPa | 0V | 00:00:00 | 00:00:00 | 00:00:00 | |
| KRY50SP | 2026-09-03 00:40:42 | 52.39149 | 21.56672 | 321° | 166km/h | 19283m | -80.1m/s | -45.8°C | 0.5% | 15.1hPa | 0V | 00:00:00 | 00:00:00 | 00:00:00 | |
| KRY50SP | 2026-09-03 00:40:36 | 52.39149 | 21.56672 | 321° | 166km/h | 19283m | -80.1m/s | -45.6°C | 0.5% | 15.2hPa | 0V | 00:00:00 | 00:00:00 | 00:00:00 | |
| SP4MAZ | 2026-09-03 00:40:34 | 29.09641 | 43.43816 | 0° | 0km/h | 5025m | 0.0m/s | -45.5°C | 0.5% | 15.2hPa | 0V | 00:00:00 | 00:00:00 | 00:00:00 | |
| KRY50SP | 2026-09-03 00:40:31 | 52.39149 | 21.56672 | 321° | 166km/h | 19283m | -80.1m/s | -45.4°C | 0.5% | 15.2hPa | 0V | 00:00:00 | 00:00:00 | 00:00:00 | |
| KRY50SP | 2026-09-03 00:40:25 | 52.39149 | 21.56672 | 321° | 166km/h | 19283m | -80.1m/s | -45.2°C | 0.5% | 15.3hPa | 0V | 00:00:00 | 00:00:00 | 00:00:00 | |
| KRY50SP | 2026-09-03 00:40:19 | 52.39149 | 21.56672 | 321° | 166km/h | 19283m | -80.1m/s | -45.2°C | 0.5% | 15.4hPa | 0V | 00:00:00 | 00:00:00 | 00:00:00 | |
| SP4MAZ | 2026-09-03 00:40:14 | 1.52178 | 63.13734 | 0° | 0km/h | 15m | 0.0m/s | -45.1°C | 0.5% | 15.5hPa | 0V | 00:00:00 | 00:00:00 | 00:00:00 | |
| KRY50SP | 2026-09-03 00:40:13 | 52.39149 | 21.56672 | 321° | 166km/h | 19283m | -80.1m/s | -45.1°C | 0.5% | 15.5hPa | 0V | 00:00:00 | 00:00:00 | 00:00:00 | |
| KRY50SP | 2026-09-03 00:40:08 | 52.39149 | 21.56672 | 321° | 166km/h | 19283m | -80.1m/s | -45.1°C | 0.5% | 15.6hPa | 0V | 00:00:00 | 00:00:00 | 00:00:00 | |
| KRY50SP | 2026-09-03 00:40:03 | 52.39149 | 21.56672 | 321° | 166km/h | 19283m | -80.1m/s | -45.1°C | 0.5% | 15.7hPa | 0V | 00:00:00 | 00:00:00 | 00:00:00 | |
| KRY50SP | 2026-09-03 00:39:57 | 52.39149 | 21.56672 | 321° | 166km/h | 19283m | -80.1m/s | -45.2°C | 0.5% | 15.8hPa | 0V | 00:00:00 | 00:00:00 | 00:00:00 | |
| KRY50SP | 2026-09-03 00:39:51 | 52.39149 | 21.56672 | 321° | 166km/h | 19283m | -80.1m/s | -45.5°C | 0.5% | 15.8hPa | 0V | 00:00:00 | 00:00:00 | 00:00:00 | |
| KRY50SP | 2026-09-03 00:39:45 | 52.39149 | 21.56672 | 321° | 166km/h | 19283m | -80.1m/s | -45.6°C | 0.5% | 16.0hPa | 0V | 00:00:00 | 00:00:00 | 00:00:00 | |
| KRY50SP | 2026-09-03 00:39:39 | 52.39149 | 21.56672 | 321° | 166km/h | 19283m | -80.1m/s | -45.5°C | 0.5% | 16.0hPa | 0V | 00:00:00 | 00:00:00 | 00:00:00 | |
| KRY50SP | 2026-09-03 00:39:34 | 52.39149 | 21.56672 | 321° | 166km/h | 19283m | -80.1m/s | -45.4°C | 0.5% | 16.1hPa | 0V | 00:00:00 | 00:00:00 | 00:00:00 | |
| KRY50SP | 2026-09-03 00:39:28 | 52.39149 | 21.56672 | 321° | 166km/h | 19283m | -80.1m/s | -45.5°C | 0.5% | 16.3hPa | 0V | 00:00:00 | 00:00:00 | 00:00:00 | |
| KRY50SP | 2026-09-03 00:39:23 | 52.39149 | 21.56672 | 321° | 166km/h | 19283m | -80.1m/s | -45.6°C | 0.5% | 16.3hPa | 0V | 00:00:00 | 00:00:00 | 00:00:00 | |
| KRY50SP | 2026-09-03 00:39:17 | 52.39149 | 21.56672 | 321° | 166km/h | 19283m | -80.1m/s | -45.8°C | 0.5% | 16.4hPa | 0V | 00:00:00 | 00:00:00 | 00:00:00 | |
| KRY50SP | 2026-09-03 00:39:12 | 52.39149 | 21.56672 | 321° | 166km/h | 19283m | -80.1m/s | -46.1°C | 0.5% | 16.5hPa | 0V | 00:00:00 | 00:00:00 | 00:00:00 | |
| KRY50SP | 2026-09-03 00:39:06 | 52.39149 | 21.56672 | 321° | 166km/h | 19283m | -80.1m/s | -46.2°C | 0.5% | 16.6hPa | 0V | 00:00:00 | 00:00:00 | 00:00:00 | |
| SP4MAZ | 2026-09-03 00:39:03 | 46.99974 | 20.35169 | 0° | 0km/h | 11393m | 0.0m/s | -46.4°C | 0.5% | 16.6hPa | 0V | 00:00:00 | 00:00:00 | 00:00:00 | |
| KRY50SP | 2026-09-03 00:39:00 | 52.39149 | 21.56672 | 321° | 166km/h | 19283m | -80.1m/s | -46.5°C | 0.6% | 16.7hPa | 0V | 00:00:00 | 00:00:00 | 00:00:00 | |
| KRY50SP | 2026-09-03 00:38:55 | 52.39149 | 21.56672 | 321° | 166km/h | 19283m | -80.1m/s | -46.4°C | 0.5% | 16.8hPa | 0V | 00:00:00 | 00:00:00 | 00:00:00 | |
| KRY50SP | 2026-09-03 00:38:50 | 52.39149 | 21.56672 | 321° | 166km/h | 19283m | -80.1m/s | -46.6°C | 0.5% | 16.9hPa | 0V | 00:00:00 | 00:00:00 | 00:00:00 | |
| KRY50SP | 2026-09-03 00:38:44 | 52.39149 | 21.56672 | 321° | 166km/h | 19283m | -80.1m/s | -46.7°C | 0.5% | 17.0hPa | 0V | 00:00:00 | 00:00:00 | 00:00:00 | |
| SP4MAZ | 2026-09-03 00:38:43 | 1.79055 | 62.61636 | 0° | 0km/h | 21m | 0.0m/s | -46.7°C | 0.5% | 17.0hPa | 0V | 00:00:00 | 00:00:00 | 00:00:00 | |
| KRY50SP | 2026-09-03 00:38:39 | 52.39149 | 21.56672 | 321° | 166km/h | 19283m | -80.1m/s | -46.8°C | 0.5% | 17.0hPa | 0V | 00:00:00 | 00:00:00 | 00:00:00 | |
| KRY50SP | 2026-09-03 00:38:33 | 52.39149 | 21.56672 | 321° | 166km/h | 19283m | -80.1m/s | -46.9°C | 0.6% | 17.1hPa | 0V | 00:00:00 | 00:00:00 | 00:00:00 | |
| KRY50SP | 2026-09-03 00:38:27 | 52.39149 | 21.56672 | 321° | 166km/h | 19283m | -80.1m/s | -47.4°C | 0.6% | 17.2hPa | 0V | 00:00:00 | 00:00:00 | 00:00:00 | |
| SP4MAZ | 2026-09-03 00:38:21 | -6.30848 | 67.91068 | 0° | 0km/h | 256m | 0.0m/s | -47.6°C | 0.6% | 17.4hPa | 0V | 00:00:00 | 00:00:00 | 00:00:00 | |
| KRY50SP | 2026-09-03 00:38:21 | 52.39149 | 21.56672 | 321° | 166km/h | 19283m | -80.1m/s | -47.6°C | 0.6% | 17.4hPa | 0V | 00:00:00 | 00:00:00 | 00:00:00 | |
| KRY50SP | 2026-09-03 00:38:15 | 52.39149 | 21.56672 | 321° | 166km/h | 19283m | -80.1m/s | -47.7°C | 0.6% | 17.5hPa | 0V | 00:00:00 | 00:00:00 | 00:00:00 | |
| KRY50SP | 2026-09-03 00:38:09 | 52.39149 | 21.56672 | 321° | 166km/h | 19283m | -80.1m/s | -47.9°C | 0.6% | 17.6hPa | 0V | 00:00:00 | 00:00:00 | 00:00:00 | |
| KRY50SP | 2026-09-03 00:38:03 | 52.39149 | 21.56672 | 321° | 166km/h | 19283m | -80.1m/s | -47.8°C | 0.6% | 17.7hPa | 0V | 00:00:00 | 00:00:00 | 00:00:00 | |
| SP4MAZ | 2026-09-03 00:38:00 | -6.76533 | 68.11874 | 0° | 0km/h | 294m | 0.0m/s | -47.8°C | 0.6% | 17.7hPa | 0V | 00:00:00 | 00:00:00 | 00:00:00 | |
| KRY50SP | 2026-09-03 00:37:18 | 52.39149 | 21.56672 | 321° | 166km/h | 19283m | -80.1m/s | -48.6°C | 0.6% | 18.5hPa | 0V | 00:00:00 | 00:00:00 | 00:00:00 | |
| KRY50SP | 2026-09-03 00:37:12 | 52.39149 | 21.56672 | 321° | 166km/h | 19283m | -80.1m/s | -48.5°C | 0.6% | 18.6hPa | 0V | 00:00:00 | 00:00:00 | 00:00:00 | |
| KRY50SP | 2026-09-03 00:37:07 | 52.39149 | 21.56672 | 321° | 166km/h | 19283m | -80.1m/s | -48.4°C | 0.6% | 18.7hPa | 0V | 00:00:00 | 00:00:00 | 00:00:00 | |
| KRY50SP | 2026-09-03 00:36:55 | 52.39149 | 21.56672 | 321° | 166km/h | 19283m | -80.1m/s | -49.0°C | 0.6% | 19.0hPa | 0V | 00:00:00 | 00:00:00 | 00:00:00 | |
| SP4MAZ | 2026-09-03 00:36:50 | 13.97919 | 60.56819 | 0° | 0km/h | 1238m | 0.0m/s | -49.1°C | 0.6% | 19.0hPa | 0V | 00:00:00 | 00:00:00 | 00:00:00 | |
| KRY50SP | 2026-09-03 00:36:45 | 52.39149 | 21.56672 | 321° | 166km/h | 19283m | -80.1m/s | -49.0°C | 0.6% | 19.2hPa | 0V | 00:00:00 | 00:00:00 | 00:00:00 | |
| KRY50SP | 2026-09-03 00:36:40 | 52.39149 | 21.56672 | 321° | 166km/h | 19283m | -80.1m/s | -49.0°C | 0.7% | 19.3hPa | 0V | 00:00:00 | 00:00:00 | 00:00:00 | |
| KRY50SP | 2026-09-03 00:36:34 | 52.39149 | 21.56672 | 321° | 166km/h | 19283m | -80.1m/s | -49.0°C | 0.6% | 19.3hPa | 0V | 00:00:00 | 00:00:00 | 00:00:00 | |
| KRY50SP | 2026-09-03 00:36:28 | 52.39149 | 21.56672 | 321° | 166km/h | 19283m | -80.1m/s | -49.1°C | 0.6% | 19.5hPa | 0V | 00:00:00 | 00:00:00 | 00:00:00 | |
| SP4MAZ | 2026-09-03 00:36:27 | 13.97919 | 60.56819 | 0° | 0km/h | 1238m | 0.0m/s | -49.1°C | 0.6% | 19.5hPa | 0V | 00:00:00 | 00:00:00 | 00:00:00 | |
| KRY50SP | 2026-09-03 00:36:23 | 52.39149 | 21.56672 | 321° | 166km/h | 19283m | -80.1m/s | -49.2°C | 0.6% | 19.6hPa | 0V | 00:00:00 | 00:00:00 | 00:00:00 | |
| KRY50SP | 2026-09-03 00:36:17 | 52.39149 | 21.56672 | 321° | 166km/h | 19283m | -80.1m/s | -49.2°C | 0.6% | 19.7hPa | 0V | 00:00:00 | 00:00:00 | 00:00:00 | |
| KRY50SP | 2026-09-03 00:36:02 | 52.39149 | 21.56672 | 321° | 166km/h | 19283m | -80.1m/s | -48.9°C | 0.6% | 20.0hPa | 0V | 00:00:00 | 00:00:00 | 00:00:00 | |
| KRY50SP | 2026-09-03 00:35:40 | 52.39149 | 21.56672 | 321° | 166km/h | 19283m | -80.1m/s | -48.9°C | 0.6% | 20.4hPa | 0V | 00:00:00 | 00:00:00 | 00:00:00 | |
| KRY50SP | 2026-09-03 00:35:24 | 52.39149 | 21.56672 | 321° | 166km/h | 19283m | -80.1m/s | -48.9°C | 0.6% | 20.8hPa | 0V | 00:00:00 | 00:00:00 | 00:00:00 | |
| KRY50SP | 2026-09-03 00:35:12 | 52.39149 | 21.56672 | 321° | 166km/h | 19283m | -80.1m/s | -48.9°C | 0.6% | 21.0hPa | 0V | 00:00:00 | 00:00:00 | 00:00:00 | |
| KRY50SP | 2026-09-03 00:35:07 | 52.39149 | 21.56672 | 321° | 166km/h | 19283m | -80.1m/s | -49.1°C | 0.6% | 21.1hPa | 0V | 00:00:00 | 00:00:00 | 00:00:00 | |
| KRY50SP | 2026-09-03 00:35:01 | 52.39149 | 21.56672 | 321° | 166km/h | 19283m | -80.1m/s | -49.2°C | 0.6% | 21.2hPa | 0V | 00:00:00 | 00:00:00 | 00:00:00 | |
| KRY50SP | 2026-09-03 00:34:55 | 52.39149 | 21.56672 | 321° | 166km/h | 19283m | -80.1m/s | -49.2°C | 0.6% | 21.4hPa | 0V | 00:00:00 | 00:00:00 | 00:00:00 | |
| KRY50SP | 2026-09-03 00:34:44 | 52.39149 | 21.56672 | 321° | 166km/h | 19283m | -80.1m/s | -49.3°C | 0.6% | 21.6hPa | 0V | 00:00:00 | 00:00:00 | 00:00:00 | |
| KRY50SP | 2026-09-03 00:34:32 | 52.39149 | 21.56672 | 321° | 166km/h | 19283m | -80.1m/s | -49.3°C | 0.6% | 21.9hPa | 0V | 00:00:00 | 00:00:00 | 00:00:00 | |
| KRY50SP | 2026-09-03 00:34:21 | 52.39149 | 21.56672 | 321° | 166km/h | 19283m | -80.1m/s | -49.6°C | 0.6% | 22.1hPa | 0V | 00:00:00 | 00:00:00 | 00:00:00 | |
| KRY50SP | 2026-09-03 00:34:15 | 52.39149 | 21.56672 | 321° | 166km/h | 19283m | -80.1m/s | -49.7°C | 0.7% | 22.2hPa | 0V | 00:00:00 | 00:00:00 | 00:00:00 | |
| KRY50SP | 2026-09-03 00:34:09 | 52.39149 | 21.56672 | 321° | 166km/h | 19283m | -80.1m/s | -49.7°C | 0.7% | 22.3hPa | 0V | 00:00:00 | 00:00:00 | 00:00:00 | |
| KRY50SP | 2026-09-03 00:34:03 | 52.39149 | 21.56672 | 321° | 166km/h | 19283m | -80.1m/s | -49.7°C | 0.7% | 22.5hPa | 0V | 00:00:00 | 00:00:00 | 00:00:00 | |
| KRY50SP | 2026-09-03 00:33:58 | 52.39149 | 21.56672 | 321° | 166km/h | 19283m | -80.1m/s | -49.7°C | 0.7% | 22.6hPa | 0V | 00:00:00 | 00:00:00 | 00:00:00 | |
| KRY50SP | 2026-09-03 00:33:53 | 52.39149 | 21.56672 | 321° | 166km/h | 19283m | -80.1m/s | -49.6°C | 0.7% | 22.7hPa | 0V | 00:00:00 | 00:00:00 | 00:00:00 | |
| KRY50SP | 2026-09-03 00:33:41 | 52.39149 | 21.56672 | 321° | 166km/h | 19283m | -80.1m/s | -49.7°C | 0.6% | 23.0hPa | 0V | 00:00:00 | 00:00:00 | 00:00:00 | |
| KRY50SP | 2026-09-03 00:33:35 | 52.39149 | 21.56672 | 321° | 166km/h | 19283m | -80.1m/s | -49.8°C | 0.6% | 23.1hPa | 0V | 00:00:00 | 00:00:00 | 00:00:00 | |
| KRY50SP | 2026-09-03 00:33:29 | 52.39149 | 21.56672 | 321° | 166km/h | 19283m | -80.1m/s | -50.2°C | 0.7% | 23.3hPa | 0V | 00:00:00 | 00:00:00 | 00:00:00 | |
| KRY50SP | 2026-09-03 00:33:13 | 52.39149 | 21.56672 | 321° | 166km/h | 19283m | -80.1m/s | -50.4°C | 0.7% | 23.6hPa | 0V | 00:00:00 | 00:00:00 | 00:00:00 | |
| KRY50SP | 2026-09-03 00:32:55 | 52.39149 | 21.56672 | 321° | 166km/h | 19283m | -80.1m/s | -50.6°C | 0.7% | 24.1hPa | 0V | 00:00:00 | 00:00:00 | 00:00:00 | |
| KRY50SP | 2026-09-03 00:32:49 | 52.39149 | 21.56672 | 321° | 166km/h | 19283m | -80.1m/s | -50.7°C | 0.7% | 24.2hPa | 0V | 00:00:00 | 00:00:00 | 00:00:00 | |
| KRY50SP | 2026-09-03 00:32:44 | 52.39149 | 21.56672 | 321° | 166km/h | 19283m | -80.1m/s | -50.8°C | 0.7% | 24.3hPa | 0V | 00:00:00 | 00:00:00 | 00:00:00 | |
| KRY50SP | 2026-09-03 00:32:38 | 52.39149 | 21.56672 | 321° | 166km/h | 19283m | -80.1m/s | -50.8°C | 0.7% | 24.5hPa | 0V | 00:00:00 | 00:00:00 | 00:00:00 | |
| KRY50SP | 2026-09-03 00:32:33 | 52.39149 | 21.56672 | 321° | 166km/h | 19283m | -80.1m/s | -50.9°C | 0.7% | 24.6hPa | 0V | 00:00:00 | 00:00:00 | 00:00:00 | |
| KRY50SP | 2026-09-03 00:32:27 | 52.39149 | 21.56672 | 321° | 166km/h | 19283m | -80.1m/s | -51.1°C | 0.7% | 24.8hPa | 0V | 00:00:00 | 00:00:00 | 00:00:00 | |
| KRY50SP | 2026-09-03 00:32:16 | 52.39149 | 21.56672 | 321° | 166km/h | 19283m | -80.1m/s | -51.2°C | 0.8% | 25.0hPa | 0V | 00:00:00 | 00:00:00 | 00:00:00 | |
| KRY50SP | 2026-09-03 00:32:10 | 52.39149 | 21.56672 | 321° | 166km/h | 19283m | -80.1m/s | -51.0°C | 0.7% | 25.2hPa | 0V | 00:00:00 | 00:00:00 | 00:00:00 | |
| KRY50SP | 2026-09-03 00:31:58 | 52.39149 | 21.56672 | 321° | 166km/h | 19283m | -80.1m/s | -51.3°C | 0.7% | 25.5hPa | 0V | 00:00:00 | 00:00:00 | 00:00:00 | |
| KRY50SP | 2026-09-03 00:31:52 | 52.39149 | 21.56672 | 321° | 166km/h | 19283m | -80.1m/s | -51.5°C | 0.7% | 25.7hPa | 0V | 00:00:00 | 00:00:00 | 00:00:00 | |
| KRY50SP | 2026-09-03 00:31:47 | 52.39149 | 21.56672 | 321° | 166km/h | 19283m | -80.1m/s | -51.5°C | 0.7% | 25.8hPa | 0V | 00:00:00 | 00:00:00 | 00:00:00 | |
| KRY50SP | 2026-09-03 00:31:41 | 52.39149 | 21.56672 | 321° | 166km/h | 19283m | -80.1m/s | -51.5°C | 0.7% | 26.0hPa | 0V | 00:00:00 | 00:00:00 | 00:00:00 | |
| KRY50SP | 2026-09-03 00:31:36 | 52.39149 | 21.56672 | 321° | 166km/h | 19283m | -80.1m/s | -51.5°C | 0.8% | 26.1hPa | 0V | 00:00:00 | 00:00:00 | 00:00:00 | |
| KRY50SP | 2026-09-03 00:31:30 | 52.39149 | 21.56672 | 321° | 166km/h | 19283m | -80.1m/s | -51.6°C | 0.8% | 26.3hPa | 0V | 00:00:00 | 00:00:00 | 00:00:00 | |
| KRY50SP | 2026-09-03 00:31:25 | 52.39149 | 21.56672 | 321° | 166km/h | 19283m | -80.1m/s | -51.5°C | 0.7% | 26.4hPa | 0V | 00:00:00 | 00:00:00 | 00:00:00 | |
| KRY50SP | 2026-09-03 00:31:19 | 52.39149 | 21.56672 | 321° | 166km/h | 19283m | -80.1m/s | -51.5°C | 0.7% | 26.6hPa | 0V | 00:00:00 | 00:00:00 | 00:00:00 | |
| KRY50SP | 2026-09-03 00:31:13 | 52.39149 | 21.56672 | 321° | 166km/h | 19283m | -80.1m/s | -51.4°C | 0.7% | 26.7hPa | 0V | 00:00:00 | 00:00:00 | 00:00:00 | |
| KRY50SP | 2026-09-03 00:31:08 | 52.39149 | 21.56672 | 321° | 166km/h | 19283m | -80.1m/s | -51.3°C | 0.8% | 26.9hPa | 0V | 00:00:00 | 00:00:00 | 00:00:00 | |
| KRY50SP | 2026-09-03 00:31:02 | 52.39149 | 21.56672 | 321° | 166km/h | 19283m | -80.1m/s | -51.3°C | 0.8% | 27.0hPa | 0V | 00:00:00 | 00:00:00 | 00:00:00 | |
| KRY50SP | 2026-09-03 00:30:57 | 52.39149 | 21.56672 | 321° | 166km/h | 19283m | -80.1m/s | -51.2°C | 0.7% | 27.2hPa | 0V | 00:00:00 | 00:00:00 | 00:00:00 | |
| KRY50SP | 2026-09-03 00:30:51 | 52.39149 | 21.56672 | 321° | 166km/h | 19283m | -80.1m/s | -51.0°C | 0.8% | 27.3hPa | 0V | 00:00:00 | 00:00:00 | 00:00:00 | |
| KRY50SP | 2026-09-03 00:30:45 | 52.39149 | 21.56672 | 321° | 166km/h | 19283m | -80.1m/s | -50.9°C | 0.7% | 27.5hPa | 0V | 00:00:00 | 00:00:00 | 00:00:00 | |
| KRY50SP | 2026-09-03 00:30:40 | 52.39149 | 21.56672 | 321° | 166km/h | 19283m | -80.1m/s | -50.9°C | 0.7% | 27.6hPa | 0V | 00:00:00 | 00:00:00 | 00:00:00 | |
| KRY50SP | 2026-09-03 00:30:34 | 52.39149 | 21.56672 | 321° | 166km/h | 19283m | -80.1m/s | -50.7°C | 0.7% | 27.8hPa | 0V | 00:00:00 | 00:00:00 | 00:00:00 | |
| KRY50SP | 2026-09-03 00:30:28 | 52.39149 | 21.56672 | 321° | 166km/h | 19283m | -80.1m/s | -50.7°C | 0.7% | 27.9hPa | 0V | 00:00:00 | 00:00:00 | 00:00:00 | |
| KRY50SP | 2026-09-03 00:30:22 | 52.39149 | 21.56672 | 321° | 166km/h | 19283m | -80.1m/s | -50.6°C | 0.7% | 28.1hPa | 0V | 00:00:00 | 00:00:00 | 00:00:00 | |
| KRY50SP | 2026-09-03 00:30:16 | 52.39149 | 21.56672 | 321° | 166km/h | 19283m | -80.1m/s | -50.5°C | 0.7% | 28.3hPa | 0V | 00:00:00 | 00:00:00 | 00:00:00 | |
| KRY50SP | 2026-09-03 00:30:11 | 52.39149 | 21.56672 | 321° | 166km/h | 19283m | -80.1m/s | -50.5°C | 0.7% | 28.4hPa | 0V | 00:00:00 | 00:00:00 | 00:00:00 | |
| KRY50SP | 2026-09-03 00:30:05 | 52.39149 | 21.56672 | 321° | 166km/h | 19283m | -80.1m/s | -50.4°C | 0.7% | 28.6hPa | 0V | 00:00:00 | 00:00:00 | 00:00:00 | |
| KRY50SP | 2026-09-03 00:29:59 | 52.39149 | 21.56672 | 321° | 166km/h | 19283m | -80.1m/s | -50.2°C | 0.7% | 28.8hPa | 0V | 00:00:00 | 00:00:00 | 00:00:00 | |
| KRY50SP | 2026-09-03 00:29:53 | 52.39149 | 21.56672 | 321° | 166km/h | 19283m | -80.1m/s | -50.3°C | 0.7% | 28.9hPa | 0V | 00:00:00 | 00:00:00 | 00:00:00 | |
| KRY50SP | 2026-09-03 00:29:47 | 52.39149 | 21.56672 | 321° | 166km/h | 19283m | -80.1m/s | -50.3°C | 0.7% | 29.1hPa | 0V | 00:00:00 | 00:00:00 | 00:00:00 | |
| KRY50SP | 2026-09-03 00:29:41 | 52.39149 | 21.56672 | 321° | 166km/h | 19283m | -80.1m/s | -50.3°C | 0.7% | 29.2hPa | 0V | 00:00:00 | 00:00:00 | 00:00:00 | |
| KRY50SP | 2026-09-03 00:29:35 | 52.39149 | 21.56672 | 321° | 166km/h | 19283m | -80.1m/s | -50.5°C | 0.7% | 29.4hPa | 0V | 00:00:00 | 00:00:00 | 00:00:00 | |
| KRY50SP | 2026-09-03 00:29:29 | 52.39149 | 21.56672 | 321° | 166km/h | 19283m | -80.1m/s | -50.8°C | 0.7% | 29.6hPa | 0V | 00:00:00 | 00:00:00 | 00:00:00 | |
| KRY50SP | 2026-09-03 00:29:23 | 52.39149 | 21.56672 | 321° | 166km/h | 19283m | -80.1m/s | -50.9°C | 0.7% | 29.8hPa | 0V | 00:00:00 | 00:00:00 | 00:00:00 | |
| KRY50SP | 2026-09-03 00:29:19 | 52.39149 | 21.56672 | 321° | 166km/h | 19283m | -80.1m/s | -51.0°C | 0.7% | 29.9hPa | 0V | 00:00:00 | 00:00:00 | 00:00:00 | |
| KRY50SP | 2026-09-03 00:29:13 | 52.39149 | 21.56672 | 321° | 166km/h | 19283m | -80.1m/s | -51.2°C | 0.7% | 30.1hPa | 0V | 00:00:00 | 00:00:00 | 00:00:00 | |
| KRY50SP | 2026-09-03 00:29:07 | 52.39149 | 21.56672 | 321° | 166km/h | 19283m | -80.1m/s | -51.3°C | 0.7% | 30.2hPa | 0V | 00:00:00 | 00:00:00 | 00:00:00 | |
| KRY50SP | 2026-09-03 00:29:02 | 52.39149 | 21.56672 | 321° | 166km/h | 19283m | -80.1m/s | -51.5°C | 0.7% | 30.3hPa | 0V | 00:00:00 | 00:00:00 | 00:00:00 | |
| KRY50SP | 2026-09-03 00:28:56 | 52.39149 | 21.56672 | 321° | 166km/h | 19283m | -80.1m/s | -51.2°C | 0.7% | 30.5hPa | 0V | 00:00:00 | 00:00:00 | 00:00:00 | |
| KRY50SP | 2026-09-03 00:28:51 | 52.39149 | 21.56672 | 321° | 166km/h | 19283m | -80.1m/s | -51.3°C | 0.7% | 30.7hPa | 0V | 00:00:00 | 00:00:00 | 00:00:00 | |
| KRY50SP | 2026-09-03 00:28:45 | 52.39149 | 21.56672 | 321° | 166km/h | 19283m | -80.1m/s | -51.5°C | 0.7% | 30.8hPa | 0V | 00:00:00 | 00:00:00 | 00:00:00 | |
| KRY50SP | 2026-09-03 00:28:39 | 52.39149 | 21.56672 | 321° | 166km/h | 19283m | -80.1m/s | -51.8°C | 0.8% | 31.0hPa | 0V | 00:00:00 | 00:00:00 | 00:00:00 | |
| KRY50SP | 2026-09-03 00:28:33 | 52.39149 | 21.56672 | 321° | 166km/h | 19283m | -80.1m/s | -51.9°C | 0.8% | 31.2hPa | 0V | 00:00:00 | 00:00:00 | 00:00:00 | |
| KRY50SP | 2026-09-03 00:28:28 | 52.39149 | 21.56672 | 321° | 166km/h | 19283m | -80.1m/s | -52.0°C | 0.8% | 31.3hPa | 0V | 00:00:00 | 00:00:00 | 00:00:00 | |
| KRY50SP | 2026-09-03 00:28:13 | 52.39149 | 21.56672 | 321° | 166km/h | 19283m | -80.1m/s | -52.1°C | 0.8% | 31.8hPa | 0V | 00:00:00 | 00:00:00 | 00:00:00 | |
| KRY50SP | 2026-09-03 00:28:01 | 52.39149 | 21.56672 | 321° | 166km/h | 19283m | -80.1m/s | -52.5°C | 0.8% | 32.1hPa | 0V | 00:00:00 | 00:00:00 | 00:00:00 | |
| KRY50SP | 2026-09-03 00:27:55 | 52.39149 | 21.56672 | 321° | 166km/h | 19283m | -80.1m/s | -52.4°C | 0.8% | 32.3hPa | 0V | 00:00:00 | 00:00:00 | 00:00:00 | |
| KRY50SP | 2026-09-03 00:27:44 | 52.39149 | 21.56672 | 321° | 166km/h | 19283m | -80.1m/s | -52.1°C | 0.8% | 32.7hPa | 0V | 00:00:00 | 00:00:00 | 00:00:00 | |
| KRY50SP | 2026-09-03 00:27:20 | 52.39149 | 21.56672 | 321° | 166km/h | 19283m | -80.1m/s | -52.2°C | 0.8% | 33.5hPa | 0V | 00:00:00 | 00:00:00 | 00:00:00 | |
| KRY50SP | 2026-09-03 00:27:14 | 52.39149 | 21.56672 | 321° | 166km/h | 19283m | -80.1m/s | -52.4°C | 0.8% | 33.6hPa | 0V | 00:00:00 | 00:00:00 | 00:00:00 | |
| KRY50SP | 2026-09-03 00:27:08 | 52.39149 | 21.56672 | 321° | 166km/h | 19283m | -80.1m/s | -52.5°C | 0.8% | 33.8hPa | 0V | 00:00:00 | 00:00:00 | 00:00:00 | |
| KRY50SP | 2026-09-03 00:27:02 | 52.39149 | 21.56672 | 321° | 166km/h | 19283m | -80.1m/s | -52.6°C | 0.8% | 34.0hPa | 0V | 00:00:00 | 00:00:00 | 00:00:00 | |
| KRY50SP | 2026-09-03 00:26:57 | 52.39149 | 21.56672 | 321° | 166km/h | 19283m | -80.1m/s | -52.7°C | 0.8% | 34.2hPa | 0V | 00:00:00 | 00:00:00 | 00:00:00 | |
| KRY50SP | 2026-09-03 00:26:52 | 52.39149 | 21.56672 | 321° | 166km/h | 19283m | -80.1m/s | -52.8°C | 0.8% | 34.3hPa | 0V | 00:00:00 | 00:00:00 | 00:00:00 | |
| KRY50SP | 2026-09-03 00:26:46 | 52.39149 | 21.56672 | 321° | 166km/h | 19283m | -80.1m/s | -52.8°C | 0.8% | 34.6hPa | 0V | 00:00:00 | 00:00:00 | 00:00:00 | |
| KRY50SP | 2026-09-03 00:26:41 | 52.39149 | 21.56672 | 321° | 166km/h | 19283m | -80.1m/s | -52.9°C | 0.9% | 34.7hPa | 0V | 00:00:00 | 00:00:00 | 00:00:00 | |
| KRY50SP | 2026-09-03 00:26:35 | 52.39149 | 21.56672 | 321° | 166km/h | 19283m | -80.1m/s | -52.8°C | 0.9% | 34.9hPa | 0V | 00:00:00 | 00:00:00 | 00:00:00 | |
| KRY50SP | 2026-09-03 00:26:30 | 52.39149 | 21.56672 | 321° | 166km/h | 19283m | -80.1m/s | -52.7°C | 0.9% | 35.1hPa | 0V | 00:00:00 | 00:00:00 | 00:00:00 | |
| KRY50SP | 2026-09-03 00:26:24 | 52.39149 | 21.56672 | 321° | 166km/h | 19283m | -80.1m/s | -52.6°C | 0.8% | 35.3hPa | 0V | 00:00:00 | 00:00:00 | 00:00:00 | |
| KRY50SP | 2026-09-03 00:26:18 | 52.39149 | 21.56672 | 321° | 166km/h | 19283m | -80.1m/s | -52.6°C | 0.8% | 35.5hPa | 0V | 00:00:00 | 00:00:00 | 00:00:00 | |
| KRY50SP | 2026-09-03 00:26:12 | 52.39149 | 21.56672 | 321° | 166km/h | 19283m | -80.1m/s | -52.6°C | 0.8% | 35.7hPa | 0V | 00:00:00 | 00:00:00 | 00:00:00 | |
| KRY50SP | 2026-09-03 00:26:07 | 52.39149 | 21.56672 | 321° | 166km/h | 19283m | -80.1m/s | -52.7°C | 0.8% | 35.8hPa | 0V | 00:00:00 | 00:00:00 | 00:00:00 | |
| KRY50SP | 2026-09-03 00:26:01 | 52.39149 | 21.56672 | 321° | 166km/h | 19283m | -80.1m/s | -52.6°C | 0.8% | 36.0hPa | 0V | 00:00:00 | 00:00:00 | 00:00:00 | |
| KRY50SP | 2026-09-03 00:25:55 | 52.39149 | 21.56672 | 321° | 166km/h | 19283m | -80.1m/s | -52.5°C | 0.8% | 36.3hPa | 0V | 00:00:00 | 00:00:00 | 00:00:00 | |
| KRY50SP | 2026-09-03 00:25:50 | 52.39149 | 21.56672 | 321° | 166km/h | 19283m | -80.1m/s | -52.5°C | 0.8% | 36.4hPa | 0V | 00:00:00 | 00:00:00 | 00:00:00 | |
| KRY50SP | 2026-09-03 00:25:44 | 52.39149 | 21.56672 | 321° | 166km/h | 19283m | -80.1m/s | -52.4°C | 0.8% | 36.6hPa | 0V | 00:00:00 | 00:00:00 | 00:00:00 | |
| KRY50SP | 2026-09-03 00:25:38 | 52.39149 | 21.56672 | 321° | 166km/h | 19283m | -80.1m/s | -52.6°C | 0.8% | 36.9hPa | 0V | 00:00:00 | 00:00:00 | 00:00:00 | |
| KRY50SP | 2026-09-03 00:25:33 | 52.39149 | 21.56672 | 321° | 166km/h | 19283m | -80.1m/s | -52.6°C | 0.8% | 37.0hPa | 0V | 00:00:00 | 00:00:00 | 00:00:00 | |
| KRY50SP | 2026-09-03 00:25:27 | 52.39149 | 21.56672 | 321° | 166km/h | 19283m | -80.1m/s | -52.5°C | 0.8% | 37.2hPa | 0V | 00:00:00 | 00:00:00 | 00:00:00 | |
| KRY50SP | 2026-09-03 00:25:21 | 52.39149 | 21.56672 | 321° | 166km/h | 19283m | -80.1m/s | -52.4°C | 0.8% | 37.4hPa | 0V | 00:00:00 | 00:00:00 | 00:00:00 | |
| KRY50SP | 2026-09-03 00:25:15 | 52.39149 | 21.56672 | 321° | 166km/h | 19283m | -80.1m/s | -52.4°C | 0.8% | 37.6hPa | 0V | 00:00:00 | 00:00:00 | 00:00:00 | |
| KRY50SP | 2026-09-03 00:25:10 | 52.39149 | 21.56672 | 321° | 166km/h | 19283m | -80.1m/s | -52.4°C | 0.8% | 37.9hPa | 0V | 00:00:00 | 00:00:00 | 00:00:00 | |
| KRY50SP | 2026-09-03 00:25:03 | 52.39149 | 21.56672 | 321° | 166km/h | 19283m | -80.1m/s | -52.3°C | 0.8% | 38.1hPa | 0V | 00:00:00 | 00:00:00 | 00:00:00 | |
| KRY50SP | 2026-09-03 00:24:57 | 52.39149 | 21.56672 | 321° | 166km/h | 19283m | -80.1m/s | -52.3°C | 0.8% | 38.3hPa | 0V | 00:00:00 | 00:00:00 | 00:00:00 | |
| KRY50SP | 2026-09-03 00:24:51 | 52.39149 | 21.56672 | 321° | 166km/h | 19283m | -80.1m/s | -52.3°C | 0.8% | 38.5hPa | 0V | 00:00:00 | 00:00:00 | 00:00:00 | |
| KRY50SP | 2026-09-03 00:24:45 | 52.39149 | 21.56672 | 321° | 166km/h | 19283m | -80.1m/s | -52.4°C | 0.8% | 38.7hPa | 0V | 00:00:00 | 00:00:00 | 00:00:00 | |
| KRY50SP | 2026-09-03 00:24:39 | 52.39149 | 21.56672 | 321° | 166km/h | 19283m | -80.1m/s | -52.5°C | 0.9% | 38.9hPa | 0V | 00:00:00 | 00:00:00 | 00:00:00 | |
| KRY50SP | 2026-09-03 00:24:33 | 52.39149 | 21.56672 | 321° | 166km/h | 19283m | -80.1m/s | -52.5°C | 0.8% | 39.2hPa | 0V | 00:00:00 | 00:00:00 | 00:00:00 | |
| KRY50SP | 2026-09-03 00:24:27 | 52.39149 | 21.56672 | 321° | 166km/h | 19283m | -80.1m/s | -52.4°C | 0.8% | 39.4hPa | 0V | 00:00:00 | 00:00:00 | 00:00:00 | |
| KRY50SP | 2026-09-03 00:24:22 | 52.39149 | 21.56672 | 321° | 166km/h | 19283m | -80.1m/s | -52.5°C | 0.8% | 39.6hPa | 0V | 00:00:00 | 00:00:00 | 00:00:00 | |
| KRY50SP | 2026-09-03 00:24:17 | 52.39149 | 21.56672 | 321° | 166km/h | 19283m | -80.1m/s | -52.4°C | 0.9% | 39.8hPa | 0V | 00:00:00 | 00:00:00 | 00:00:00 | |
| KRY50SP | 2026-09-03 00:24:11 | 52.39149 | 21.56672 | 321° | 166km/h | 19283m | -80.1m/s | -52.2°C | 0.9% | 40.0hPa | 0V | 00:00:00 | 00:00:00 | 00:00:00 | |
| KRY50SP | 2026-09-03 00:24:06 | 52.39149 | 21.56672 | 321° | 166km/h | 19283m | -80.1m/s | -52.0°C | 0.8% | 40.2hPa | 0V | 00:00:00 | 00:00:00 | 00:00:00 | |
| KRY50SP | 2026-09-03 00:24:00 | 52.39149 | 21.56672 | 321° | 166km/h | 19283m | -80.1m/s | -52.0°C | 0.8% | 40.4hPa | 0V | 00:00:00 | 00:00:00 | 00:00:00 | |
| SP4MAZ | 2026-09-03 00:23:58 | 55.41111 | 16.42184 | 0° | 0km/h | 40646m | 0.0m/s | -52.0°C | 0.8% | 40.5hPa | 0V | 00:00:00 | 00:00:00 | 00:00:00 | |
| KRY50SP | 2026-09-03 00:23:54 | 52.39149 | 21.56672 | 321° | 166km/h | 19283m | -80.1m/s | -51.9°C | 0.8% | 40.7hPa | 0V | 00:00:00 | 00:00:00 | 00:00:00 | |
| KRY50SP | 2026-09-03 00:23:48 | 52.39149 | 21.56672 | 321° | 166km/h | 19283m | -80.1m/s | -51.8°C | 0.8% | 40.9hPa | 0V | 00:00:00 | 00:00:00 | 00:00:00 | |
| KRY50SP | 2026-09-03 00:23:42 | 52.39149 | 21.56672 | 321° | 166km/h | 19283m | -80.1m/s | -51.8°C | 0.8% | 41.0hPa | 0V | 00:00:00 | 00:00:00 | 00:00:00 | |
| SP4MAZ | 2026-09-03 00:23:38 | 55.59051 | 13.10445 | 0° | 0km/h | 41310m | 0.0m/s | -51.8°C | 0.8% | 41.3hPa | 0V | 00:00:00 | 00:00:00 | 00:00:00 | |
| KRY50SP | 2026-09-03 00:23:36 | 52.39149 | 21.56672 | 321° | 166km/h | 19283m | -80.1m/s | -51.8°C | 0.8% | 41.3hPa | 0V | 00:00:00 | 00:00:00 | 00:00:00 | |
| KRY50SP | 2026-09-03 00:23:31 | 52.39149 | 21.56672 | 321° | 166km/h | 19283m | -80.1m/s | -51.9°C | 0.8% | 41.5hPa | 0V | 00:00:00 | 00:00:00 | 00:00:00 | |
| KRY50SP | 2026-09-03 00:23:25 | 52.39149 | 21.56672 | 321° | 166km/h | 19283m | -80.1m/s | -52.0°C | 0.8% | 41.7hPa | 0V | 00:00:00 | 00:00:00 | 00:00:00 | |
| KRY50SP | 2026-09-03 00:23:20 | 52.39149 | 21.56672 | 321° | 166km/h | 19283m | -80.1m/s | -52.1°C | 0.8% | 41.9hPa | 0V | 00:00:00 | 00:00:00 | 00:00:00 | |
| KRY50SP | 2026-09-03 00:23:14 | 52.39149 | 21.56672 | 321° | 166km/h | 19283m | -80.1m/s | -52.1°C | 0.8% | 42.1hPa | 0V | 00:00:00 | 00:00:00 | 00:00:00 | |
| KRY50SP | 2026-09-03 00:23:09 | 52.39149 | 21.56672 | 321° | 166km/h | 19283m | -80.1m/s | -52.0°C | 0.8% | 42.4hPa | 0V | 00:00:00 | 00:00:00 | 00:00:00 | |
| KRY50SP | 2026-09-03 00:23:04 | 52.39149 | 21.56672 | 321° | 166km/h | 19283m | -80.1m/s | -52.0°C | 0.8% | 42.5hPa | 0V | 00:00:00 | 00:00:00 | 00:00:00 | |
| KRY50SP | 2026-09-03 00:22:59 | 52.39149 | 21.56672 | 321° | 166km/h | 19283m | -80.1m/s | -52.2°C | 0.8% | 42.7hPa | 0V | 00:00:00 | 00:00:00 | 00:00:00 | |
| KRY50SP | 2026-09-03 00:22:48 | 52.39149 | 21.56672 | 321° | 166km/h | 19283m | -80.1m/s | -52.6°C | 0.8% | 43.2hPa | 0V | 00:00:00 | 00:00:00 | 00:00:00 | |
| KRY50SP | 2026-09-03 00:22:38 | 52.39149 | 21.56672 | 321° | 166km/h | 19283m | -80.1m/s | -53.0°C | 0.9% | 43.6hPa | 0V | 00:00:00 | 00:00:00 | 00:00:00 | |
| KRY50SP | 2026-09-03 00:22:21 | 52.39149 | 21.56672 | 321° | 166km/h | 19283m | -80.1m/s | -52.9°C | 0.9% | 44.2hPa | 0V | 00:00:00 | 00:00:00 | 00:00:00 | |
| KRY50SP | 2026-09-03 00:22:16 | 52.39149 | 21.56672 | 321° | 166km/h | 19283m | -80.1m/s | -52.9°C | 0.9% | 44.5hPa | 0V | 00:00:00 | 00:00:00 | 00:00:00 | |
| KRY50SP | 2026-09-03 00:22:10 | 52.39149 | 21.56672 | 321° | 166km/h | 19283m | -80.1m/s | -52.9°C | 0.9% | 44.7hPa | 0V | 00:00:00 | 00:00:00 | 00:00:00 | |
| SP4MAZ | 2026-09-03 00:22:08 | 52.38542 | 21.56900 | 132° | 20km/h | 20340m | 5.5m/s | -52.9°C | 0.9% | 44.8hPa | 0V | 00:00:00 | 00:00:00 | 00:00:00 | |
| KRY50SP | 2026-09-03 00:22:05 | 52.39149 | 21.56672 | 321° | 166km/h | 19283m | -80.1m/s | -52.9°C | 0.9% | 44.9hPa | 0V | 00:00:00 | 00:00:00 | 00:00:00 | |
| KRY50SP | 2026-09-03 00:21:59 | 52.39149 | 21.56672 | 321° | 166km/h | 19283m | -80.1m/s | -52.7°C | 0.9% | 45.1hPa | 0V | 00:00:00 | 00:00:00 | 00:00:00 | |
| KRY50SP | 2026-09-03 00:21:54 | 52.39149 | 21.56672 | 321° | 166km/h | 19283m | -80.1m/s | -52.8°C | 0.9% | 45.3hPa | 0V | 00:00:00 | 00:00:00 | 00:00:00 | |
| KRY50SP | 2026-09-03 00:21:48 | 52.39149 | 21.56672 | 321° | 166km/h | 19283m | -80.1m/s | -53.0°C | 0.9% | 45.6hPa | 0V | 00:00:00 | 00:00:00 | 00:00:00 | |
| SP4MAZ | 2026-09-03 00:21:45 | 52.38524 | 21.56999 | 115° | 13km/h | 20419m | 5.6m/s | -53.0°C | 0.9% | 45.8hPa | 0V | 00:00:00 | 00:00:00 | 00:00:00 | |
| KRY50SP | 2026-09-03 00:21:44 | 52.39149 | 21.56672 | 321° | 166km/h | 19283m | -80.1m/s | -53.0°C | 0.9% | 45.8hPa | 0V | 00:00:00 | 00:00:00 | 00:00:00 | |
| KRY50SP | 2026-09-03 00:21:38 | 52.39149 | 21.56672 | 321° | 166km/h | 19283m | -80.1m/s | -53.0°C | 0.9% | 46.1hPa | 0V | 00:00:00 | 00:00:00 | 00:00:00 | |
| KRY50SP | 2026-09-03 00:21:32 | 52.39149 | 21.56672 | 321° | 166km/h | 19283m | -80.1m/s | -53.1°C | 0.9% | 46.3hPa | 0V | 00:00:00 | 00:00:00 | 00:00:00 | |
| KRY50SP | 2026-09-03 00:21:27 | 52.39149 | 21.56672 | 321° | 166km/h | 19283m | -80.1m/s | -53.6°C | 0.9% | 46.5hPa | 0V | 00:00:00 | 00:00:00 | 00:00:00 | |
| SP4MAZ | 2026-09-03 00:21:24 | 52.38524 | 21.56999 | 115° | 13km/h | 20419m | 5.6m/s | -53.6°C | 0.9% | 46.6hPa | 0V | 00:00:00 | 00:00:00 | 00:00:00 | |
| KRY50SP | 2026-09-03 00:21:21 | 52.39149 | 21.56672 | 321° | 166km/h | 19283m | -80.1m/s | -53.6°C | 0.9% | 46.7hPa | 0V | 00:00:00 | 00:00:00 | 00:00:00 | |
| KRY50SP | 2026-09-03 00:21:16 | 52.39149 | 21.56672 | 321° | 166km/h | 19283m | -80.1m/s | -53.6°C | 1.0% | 47.0hPa | 0V | 00:00:00 | 00:00:00 | 00:00:00 | |
| KRY50SP | 2026-09-03 00:21:10 | 52.39149 | 21.56672 | 321° | 166km/h | 19283m | -80.1m/s | -53.4°C | 0.9% | 47.2hPa | 0V | 00:00:00 | 00:00:00 | 00:00:00 | |
| KRY50SP | 2026-09-03 00:21:04 | 52.39149 | 21.56672 | 321° | 166km/h | 19283m | -80.1m/s | -53.4°C | 0.9% | 47.5hPa | 0V | 00:00:00 | 00:00:00 | 00:00:00 | |
| KRY50SP | 2026-09-03 00:20:58 | 52.39149 | 21.56672 | 321° | 166km/h | 19283m | -80.1m/s | -53.3°C | 0.9% | 47.7hPa | 0V | 00:00:00 | 00:00:00 | 00:00:00 | |
| KRY50SP | 2026-09-03 00:20:52 | 52.39149 | 21.56672 | 321° | 166km/h | 19283m | -80.1m/s | -53.1°C | 0.9% | 48.0hPa | 0V | 00:00:00 | 00:00:00 | 00:00:00 | |
| KRY50SP | 2026-09-03 00:20:46 | 52.39149 | 21.56672 | 321° | 166km/h | 19283m | -80.1m/s | -53.2°C | 0.9% | 48.2hPa | 0V | 00:00:00 | 00:00:00 | 00:00:00 | |
| KRY50SP | 2026-09-03 00:20:40 | 52.39149 | 21.56672 | 321° | 166km/h | 19283m | -80.1m/s | -53.2°C | 0.9% | 48.5hPa | 0V | 00:00:00 | 00:00:00 | 00:00:00 | |
| KRY50SP | 2026-09-03 00:20:36 | 52.39149 | 21.56672 | 321° | 166km/h | 19283m | -80.1m/s | -53.1°C | 0.9% | 48.7hPa | 0V | 00:00:00 | 00:00:00 | 00:00:00 | |
| KRY50SP | 2026-09-03 00:20:30 | 52.39149 | 21.56672 | 321° | 166km/h | 19283m | -80.1m/s | -53.1°C | 0.9% | 48.9hPa | 0V | 00:00:00 | 00:00:00 | 00:00:00 | |
| KRY50SP | 2026-09-03 00:20:24 | 52.39149 | 21.56672 | 321° | 166km/h | 19283m | -80.1m/s | -53.0°C | 0.9% | 49.2hPa | 0V | 00:00:00 | 00:00:00 | 00:00:00 | |
| KRY50SP | 2026-09-03 00:20:20 | 52.39149 | 21.56672 | 321° | 166km/h | 19283m | -80.1m/s | -53.0°C | 0.9% | 49.4hPa | 0V | 00:00:00 | 00:00:00 | 00:00:00 | |
| KRY50SP | 2026-09-03 00:20:13 | 52.39149 | 21.56672 | 321° | 166km/h | 19283m | -80.1m/s | -53.1°C | 0.9% | 49.7hPa | 0V | 00:00:00 | 00:00:00 | 00:00:00 | |
| KRY50SP | 2026-09-03 00:20:07 | 52.39149 | 21.56672 | 321° | 166km/h | 19283m | -80.1m/s | -52.8°C | 0.9% | 50.0hPa | 0V | 00:00:00 | 00:00:00 | 00:00:00 | |
| KRY50SP | 2026-09-03 00:20:01 | 52.39149 | 21.56672 | 321° | 166km/h | 19283m | -80.1m/s | -52.7°C | 0.9% | 50.3hPa | 0V | 00:00:00 | 00:00:00 | 00:00:00 | |
| KRY50SP | 2026-09-03 00:19:56 | 52.39149 | 21.56672 | 321° | 166km/h | 19283m | -80.1m/s | -52.6°C | 0.9% | 50.5hPa | 0V | 00:00:00 | 00:00:00 | 00:00:00 | |
| KRY50SP | 2026-09-03 00:19:51 | 52.39149 | 21.56672 | 321° | 166km/h | 19283m | -80.1m/s | -52.5°C | 0.9% | 50.7hPa | 0V | 00:00:00 | 00:00:00 | 00:00:00 | |
| KRY50SP | 2026-09-03 00:19:46 | 52.39149 | 21.56672 | 321° | 166km/h | 19283m | -80.1m/s | -52.6°C | 0.9% | 50.9hPa | 0V | 00:00:00 | 00:00:00 | 00:00:00 | |
| KRY50SP | 2026-09-03 00:19:41 | 52.39149 | 21.56672 | 321° | 166km/h | 19283m | -80.1m/s | -52.6°C | 0.9% | 51.1hPa | 0V | 00:00:00 | 00:00:00 | 00:00:00 | |
| KRY50SP | 2026-09-03 00:19:36 | 52.39149 | 21.56672 | 321° | 166km/h | 19283m | -80.1m/s | -52.7°C | 0.9% | 51.4hPa | 0V | 00:00:00 | 00:00:00 | 00:00:00 | |
| KRY50SP | 2026-09-03 00:19:30 | 52.39149 | 21.56672 | 321° | 166km/h | 19283m | -80.1m/s | -52.7°C | 0.9% | 51.6hPa | 0V | 00:00:00 | 00:00:00 | 00:00:00 | |
| KRY50SP | 2026-09-03 00:19:24 | 52.39149 | 21.56672 | 321° | 166km/h | 19283m | -80.1m/s | -52.8°C | 0.9% | 51.9hPa | 0V | 00:00:00 | 00:00:00 | 00:00:00 | |
| KRY50SP | 2026-09-03 00:19:18 | 52.39149 | 21.56672 | 321° | 166km/h | 19283m | -80.1m/s | -52.8°C | 0.9% | 52.2hPa | 0V | 00:00:00 | 00:00:00 | 00:00:00 | |
| KRY50SP | 2026-09-03 00:19:07 | 52.39149 | 21.56672 | 321° | 166km/h | 19283m | -80.1m/s | -52.6°C | 0.9% | 52.7hPa | 0V | 00:00:00 | 00:00:00 | 00:00:00 | |
| KRY50SP | 2026-09-03 00:19:01 | 52.38025 | 21.57865 | 137° | 66km/h | 20483m | -8.4m/s | -52.3°C | 0.9% | 53.0hPa | 0V | 00:00:00 | 00:00:00 | 00:00:00 | |
| KRY50SP | 2026-09-03 00:18:55 | 52.38025 | 21.57865 | 137° | 66km/h | 20483m | -8.4m/s | -52.1°C | 0.9% | 53.3hPa | 0V | 00:00:00 | 00:00:00 | 00:00:00 | |
| KRY50SP | 2026-09-03 00:18:49 | 52.38303 | 21.57517 | 137° | 120km/h | 20439m | -0.9m/s | -51.9°C | 0.9% | 53.6hPa | 0V | 00:00:00 | 00:00:00 | 00:00:00 | |
| KRY50SP | 2026-09-03 00:18:44 | 52.38510 | 21.57119 | 145° | 31km/h | 20522m | 5.2m/s | -51.9°C | 0.9% | 53.8hPa | 0V | 00:00:00 | 00:00:00 | 00:00:00 | |
| KRY50SP | 2026-09-03 00:18:38 | 52.38520 | 21.57082 | 114° | 16km/h | 20488m | 6.6m/s | -52.1°C | 0.9% | 54.1hPa | 0V | 00:00:00 | 00:00:00 | 00:00:00 | |
| KRY50SP | 2026-09-03 00:18:34 | 52.38520 | 21.57040 | 108° | 22km/h | 20457m | 6.8m/s | -51.9°C | 0.9% | 54.4hPa | 0V | 00:00:00 | 00:00:00 | 00:00:00 | |
| KRY50SP | 2026-09-03 00:18:27 | 52.38524 | 21.56999 | 115° | 13km/h | 20419m | 5.6m/s | -52.2°C | 0.9% | 54.7hPa | 0V | 00:00:00 | 00:00:00 | 00:00:00 | |
| SP4MAZ | 2026-09-03 00:18:26 | 52.38525 | 21.56994 | 84° | 16km/h | 20414m | 5.4m/s | -52.2°C | 0.9% | 54.7hPa | 0V | 00:00:00 | 00:00:00 | 00:00:00 | |
| KRY50SP | 2026-09-03 00:18:22 | 52.38525 | 21.56964 | 104° | 20km/h | 20387m | 5.7m/s | -52.2°C | 0.9% | 54.9hPa | 0V | 00:00:00 | 00:00:00 | 00:00:00 | |
| KRY50SP | 2026-09-03 00:18:17 | 52.38533 | 21.56924 | 114° | 20km/h | 20364m | 7.6m/s | -52.2°C | 0.9% | 55.2hPa | 0V | 00:00:00 | 00:00:00 | 00:00:00 | |
| KRY50SP | 2026-09-03 00:18:11 | 52.38549 | 21.56887 | 138° | 20km/h | 20322m | 4.1m/s | -52.3°C | 0.9% | 55.5hPa | 0V | 00:00:00 | 00:00:00 | 00:00:00 | |
| KRY50SP | 2026-09-03 00:18:06 | 52.38557 | 21.56842 | 109° | 18km/h | 20287m | 5.3m/s | -52.2°C | 0.9% | 55.7hPa | 0V | 00:00:00 | 00:00:00 | 00:00:00 | |
| KRY50SP | 2026-09-03 00:17:58 | 52.38572 | 21.56802 | 135° | 15km/h | 20250m | 5.1m/s | -51.8°C | 0.9% | 56.1hPa | 0V | 00:00:00 | 00:00:00 | 00:00:00 | |
| KRY50SP | 2026-09-03 00:17:52 | 52.38598 | 21.56766 | 62° | 13km/h | 20218m | 6.9m/s | -51.7°C | 0.8% | 56.4hPa | 0V | 00:00:00 | 00:00:00 | 00:00:00 | |
| KRY50SP | 2026-09-03 00:17:47 | 52.38606 | 21.56742 | 155° | 9km/h | 20188m | 7.6m/s | -51.5°C | 0.9% | 56.7hPa | 0V | 00:00:00 | 00:00:00 | 00:00:00 | |
| SP4MAZ | 2026-09-03 00:17:43 | 52.38614 | 21.56730 | 146° | 15km/h | 20168m | 6.6m/s | -51.4°C | 0.8% | 56.8hPa | 0V | 00:00:00 | 00:00:00 | 00:00:00 | |
| KRY50SP | 2026-09-03 00:17:35 | 52.38642 | 21.56693 | 139° | 20km/h | 20124m | 4.4m/s | -51.3°C | 0.9% | 57.2hPa | 0V | 00:00:00 | 00:00:00 | 00:00:00 | |
| KRY50SP | 2026-09-03 00:17:30 | 52.38670 | 21.56649 | 131° | 22km/h | 20090m | 3.9m/s | -51.2°C | 0.8% | 57.6hPa | 0V | 00:00:00 | 00:00:00 | 00:00:00 | |
| KRY50SP | 2026-09-03 00:17:24 | 52.38692 | 21.56611 | 140° | 20km/h | 20066m | 5.4m/s | -51.4°C | 0.8% | 57.8hPa | 0V | 00:00:00 | 00:00:00 | 00:00:00 | |
| KRY50SP | 2026-09-03 00:17:18 | 52.38714 | 21.56565 | 104° | 26km/h | 20036m | 4.7m/s | -51.5°C | 0.8% | 58.1hPa | 0V | 00:00:00 | 00:00:00 | 00:00:00 | |
| SP4MAZ | 2026-09-03 00:17:14 | 52.38721 | 21.56519 | 110° | 29km/h | 20013m | 6.6m/s | -51.4°C | 0.8% | 58.3hPa | 0V | 00:00:00 | 00:00:00 | 00:00:00 | |
| KRY50SP | 2026-09-03 00:17:13 | 52.38724 | 21.56508 | 113° | 26km/h | 20007m | 5.0m/s | -51.4°C | 0.8% | 58.3hPa | 0V | 00:00:00 | 00:00:00 | 00:00:00 | |
| KRY50SP | 2026-09-03 00:17:08 | 52.38734 | 21.56440 | 110° | 29km/h | 19974m | 6.6m/s | -51.7°C | 0.8% | 58.6hPa | 0V | 00:00:00 | 00:00:00 | 00:00:00 | |
| KRY50SP | 2026-09-03 00:17:01 | 52.38732 | 21.56366 | 90° | 29km/h | 19929m | 6.2m/s | -51.8°C | 0.8% | 59.0hPa | 0V | 00:00:00 | 00:00:00 | 00:00:00 | |
| KRY50SP | 2026-09-03 00:16:55 | 52.38731 | 21.56303 | 61° | 26km/h | 19895m | 5.0m/s | -51.9°C | 0.9% | 59.3hPa | 0V | 00:00:00 | 00:00:00 | 00:00:00 | |
| SP4MAZ | 2026-09-03 00:16:54 | 52.38727 | 21.56282 | 88° | 24km/h | 19882m | 6.3m/s | -51.9°C | 0.9% | 59.3hPa | 0V | 00:00:00 | 00:00:00 | 00:00:00 | |
| KRY50SP | 2026-09-03 00:16:49 | 52.38730 | 21.56235 | 97° | 33km/h | 19860m | 3.8m/s | -51.9°C | 0.9% | 59.6hPa | 0V | 00:00:00 | 00:00:00 | 00:00:00 | |
| KRY50SP | 2026-09-03 00:16:43 | 52.38735 | 21.56169 | 40° | 26km/h | 19829m | 4.0m/s | -51.9°C | 0.9% | 59.9hPa | 0V | 00:00:00 | 00:00:00 | 00:00:00 | |
| KRY50SP | 2026-09-03 00:16:38 | 52.38722 | 21.56125 | 78° | 24km/h | 19807m | 7.5m/s | -51.9°C | 0.9% | 60.1hPa | 0V | 00:00:00 | 00:00:00 | 00:00:00 | |
| KRY50SP | 2026-09-03 00:16:32 | 52.38711 | 21.56060 | 65° | 37km/h | 19770m | 6.9m/s | -51.9°C | 0.9% | 60.4hPa | 0V | 00:00:00 | 00:00:00 | 00:00:00 | |
| SP4MAZ | 2026-09-03 00:16:30 | 52.38700 | 21.56034 | 58° | 35km/h | 19759m | 6.3m/s | -51.8°C | 0.9% | 60.6hPa | 0V | 00:00:00 | 00:00:00 | 00:00:00 | |
| KRY50SP | 2026-09-03 00:16:26 | 52.38679 | 21.55990 | 49° | 33km/h | 19727m | 4.8m/s | -52.1°C | 0.9% | 60.8hPa | 0V | 00:00:00 | 00:00:00 | 00:00:00 | |
| KRY50SP | 2026-09-03 00:16:20 | 52.38647 | 21.55922 | 62° | 38km/h | 19693m | 3.8m/s | -52.5°C | 0.9% | 61.1hPa | 0V | 00:00:00 | 00:00:00 | 00:00:00 | |
| KRY50SP | 2026-09-03 00:16:14 | 52.38623 | 21.55853 | 46° | 27km/h | 19663m | 4.6m/s | -52.5°C | 0.9% | 61.4hPa | 0V | 00:00:00 | 00:00:00 | 00:00:00 | |
| SP4MAZ | 2026-09-03 00:16:10 | 52.38607 | 21.55826 | 44° | 24km/h | 19642m | 6.9m/s | -52.5°C | 0.9% | 61.6hPa | 0V | 00:00:00 | 00:00:00 | 00:00:00 | |
| KRY50SP | 2026-09-03 00:16:09 | 52.38604 | 21.55819 | 54° | 26km/h | 19636m | 6.1m/s | -52.4°C | 0.9% | 61.6hPa | 0V | 00:00:00 | 00:00:00 | 00:00:00 | |
| KRY50SP | 2026-09-03 00:16:04 | 52.38589 | 21.55774 | 75° | 26km/h | 19605m | 6.2m/s | -52.3°C | 0.9% | 61.9hPa | 0V | 00:00:00 | 00:00:00 | 00:00:00 | |
| KRY50SP | 2026-09-03 00:15:58 | 52.38578 | 21.55731 | 48° | 24km/h | 19580m | 3.4m/s | -52.5°C | 0.9% | 62.2hPa | 0V | 00:00:00 | 00:00:00 | 00:00:00 | |
| KRY50SP | 2026-09-03 00:15:53 | 52.38568 | 21.55696 | 103° | 24km/h | 19553m | 5.9m/s | -52.4°C | 0.9% | 62.5hPa | 0V | 00:00:00 | 00:00:00 | 00:00:00 | |
| SP4MAZ | 2026-09-03 00:15:50 | 52.38570 | 21.55669 | 88° | 24km/h | 19543m | 6.0m/s | -52.3°C | 0.9% | 62.6hPa | 0V | 00:00:00 | 00:00:00 | 00:00:00 | |
| KRY50SP | 2026-09-03 00:15:47 | 52.38573 | 21.55636 | 80° | 20km/h | 19531m | 6.5m/s | -52.2°C | 0.9% | 62.8hPa | 0V | 00:00:00 | 00:00:00 | 00:00:00 | |
| KRY50SP | 2026-09-03 00:15:42 | 52.38567 | 21.55597 | 77° | 22km/h | 19499m | 6.5m/s | -52.2°C | 0.9% | 63.1hPa | 0V | 00:00:00 | 00:00:00 | 00:00:00 | |
| KRY50SP | 2026-09-03 00:15:36 | 52.38558 | 21.55540 | 73° | 26km/h | 19458m | 5.0m/s | -52.0°C | 0.9% | 63.4hPa | 0V | 00:00:00 | 00:00:00 | 00:00:00 | |
| KRY50SP | 2026-09-03 00:15:30 | 52.38546 | 21.55496 | 68° | 15km/h | 19413m | 4.2m/s | -52.1°C | 0.9% | 63.7hPa | 0V | 00:00:00 | 00:00:00 | 00:00:00 | |
| SP4MAZ | 2026-09-03 00:15:29 | 52.38545 | 21.55490 | 85° | 16km/h | 19409m | 4.1m/s | -52.0°C | 0.9% | 63.8hPa | 0V | 00:00:00 | 00:00:00 | 00:00:00 | |
| KRY50SP | 2026-09-03 00:15:24 | 52.38547 | 21.55451 | 83° | 22km/h | 19385m | 4.3m/s | -51.9°C | 0.9% | 64.0hPa | 0V | 00:00:00 | 00:00:00 | 00:00:00 | |
| KRY50SP | 2026-09-03 00:15:18 | 52.38544 | 21.55393 | 90° | 18km/h | 19355m | 3.5m/s | -51.9°C | 0.9% | 64.4hPa | 0V | 00:00:00 | 00:00:00 | 00:00:00 | |
| KRY50SP | 2026-09-03 00:15:13 | 52.38552 | 21.55360 | 88° | 13km/h | 19329m | 3.6m/s | -52.2°C | 0.9% | 64.7hPa | 0V | 00:00:00 | 00:00:00 | 00:00:00 | |
| KRY50SP | 2026-09-03 00:15:07 | 52.38555 | 21.55298 | 103° | 29km/h | 19308m | 4.0m/s | -52.3°C | 0.9% | 65.0hPa | 0V | 00:00:00 | 00:00:00 | 00:00:00 | |
| KRY50SP | 2026-09-03 00:15:01 | 52.38566 | 21.55237 | 111° | 22km/h | 19280m | 4.4m/s | -52.3°C | 0.9% | 65.3hPa | 0V | 00:00:00 | 00:00:00 | 00:00:00 | |
| SP4MAZ | 2026-09-03 00:14:59 | 52.38570 | 21.55215 | 107° | 33km/h | 19269m | 4.8m/s | -52.3°C | 1.0% | 65.5hPa | 0V | 00:00:00 | 00:00:00 | 00:00:00 | |
| KRY50SP | 2026-09-03 00:14:55 | 52.38582 | 21.55167 | 119° | 27km/h | 19253m | 5.9m/s | -52.2°C | 0.9% | 65.7hPa | 0V | 00:00:00 | 00:00:00 | 00:00:00 | |
| KRY50SP | 2026-09-03 00:14:49 | 52.38606 | 21.55108 | 119° | 27km/h | 19222m | 5.7m/s | -52.1°C | 0.9% | 66.0hPa | 0V | 00:00:00 | 00:00:00 | 00:00:00 | |
| KRY50SP | 2026-09-03 00:14:42 | 52.38636 | 21.55016 | 117° | 37km/h | 19183m | 6.6m/s | -52.0°C | 0.9% | 66.4hPa | 0V | 00:00:00 | 00:00:00 | 00:00:00 | |
| SP4MAZ | 2026-09-03 00:14:39 | 52.38651 | 21.54975 | 124° | 38km/h | 19166m | 5.5m/s | -52.0°C | 0.9% | 66.5hPa | 0V | 00:00:00 | 00:00:00 | 00:00:00 | |
| KRY50SP | 2026-09-03 00:14:36 | 52.38664 | 21.54935 | 108° | 33km/h | 19142m | 5.6m/s | -51.9°C | 0.9% | 66.8hPa | 0V | 00:00:00 | 00:00:00 | 00:00:00 | |
| KRY50SP | 2026-09-03 00:14:31 | 52.38681 | 21.54873 | 116° | 37km/h | 19107m | 5.1m/s | -51.9°C | 0.9% | 67.0hPa | 0V | 00:00:00 | 00:00:00 | 00:00:00 | |
| KRY50SP | 2026-09-03 00:14:26 | 52.38701 | 21.54806 | 121° | 42km/h | 19073m | 5.8m/s | -51.8°C | 0.9% | 67.3hPa | 0V | 00:00:00 | 00:00:00 | 00:00:00 | |
| KRY50SP | 2026-09-03 00:14:20 | 52.38725 | 21.54714 | 104° | 44km/h | 19044m | 5.8m/s | -51.7°C | 0.9% | 67.7hPa | 0V | 00:00:00 | 00:00:00 | 00:00:00 | |
| SP4MAZ | 2026-09-03 00:14:19 | 52.38728 | 21.54696 | 100° | 42km/h | 19041m | 5.5m/s | -51.7°C | 0.9% | 67.7hPa | 0V | 00:00:00 | 00:00:00 | 00:00:00 | |
| KRY50SP | 2026-09-03 00:14:14 | 52.38737 | 21.54607 | 108° | 46km/h | 19008m | 4.6m/s | -51.5°C | 0.9% | 68.0hPa | 0V | 00:00:00 | 00:00:00 | 00:00:00 | |
| KRY50SP | 2026-09-03 00:14:08 | 52.38756 | 21.54508 | 102° | 37km/h | 18980m | 6.3m/s | -51.3°C | 0.9% | 68.3hPa | 0V | 00:00:00 | 00:00:00 | 00:00:00 | |
| KRY50SP | 2026-09-03 00:14:02 | 52.38762 | 21.54408 | 98° | 47km/h | 18940m | 5.9m/s | -51.1°C | 0.9% | 68.7hPa | 0V | 00:00:00 | 00:00:00 | 00:00:00 | |
| KRY50SP | 2026-09-03 00:13:57 | 52.38773 | 21.54316 | 104° | 42km/h | 18908m | 4.3m/s | -51.0°C | 0.9% | 69.0hPa | 0V | 00:00:00 | 00:00:00 | 00:00:00 | |
| KRY50SP | 2026-09-03 00:13:51 | 52.38780 | 21.54199 | 105° | 49km/h | 18875m | 5.4m/s | -51.0°C | 0.9% | 69.3hPa | 0V | 00:00:00 | 00:00:00 | 00:00:00 | |
| KRY50SP | 2026-09-03 00:13:45 | 52.38788 | 21.54096 | 95° | 49km/h | 18848m | 5.3m/s | -51.2°C | 0.9% | 69.7hPa | 0V | 00:00:00 | 00:00:00 | 00:00:00 | |
| KRY50SP | 2026-09-03 00:13:39 | 52.38795 | 21.53987 | 99° | 46km/h | 18812m | 4.3m/s | -51.4°C | 0.9% | 70.0hPa | 0V | 00:00:00 | 00:00:00 | 00:00:00 | |
| KRY50SP | 2026-09-03 00:13:34 | 52.38799 | 21.53895 | 85° | 46km/h | 18784m | 2.8m/s | -51.5°C | 0.9% | 70.3hPa | 0V | 00:00:00 | 00:00:00 | 00:00:00 | |
| KRY50SP | 2026-09-03 00:13:28 | 52.38795 | 21.53772 | 88° | 53km/h | 18758m | 5.1m/s | -51.6°C | 0.9% | 70.6hPa | 0V | 00:00:00 | 00:00:00 | 00:00:00 | |
| SP4MAZ | 2026-09-03 00:13:27 | 52.38793 | 21.53731 | 84° | 49km/h | 18751m | 7.0m/s | -51.6°C | 0.9% | 70.7hPa | 0V | 00:00:00 | 00:00:00 | 00:00:00 | |
| KRY50SP | 2026-09-03 00:13:22 | 52.38784 | 21.53661 | 76° | 40km/h | 18721m | 5.8m/s | -51.5°C | 0.9% | 71.0hPa | 0V | 00:00:00 | 00:00:00 | 00:00:00 | |
| KRY50SP | 2026-09-03 00:13:16 | 52.38764 | 21.53558 | 84° | 47km/h | 18681m | 6.9m/s | -51.4°C | 0.9% | 71.4hPa | 0V | 00:00:00 | 00:00:00 | 00:00:00 | |
| KRY50SP | 2026-09-03 00:13:10 | 52.38737 | 21.53445 | 82° | 46km/h | 18611m | 7.4m/s | -51.8°C | 0.9% | 71.7hPa | 0V | 00:00:00 | 00:00:00 | 00:00:00 | |
| SP4MAZ | 2026-09-03 00:13:04 | 52.38695 | 21.53339 | 66° | 38km/h | 18533m | 5.0m/s | -51.6°C | 0.9% | 72.1hPa | 0V | 00:00:00 | 00:00:00 | 00:00:00 | |
| KRY50SP | 2026-09-03 00:12:59 | 52.38668 | 21.53262 | 85° | 33km/h | 18505m | 4.3m/s | -51.4°C | 0.9% | 72.4hPa | 0V | 00:00:00 | 00:00:00 | 00:00:00 | |
| KRY50SP | 2026-09-03 00:12:53 | 52.38686 | 21.53193 | 76° | 35km/h | 18508m | 3.9m/s | -51.2°C | 0.9% | 72.8hPa | 0V | 00:00:00 | 00:00:00 | 00:00:00 | |
| KRY50SP | 2026-09-03 00:12:48 | 52.38700 | 21.53134 | 76° | 31km/h | 18527m | 4.2m/s | -51.0°C | 0.9% | 73.1hPa | 0V | 00:00:00 | 00:00:00 | 00:00:00 | |
| SP4MAZ | 2026-09-03 00:12:45 | 52.38695 | 21.53091 | 76° | 38km/h | 18512m | 4.9m/s | -50.9°C | 0.9% | 73.3hPa | 0V | 00:00:00 | 00:00:00 | 00:00:00 | |
| KRY50SP | 2026-09-03 00:12:42 | 52.38692 | 21.53065 | 73° | 35km/h | 18501m | 4.3m/s | -50.9°C | 0.9% | 73.5hPa | 0V | 00:00:00 | 00:00:00 | 00:00:00 | |
| KRY50SP | 2026-09-03 00:12:36 | 52.38680 | 21.53005 | 79° | 22km/h | 18475m | 3.5m/s | -50.8°C | 0.9% | 73.9hPa | 0V | 00:00:00 | 00:00:00 | 00:00:00 | |
| KRY50SP | 2026-09-03 00:12:30 | 52.38675 | 21.52958 | 90° | 24km/h | 18438m | 5.0m/s | -50.8°C | 0.9% | 74.2hPa | 0V | 00:00:00 | 00:00:00 | 00:00:00 | |
| KRY50SP | 2026-09-03 00:12:25 | 52.38675 | 21.52900 | 83° | 27km/h | 18411m | 4.8m/s | -50.8°C | 0.9% | 74.5hPa | 0V | 00:00:00 | 00:00:00 | 00:00:00 | |
| KRY50SP | 2026-09-03 00:12:19 | 52.38667 | 21.52829 | 86° | 27km/h | 18380m | 3.8m/s | -50.6°C | 0.8% | 74.9hPa | 0V | 00:00:00 | 00:00:00 | 00:00:00 | |
| SP4MAZ | 2026-09-03 00:12:16 | 52.38668 | 21.52779 | 109° | 29km/h | 18359m | 6.4m/s | -50.6°C | 0.9% | 75.2hPa | 0V | 00:00:00 | 00:00:00 | 00:00:00 | |
| KRY50SP | 2026-09-03 00:12:14 | 52.38670 | 21.52767 | 114° | 27km/h | 18353m | 4.6m/s | -50.6°C | 0.8% | 75.2hPa | 0V | 00:00:00 | 00:00:00 | 00:00:00 | |
| KRY50SP | 2026-09-03 00:12:09 | 52.38690 | 21.52703 | 104° | 31km/h | 18325m | 5.8m/s | -50.9°C | 0.9% | 75.6hPa | 0V | 00:00:00 | 00:00:00 | 00:00:00 | |
| KRY50SP | 2026-09-03 00:12:02 | 52.38701 | 21.52629 | 101° | 29km/h | 18299m | 5.6m/s | -51.2°C | 0.9% | 76.0hPa | 0V | 00:00:00 | 00:00:00 | 00:00:00 | |
| KRY50SP | 2026-09-03 00:11:57 | 52.38708 | 21.52576 | 108° | 26km/h | 18271m | 6.0m/s | -51.1°C | 0.9% | 76.3hPa | 0V | 00:00:00 | 00:00:00 | 00:00:00 | |
| SP4MAZ | 2026-09-03 00:11:54 | 52.38714 | 21.52549 | 101° | 16km/h | 18257m | 6.0m/s | -51.0°C | 0.9% | 76.5hPa | 0V | 00:00:00 | 00:00:00 | 00:00:00 | |
| KRY50SP | 2026-09-03 00:11:51 | 52.38718 | 21.52519 | 99° | 27km/h | 18242m | 5.7m/s | -50.9°C | 0.9% | 76.7hPa | 0V | 00:00:00 | 00:00:00 | 00:00:00 | |
| KRY50SP | 2026-09-03 00:11:45 | 52.38734 | 21.52448 | 108° | 33km/h | 18208m | 4.0m/s | -50.9°C | 0.9% | 77.1hPa | 0V | 00:00:00 | 00:00:00 | 00:00:00 | |
| KRY50SP | 2026-09-03 00:11:41 | 52.38734 | 21.52398 | 100° | 33km/h | 18180m | 5.1m/s | -50.8°C | 0.9% | 77.3hPa | 0V | 00:00:00 | 00:00:00 | 00:00:00 | |
| KRY50SP | 2026-09-03 00:11:34 | 52.38727 | 21.52326 | 78° | 33km/h | 18139m | 5.6m/s | -50.7°C | 0.9% | 77.7hPa | 0V | 00:00:00 | 00:00:00 | 00:00:00 | |
| KRY50SP | 2026-09-03 00:11:28 | 52.38723 | 21.52248 | 79° | 29km/h | 18104m | 4.1m/s | -50.7°C | 0.9% | 78.1hPa | 0V | 00:00:00 | 00:00:00 | 00:00:00 | |
| KRY50SP | 2026-09-03 00:11:22 | 52.38720 | 21.52180 | 94° | 29km/h | 18073m | 4.3m/s | -51.0°C | 0.9% | 78.5hPa | 0V | 00:00:00 | 00:00:00 | 00:00:00 | |
| KRY50SP | 2026-09-03 00:11:17 | 52.38718 | 21.52118 | 56° | 38km/h | 18046m | 4.5m/s | -51.1°C | 0.9% | 78.9hPa | 0V | 00:00:00 | 00:00:00 | 00:00:00 | |
| KRY50SP | 2026-09-03 00:11:11 | 52.38706 | 21.52032 | 72° | 40km/h | 18026m | 5.5m/s | -50.9°C | 0.9% | 79.2hPa | 0V | 00:00:00 | 00:00:00 | 00:00:00 | |
| KRY50SP | 2026-09-03 00:11:06 | 52.38686 | 21.51959 | 77° | 37km/h | 17995m | 4.8m/s | -50.8°C | 0.9% | 79.5hPa | 0V | 00:00:00 | 00:00:00 | 00:00:00 | |
| SP4MAZ | 2026-09-03 00:11:01 | 52.38673 | 21.51890 | 77° | 33km/h | 17960m | 4.3m/s | -50.7°C | 0.9% | 79.9hPa | 0V | 00:00:00 | 00:00:00 | 00:00:00 | |
| KRY50SP | 2026-09-03 00:11:00 | 52.38671 | 21.51878 | 76° | 29km/h | 17953m | 6.3m/s | -50.6°C | 0.9% | 80.0hPa | 0V | 00:00:00 | 00:00:00 | 00:00:00 | |
| KRY50SP | 2026-09-03 00:10:54 | 52.38657 | 21.51804 | 81° | 37km/h | 17920m | 3.4m/s | -50.5°C | 0.9% | 80.4hPa | 0V | 00:00:00 | 00:00:00 | 00:00:00 | |
| KRY50SP | 2026-09-03 00:10:48 | 52.38651 | 21.51738 | 89° | 22km/h | 17889m | 4.3m/s | -50.3°C | 0.9% | 80.7hPa | 0V | 00:00:00 | 00:00:00 | 00:00:00 | |
| KRY50SP | 2026-09-03 00:10:43 | 52.38643 | 21.51683 | 68° | 33km/h | 17859m | 4.0m/s | -50.1°C | 0.9% | 81.1hPa | 0V | 00:00:00 | 00:00:00 | 00:00:00 | |
| KRY50SP | 2026-09-03 00:10:38 | 52.38632 | 21.51632 | 78° | 20km/h | 17833m | 5.2m/s | -50.0°C | 0.9% | 81.4hPa | 0V | 00:00:00 | 00:00:00 | 00:00:00 | |
| KRY50SP | 2026-09-03 00:10:32 | 52.38624 | 21.51591 | 79° | 22km/h | 17811m | 5.7m/s | -49.9°C | 0.8% | 81.8hPa | 0V | 00:00:00 | 00:00:00 | 00:00:00 | |
| KRY50SP | 2026-09-03 00:10:26 | 52.38617 | 21.51530 | 82° | 22km/h | 17784m | 5.9m/s | -49.8°C | 0.8% | 82.2hPa | 0V | 00:00:00 | 00:00:00 | 00:00:00 | |
| KRY50SP | 2026-09-03 00:10:21 | 52.38611 | 21.51494 | 71° | 15km/h | 17758m | 5.5m/s | -49.7°C | 0.9% | 82.5hPa | 0V | 00:00:00 | 00:00:00 | 00:00:00 | |
| KRY50SP | 2026-09-03 00:10:15 | 52.38605 | 21.51453 | 93° | 24km/h | 17726m | 7.0m/s | -49.5°C | 0.9% | 82.9hPa | 0V | 00:00:00 | 00:00:00 | 00:00:00 | |
| KRY50SP | 2026-09-03 00:10:10 | 52.38612 | 21.51411 | 22° | 15km/h | 17695m | 4.8m/s | -49.3°C | 0.9% | 83.3hPa | 0V | 00:00:00 | 00:00:00 | 00:00:00 | |
| KRY50SP | 2026-09-03 00:10:04 | 52.38603 | 21.51375 | 83° | 16km/h | 17650m | 4.5m/s | -49.1°C | 0.8% | 83.7hPa | 0V | 00:00:00 | 00:00:00 | 00:00:00 | |
| KRY50SP | 2026-09-03 00:09:58 | 52.38610 | 21.51325 | 97° | 24km/h | 17621m | 5.2m/s | -49.0°C | 0.8% | 84.1hPa | 0V | 00:00:00 | 00:00:00 | 00:00:00 | |
| KRY50SP | 2026-09-03 00:09:47 | 52.38625 | 21.51207 | 95° | 35km/h | 17555m | 2.7m/s | -49.2°C | 0.8% | 85.0hPa | 0V | 00:00:00 | 00:00:00 | 00:00:00 | |
| KRY50SP | 2026-09-03 00:09:41 | 52.38634 | 21.51113 | 97° | 31km/h | 17516m | 6.1m/s | -49.2°C | 0.9% | 85.4hPa | 0V | 00:00:00 | 00:00:00 | 00:00:00 | |
| KRY50SP | 2026-09-03 00:09:35 | 52.38642 | 21.51043 | 105° | 29km/h | 17483m | 4.9m/s | -49.2°C | 0.8% | 85.8hPa | 0V | 00:00:00 | 00:00:00 | 00:00:00 | |
| KRY50SP | 2026-09-03 00:09:29 | 52.38645 | 21.50974 | 92° | 24km/h | 17453m | 4.7m/s | -49.3°C | 0.9% | 86.3hPa | 0V | 00:00:00 | 00:00:00 | 00:00:00 | |
| KRY50SP | 2026-09-03 00:09:24 | 52.38646 | 21.50924 | 91° | 26km/h | 17428m | 5.3m/s | -49.2°C | 0.8% | 86.6hPa | 0V | 00:00:00 | 00:00:00 | 00:00:00 | |
| KRY50SP | 2026-09-03 00:09:19 | 52.38652 | 21.50856 | 95° | 26km/h | 17388m | 6.2m/s | -49.2°C | 0.8% | 87.1hPa | 0V | 00:00:00 | 00:00:00 | 00:00:00 | |
| KRY50SP | 2026-09-03 00:09:12 | 52.38655 | 21.50797 | 86° | 26km/h | 17359m | 3.8m/s | -49.4°C | 0.9% | 87.5hPa | 0V | 00:00:00 | 00:00:00 | 00:00:00 | |
| KRY50SP | 2026-09-03 00:09:07 | 52.38663 | 21.50746 | 104° | 29km/h | 17335m | 4.6m/s | -49.8°C | 0.9% | 87.9hPa | 0V | 00:00:00 | 00:00:00 | 00:00:00 | |
| SP4MAZ | 2026-09-03 00:09:04 | 52.38672 | 21.50711 | 114° | 33km/h | 17317m | 4.4m/s | -50.0°C | 0.9% | 88.1hPa | 0V | 00:00:00 | 00:00:00 | 00:00:00 | |
| KRY50SP | 2026-09-03 00:09:01 | 52.38679 | 21.50669 | 99° | 31km/h | 17300m | 6.9m/s | -50.0°C | 0.9% | 88.3hPa | 0V | 00:00:00 | 00:00:00 | 00:00:00 | |
| KRY50SP | 2026-09-03 00:08:55 | 52.38675 | 21.50600 | 75° | 27km/h | 17264m | 3.3m/s | -49.9°C | 0.9% | 88.8hPa | 0V | 00:00:00 | 00:00:00 | 00:00:00 | |
| KRY50SP | 2026-09-03 00:08:50 | 52.38677 | 21.50537 | 101° | 29km/h | 17242m | 6.5m/s | -49.8°C | 0.9% | 89.1hPa | 0V | 00:00:00 | 00:00:00 | 00:00:00 | |
| KRY50SP | 2026-09-03 00:08:44 | 52.38680 | 21.50458 | 93° | 35km/h | 17208m | 3.9m/s | -49.7°C | 0.8% | 89.6hPa | 0V | 00:00:00 | 00:00:00 | 00:00:00 | |
| SP4MAZ | 2026-09-03 00:08:43 | 52.38680 | 21.50443 | 89° | 35km/h | 17203m | 6.4m/s | -49.7°C | 0.8% | 89.6hPa | 0V | 00:00:00 | 00:00:00 | 00:00:00 | |
| KRY50SP | 2026-09-03 00:08:38 | 52.38684 | 21.50373 | 104° | 38km/h | 17179m | 6.6m/s | -50.0°C | 0.9% | 90.0hPa | 0V | 00:00:00 | 00:00:00 | 00:00:00 | |
| KRY50SP | 2026-09-03 00:08:32 | 52.38697 | 21.50260 | 97° | 51km/h | 17143m | 4.0m/s | -50.5°C | 0.9% | 90.5hPa | 0V | 00:00:00 | 00:00:00 | 00:00:00 | |
| KRY50SP | 2026-09-03 00:08:26 | 52.38707 | 21.50151 | 109° | 38km/h | 17107m | 6.8m/s | -50.4°C | 0.9% | 90.9hPa | 0V | 00:00:00 | 00:00:00 | 00:00:00 | |
| SP4MAZ | 2026-09-03 00:08:23 | 52.38716 | 21.50105 | 108° | 42km/h | 17089m | 5.4m/s | -50.4°C | 0.9% | 91.2hPa | 0V | 00:00:00 | 00:00:00 | 00:00:00 | |
| KRY50SP | 2026-09-03 00:08:21 | 52.38721 | 21.50053 | 99° | 44km/h | 17072m | 4.7m/s | -50.2°C | 0.9% | 91.4hPa | 0V | 00:00:00 | 00:00:00 | 00:00:00 | |
| KRY50SP | 2026-09-03 00:08:15 | 52.38730 | 21.49960 | 112° | 35km/h | 17038m | 5.2m/s | -50.1°C | 0.9% | 91.9hPa | 0V | 00:00:00 | 00:00:00 | 00:00:00 | |
| KRY50SP | 2026-09-03 00:08:08 | 52.38743 | 21.49879 | 96° | 35km/h | 17011m | 5.2m/s | -50.0°C | 0.9% | 92.3hPa | 0V | 00:00:00 | 00:00:00 | 00:00:00 | |
| SP4MAZ | 2026-09-03 00:08:02 | 52.38746 | 21.49798 | 99° | 33km/h | 16977m | 3.9m/s | -50.5°C | 0.9% | 92.8hPa | 0V | 00:00:00 | 00:00:00 | 00:00:00 | |
| KRY50SP | 2026-09-03 00:07:57 | 52.38757 | 21.49740 | 93° | 31km/h | 16948m | 4.3m/s | -50.8°C | 0.9% | 93.1hPa | 0V | 00:00:00 | 00:00:00 | 00:00:00 | |
| KRY50SP | 2026-09-03 00:07:51 | 52.38750 | 21.49652 | 78° | 37km/h | 16918m | 5.8m/s | -50.9°C | 1.0% | 93.6hPa | 0V | 00:00:00 | 00:00:00 | 00:00:00 | |
| KRY50SP | 2026-09-03 00:07:46 | 52.38738 | 21.49562 | 85° | 35km/h | 16888m | 4.7m/s | -50.8°C | 0.9% | 94.0hPa | 0V | 00:00:00 | 00:00:00 | 00:00:00 | |
| SP4MAZ | 2026-09-03 00:07:43 | 52.38736 | 21.49518 | 86° | 35km/h | 16872m | 6.1m/s | -50.7°C | 0.9% | 94.3hPa | 0V | 00:00:00 | 00:00:00 | 00:00:00 | |
| KRY50SP | 2026-09-03 00:07:40 | 52.38734 | 21.49491 | 88° | 31km/h | 16861m | 4.0m/s | -50.8°C | 0.9% | 94.5hPa | 0V | 00:00:00 | 00:00:00 | 00:00:00 | |
| KRY50SP | 2026-09-03 00:07:34 | 52.38729 | 21.49415 | 76° | 31km/h | 16832m | 5.5m/s | -51.2°C | 1.0% | 94.9hPa | 0V | 00:00:00 | 00:00:00 | 00:00:00 | |
| KRY50SP | 2026-09-03 00:07:28 | 52.38725 | 21.49347 | 96° | 27km/h | 16802m | 4.6m/s | -51.4°C | 1.0% | 95.4hPa | 0V | 00:00:00 | 00:00:00 | 00:00:00 | |
| KRY50SP | 2026-09-03 00:07:23 | 52.38724 | 21.49286 | 93° | 33km/h | 16776m | 4.6m/s | -51.5°C | 1.0% | 95.7hPa | 0V | 00:00:00 | 00:00:00 | 00:00:00 | |
| KRY50SP | 2026-09-03 00:07:17 | 52.38726 | 21.49223 | 96° | 24km/h | 16746m | 4.8m/s | -51.5°C | 1.0% | 96.1hPa | 0V | 00:00:00 | 00:00:00 | 00:00:00 | |
| KRY50SP | 2026-09-03 00:07:12 | 52.38725 | 21.49162 | 88° | 29km/h | 16718m | 5.5m/s | -51.3°C | 1.0% | 96.6hPa | 0V | 00:00:00 | 00:00:00 | 00:00:00 | |
| KRY50SP | 2026-09-03 00:07:06 | 52.38731 | 21.49101 | 108° | 26km/h | 16688m | 4.8m/s | -51.2°C | 1.0% | 97.0hPa | 0V | 00:00:00 | 00:00:00 | 00:00:00 | |
| KRY50SP | 2026-09-03 00:07:00 | 52.38748 | 21.49035 | 108° | 33km/h | 16661m | 3.9m/s | -50.9°C | 1.0% | 97.5hPa | 0V | 00:00:00 | 00:00:00 | 00:00:00 | |
| KRY50SP | 2026-09-03 00:06:55 | 52.38759 | 21.48965 | 106° | 33km/h | 16638m | 4.2m/s | -50.9°C | 1.0% | 97.9hPa | 0V | 00:00:00 | 00:00:00 | 00:00:00 | |
| KRY50SP | 2026-09-03 00:06:51 | 52.38771 | 21.48892 | 104° | 40km/h | 16610m | 4.7m/s | -50.9°C | 1.0% | 98.3hPa | 0V | 00:00:00 | 00:00:00 | 00:00:00 | |
| SP4MAZ | 2026-09-03 00:06:49 | 52.38773 | 21.48877 | 106° | 40km/h | 16606m | 5.5m/s | -50.9°C | 1.0% | 98.4hPa | 0V | 00:00:00 | 00:00:00 | 00:00:00 | |
| KRY50SP | 2026-09-03 00:06:44 | 52.38784 | 21.48797 | 102° | 40km/h | 16575m | 4.3m/s | -50.9°C | 1.0% | 98.8hPa | 0V | 00:00:00 | 00:00:00 | 00:00:00 | |
| KRY50SP | 2026-09-03 00:06:38 | 52.38802 | 21.48701 | 107° | 38km/h | 16546m | 4.1m/s | -50.9°C | 1.0% | 99.3hPa | 0V | 00:00:00 | 00:00:00 | 00:00:00 | |
| KRY50SP | 2026-09-03 00:06:32 | 52.38820 | 21.48605 | 120° | 47km/h | 16507m | 7.5m/s | -50.9°C | 1.0% | 99.8hPa | 0V | 00:00:00 | 00:00:00 | 00:00:00 | |
| KRY50SP | 2026-09-03 00:06:26 | 52.38838 | 21.48518 | 109° | 40km/h | 16474m | 5.2m/s | -50.8°C | 1.0% | 100.2hPa | 0V | 00:00:00 | 00:00:00 | 00:00:00 | |
| KRY50SP | 2026-09-03 00:06:21 | 52.38851 | 21.48434 | 108° | 46km/h | 16446m | 5.6m/s | -50.8°C | 1.0% | 100.6hPa | 0V | 00:00:00 | 00:00:00 | 00:00:00 | |
| SP4MAZ | 2026-09-03 00:06:17 | 52.38863 | 21.48363 | 107° | 42km/h | 16420m | 6.4m/s | -50.8°C | 1.0% | 101.0hPa | 0V | 00:00:00 | 00:00:00 | 00:00:00 | |
| KRY50SP | 2026-09-03 00:06:16 | 52.38871 | 21.48330 | 108° | 40km/h | 16406m | 5.7m/s | -51.0°C | 1.0% | 101.1hPa | 0V | 00:00:00 | 00:00:00 | 00:00:00 | |
| KRY50SP | 2026-09-03 00:06:09 | 52.38891 | 21.48225 | 104° | 51km/h | 16373m | 3.9m/s | -51.0°C | 1.0% | 101.6hPa | 0V | 00:00:00 | 00:00:00 | 00:00:00 | |
| KRY50SP | 2026-09-03 00:06:04 | 52.38905 | 21.48119 | 105° | 47km/h | 16346m | 4.3m/s | -51.1°C | 1.0% | 102.0hPa | 0V | 00:00:00 | 00:00:00 | 00:00:00 | |
| KRY50SP | 2026-09-03 00:05:59 | 52.38918 | 21.48035 | 105° | 42km/h | 16317m | 4.4m/s | -51.1°C | 1.1% | 102.4hPa | 0V | 00:00:00 | 00:00:00 | 00:00:00 | |
| SP4MAZ | 2026-09-03 00:05:56 | 52.38921 | 21.47983 | 101° | 46km/h | 16304m | 3.6m/s | -51.1°C | 1.1% | 102.7hPa | 0V | 00:00:00 | 00:00:00 | 00:00:00 | |
| KRY50SP | 2026-09-03 00:05:53 | 52.38927 | 21.47923 | 105° | 51km/h | 16289m | 3.5m/s | -51.1°C | 1.1% | 102.9hPa | 0V | 00:00:00 | 00:00:00 | 00:00:00 | |
| KRY50SP | 2026-09-03 00:05:48 | 52.38940 | 21.47837 | 104° | 37km/h | 16268m | 5.0m/s | -51.2°C | 1.1% | 103.3hPa | 0V | 00:00:00 | 00:00:00 | 00:00:00 | |
| KRY50SP | 2026-09-03 00:05:42 | 52.38946 | 21.47742 | 96° | 40km/h | 16239m | 5.0m/s | -51.2°C | 1.1% | 103.9hPa | 0V | 00:00:00 | 00:00:00 | 00:00:00 | |
| SP4MAZ | 2026-09-03 00:05:36 | 52.38961 | 21.47634 | 102° | 40km/h | 16204m | 6.1m/s | -51.0°C | 1.1% | 104.3hPa | 0V | 00:00:00 | 00:00:00 | 00:00:00 | |
| KRY50SP | 2026-09-03 00:05:30 | 52.38967 | 21.47557 | 103° | 27km/h | 16168m | 4.4m/s | -50.9°C | 1.1% | 104.9hPa | 0V | 00:00:00 | 00:00:00 | 00:00:00 | |
| KRY50SP | 2026-09-03 00:05:24 | 52.38969 | 21.47476 | 102° | 40km/h | 16132m | 5.0m/s | -50.9°C | 1.1% | 105.4hPa | 0V | 00:00:00 | 00:00:00 | 00:00:00 | |
| KRY50SP | 2026-09-03 00:05:19 | 52.38972 | 21.47406 | 96° | 31km/h | 16106m | 5.2m/s | -50.9°C | 1.1% | 105.8hPa | 0V | 00:00:00 | 00:00:00 | 00:00:00 | |
| KRY50SP | 2026-09-03 00:05:14 | 52.38977 | 21.47328 | 107° | 35km/h | 16078m | 5.5m/s | -50.8°C | 1.1% | 106.4hPa | 0V | 00:00:00 | 00:00:00 | 00:00:00 | |
| KRY50SP | 2026-09-03 00:05:08 | 52.38988 | 21.47261 | 101° | 31km/h | 16051m | 4.0m/s | -50.7°C | 1.1% | 106.8hPa | 0V | 00:00:00 | 00:00:00 | 00:00:00 | |
| SP4MAZ | 2026-09-03 00:05:05 | 52.38990 | 21.47221 | 96° | 33km/h | 16037m | 3.5m/s | -50.6°C | 1.1% | 107.0hPa | 0V | 00:00:00 | 00:00:00 | 00:00:00 | |
| KRY50SP | 2026-09-03 00:04:57 | 52.38999 | 21.47096 | 104° | 42km/h | 15996m | 2.6m/s | -50.5°C | 1.1% | 107.7hPa | 0V | 00:00:00 | 00:00:00 | 00:00:00 | |
| KRY50SP | 2026-09-03 00:04:52 | 52.39005 | 21.47016 | 106° | 37km/h | 15983m | 4.1m/s | -50.5°C | 1.1% | 108.2hPa | 0V | 00:00:00 | 00:00:00 | 00:00:00 | |
| KRY50SP | 2026-09-03 00:04:48 | 52.39000 | 21.46939 | 141° | 68km/h | 15956m | 13.6m/s | -50.3°C | 1.1% | 108.7hPa | 0V | 00:00:00 | 00:00:00 | 00:00:00 | |
| SP4MAZ | 2026-09-03 00:04:44 | 52.39022 | 21.46878 | 125° | 46km/h | 15919m | 7.0m/s | -50.2°C | 1.1% | 109.0hPa | 0V | 00:00:00 | 00:00:00 | 00:00:00 | |
| KRY50SP | 2026-09-03 00:04:41 | 52.39027 | 21.46844 | 101° | 42km/h | 15906m | 6.0m/s | -50.1°C | 1.0% | 109.2hPa | 0V | 00:00:00 | 00:00:00 | 00:00:00 | |
| KRY50SP | 2026-09-03 00:04:35 | 52.39036 | 21.46762 | 96° | 38km/h | 15881m | 6.2m/s | -50.1°C | 1.1% | 109.6hPa | 0V | 00:00:00 | 00:00:00 | 00:00:00 | |
| KRY50SP | 2026-09-03 00:04:30 | 52.39047 | 21.46668 | 100° | 40km/h | 15848m | 4.7m/s | -50.2°C | 1.0% | 110.2hPa | 0V | 00:00:00 | 00:00:00 | 00:00:00 | |
| KRY50SP | 2026-09-03 00:04:24 | 52.39056 | 21.46579 | 99° | 49km/h | 15819m | 4.4m/s | -50.1°C | 1.1% | 110.6hPa | 0V | 00:00:00 | 00:00:00 | 00:00:00 | |
| SP4MAZ | 2026-09-03 00:04:22 | 52.39060 | 21.46539 | 94° | 51km/h | 15809m | 5.9m/s | -50.1°C | 1.0% | 110.8hPa | 0V | 00:00:00 | 00:00:00 | 00:00:00 | |
| KRY50SP | 2026-09-03 00:04:18 | 52.39065 | 21.46457 | 101° | 47km/h | 15786m | 4.3m/s | -50.2°C | 1.1% | 111.2hPa | 0V | 00:00:00 | 00:00:00 | 00:00:00 | |
| KRY50SP | 2026-09-03 00:04:14 | 52.39065 | 21.46367 | 95° | 44km/h | 15758m | 4.6m/s | -50.2°C | 1.1% | 111.6hPa | 0V | 00:00:00 | 00:00:00 | 00:00:00 | |
| KRY50SP | 2026-09-03 00:04:10 | 52.39068 | 21.46256 | 82° | 44km/h | 15738m | 7.1m/s | -50.2°C | 1.0% | 112.2hPa | 0V | 00:00:00 | 00:00:00 | 00:00:00 | |
| KRY50SP | 2026-09-03 00:04:01 | 52.39057 | 21.46146 | 83° | 46km/h | 15697m | 5.5m/s | -50.0°C | 1.0% | 112.8hPa | 0V | 00:00:00 | 00:00:00 | 00:00:00 | |
| KRY50SP | 2026-09-03 00:03:55 | 52.39037 | 21.46036 | 72° | 46km/h | 15631m | 7.0m/s | -50.1°C | 1.1% | 113.3hPa | 0V | 00:00:00 | 00:00:00 | 00:00:00 | |
| SP4MAZ | 2026-09-03 00:03:50 | 52.39007 | 21.45944 | 94° | 40km/h | 15568m | 0.8m/s | -50.1°C | 1.0% | 113.7hPa | 0V | 00:00:00 | 00:00:00 | 00:00:00 | |
| KRY50SP | 2026-09-03 00:03:49 | 52.39007 | 21.45929 | 83° | 33km/h | 15565m | 4.3m/s | -50.0°C | 1.0% | 113.8hPa | 0V | 00:00:00 | 00:00:00 | 00:00:00 | |
| KRY50SP | 2026-09-03 00:03:43 | 52.38980 | 21.45835 | 102° | 40km/h | 15487m | 3.6m/s | -50.0°C | 1.0% | 114.3hPa | 0V | 00:00:00 | 00:00:00 | 00:00:00 | |
| KRY50SP | 2026-09-03 00:03:40 | 52.38988 | 21.45755 | 99° | 33km/h | 15473m | 2.5m/s | -49.9°C | 1.0% | 114.8hPa | 0V | 00:00:00 | 00:00:00 | 00:00:00 | |
| KRY50SP | 2026-09-03 00:03:32 | 52.39001 | 21.45679 | 109° | 33km/h | 15453m | 3.4m/s | -49.7°C | 1.0% | 115.3hPa | 0V | 00:00:00 | 00:00:00 | 00:00:00 | |
| SP4MAZ | 2026-09-03 00:03:27 | 52.39021 | 21.45612 | 102° | 35km/h | 15455m | 2.5m/s | -49.6°C | 1.0% | 115.8hPa | 0V | 00:00:00 | 00:00:00 | 00:00:00 | |
| KRY50SP | 2026-09-03 00:03:26 | 52.39023 | 21.45599 | 107° | 35km/h | 15454m | 3.9m/s | -49.6°C | 1.0% | 115.8hPa | 0V | 00:00:00 | 00:00:00 | 00:00:00 | |
| KRY50SP | 2026-09-03 00:03:20 | 52.39044 | 21.45518 | 116° | 37km/h | 15436m | 1.9m/s | -49.4°C | 1.0% | 116.4hPa | 0V | 00:00:00 | 00:00:00 | 00:00:00 | |
| KRY50SP | 2026-09-03 00:03:14 | 52.39091 | 21.45443 | 106° | 33km/h | 15458m | 6.8m/s | -49.6°C | 1.0% | 117.0hPa | 0V | 00:00:00 | 00:00:00 | 00:00:00 | |
| KRY50SP | 2026-09-03 00:03:09 | 52.39096 | 21.45375 | 106° | 38km/h | 15432m | 5.1m/s | -49.6°C | 1.0% | 117.5hPa | 0V | 00:00:00 | 00:00:00 | 00:00:00 | |
| KRY50SP | 2026-09-03 00:02:59 | 52.39245 | 21.44617 | 101° | 53km/h | 15210m | 4.2m/s | -49.4°C | 1.0% | 121.4hPa | 0V | 00:00:00 | 00:00:00 | 00:00:00 | |
| KRY50SP | 2026-09-03 00:02:52 | 52.39252 | 21.44508 | 98° | 55km/h | 15184m | 5.5m/s | -49.4°C | 1.0% | 121.9hPa | 0V | 00:00:00 | 00:00:00 | 00:00:00 | |
| KRY50SP | 2026-09-03 00:02:42 | 52.39265 | 21.44378 | 106° | 53km/h | 15147m | 5.7m/s | -49.7°C | 1.0% | 122.5hPa | 0V | 00:00:00 | 00:00:00 | 00:00:00 | |
| SP4MAZ | 2026-09-03 00:02:37 | 52.39277 | 21.44295 | 115° | 53km/h | 15123m | 5.1m/s | -49.6°C | 1.0% | 122.9hPa | 0V | 00:00:00 | 00:00:00 | 00:00:00 | |
| KRY50SP | 2026-09-03 00:02:34 | 52.39289 | 21.44252 | 109° | 55km/h | 15114m | 3.8m/s | -49.6°C | 1.1% | 123.1hPa | 0V | 00:00:00 | 00:00:00 | 00:00:00 | |
| KRY50SP | 2026-09-03 00:02:28 | 52.39310 | 21.44118 | 97° | 57km/h | 15086m | 5.5m/s | -49.7°C | 1.0% | 123.7hPa | 0V | 00:00:00 | 00:00:00 | 00:00:00 | |
| KRY50SP | 2026-09-03 00:02:20 | 52.39321 | 21.44003 | 101° | 60km/h | 15059m | 5.2m/s | -49.7°C | 1.0% | 124.2hPa | 0V | 00:00:00 | 00:00:00 | 00:00:00 | |
| KRY50SP | 2026-09-03 00:02:13 | 52.39333 | 21.43881 | 93° | 60km/h | 15034m | 4.6m/s | -49.6°C | 1.0% | 124.7hPa | 0V | 00:00:00 | 00:00:00 | 00:00:00 | |
| SP4MAZ | 2026-09-03 00:02:10 | 52.39336 | 21.43807 | 93° | 58km/h | 15019m | 3.0m/s | -49.5°C | 1.1% | 125.0hPa | 0V | 00:00:00 | 00:00:00 | 00:00:00 | |
| KRY50SP | 2026-09-03 00:02:05 | 52.39339 | 21.43734 | 97° | 57km/h | 15005m | 4.6m/s | -49.5°C | 1.0% | 125.2hPa | 0V | 00:00:00 | 00:00:00 | 00:00:00 | |
| KRY50SP | 2026-09-03 00:01:57 | 52.39353 | 21.43602 | 99° | 53km/h | 14975m | 5.6m/s | -49.6°C | 1.1% | 125.9hPa | 0V | 00:00:00 | 00:00:00 | 00:00:00 | |
| KRY50SP | 2026-09-03 00:01:53 | 52.39364 | 21.43486 | 100° | 55km/h | 14947m | 5.6m/s | -49.6°C | 1.1% | 126.4hPa | 0V | 00:00:00 | 00:00:00 | 00:00:00 | |
| KRY50SP | 2026-09-03 00:01:48 | 52.39379 | 21.43373 | 107° | 53km/h | 14920m | 4.8m/s | -49.7°C | 1.0% | 126.9hPa | 0V | 00:00:00 | 00:00:00 | 00:00:00 | |
| KRY50SP | 2026-09-03 00:01:42 | 52.39392 | 21.43264 | 100° | 53km/h | 14893m | 4.6m/s | -49.6°C | 1.1% | 127.4hPa | 0V | 00:00:00 | 00:00:00 | 00:00:00 | |
| SP4MAZ | 2026-09-03 00:01:35 | 52.39404 | 21.43138 | 105° | 49km/h | 14861m | 4.4m/s | -49.6°C | 1.1% | 128.0hPa | 0V | 00:00:00 | 00:00:00 | 00:00:00 | |
| KRY50SP | 2026-09-03 00:01:34 | 52.39404 | 21.43138 | 105° | 49km/h | 14861m | 4.4m/s | -49.6°C | 1.1% | 128.0hPa | 0V | 00:00:00 | 00:00:00 | 00:00:00 | |
| KRY50SP | 2026-09-03 00:01:27 | 52.39421 | 21.43017 | 102° | 49km/h | 14834m | 5.2m/s | -50.1°C | 1.1% | 128.7hPa | 0V | 00:00:00 | 00:00:00 | 00:00:00 | |
| KRY50SP | 2026-09-03 00:01:21 | 52.39437 | 21.42912 | 107° | 57km/h | 14814m | 5.3m/s | -50.2°C | 1.1% | 129.1hPa | 0V | 00:00:00 | 00:00:00 | 00:00:00 | |
| KRY50SP | 2026-09-03 00:01:12 | 52.39454 | 21.42777 | 101° | 57km/h | 14792m | 5.0m/s | -50.1°C | 1.1% | 129.8hPa | 0V | 00:00:00 | 00:00:00 | 00:00:00 | |
| SP4MAZ | 2026-09-03 00:01:07 | 52.39462 | 21.42688 | 101° | 57km/h | 14778m | 7.9m/s | -50.2°C | 1.1% | 130.2hPa | 0V | 00:00:00 | 00:00:00 | 00:00:00 | |
| KRY50SP | 2026-09-03 00:01:06 | 52.39462 | 21.42666 | 103° | 57km/h | 14774m | 7.6m/s | -50.3°C | 1.1% | 130.3hPa | 0V | 00:00:00 | 00:00:00 | 00:00:00 | |
| KRY50SP | 2026-09-03 00:00:56 | 52.39485 | 21.42530 | 95° | 57km/h | 14721m | 5.9m/s | -50.4°C | 1.1% | 130.9hPa | 0V | 00:00:00 | 00:00:00 | 00:00:00 | |
| KRY50SP | 2026-09-03 00:00:50 | 52.39491 | 21.42397 | 106° | 49km/h | 14684m | 6.0m/s | -50.4°C | 1.1% | 131.5hPa | 0V | 00:00:00 | 00:00:00 | 00:00:00 | |
| KRY50SP | 2026-09-03 00:00:48 | 52.39504 | 21.42270 | 98° | 46km/h | 14649m | 4.0m/s | -50.4°C | 1.1% | 132.1hPa | 0V | 00:00:00 | 00:00:00 | 00:00:00 | |
| KRY50SP | 2026-09-03 00:00:45 | 52.39512 | 21.42178 | 103° | 42km/h | 14618m | 3.6m/s | -50.4°C | 1.1% | 132.7hPa | 0V | 00:00:00 | 00:00:00 | 00:00:00 | |
| KRY50SP | 2026-09-03 00:00:38 | 52.39522 | 21.42059 | 100° | 55km/h | 14594m | 3.4m/s | -50.4°C | 1.2% | 133.4hPa | 0V | 00:00:00 | 00:00:00 | 00:00:00 | |
| KRY50SP | 2026-09-03 00:00:31 | 52.39535 | 21.41952 | 96° | 38km/h | 14568m | 5.7m/s | -50.4°C | 1.2% | 134.0hPa | 0V | 00:00:00 | 00:00:00 | 00:00:00 | |
| KRY50SP | 2026-09-03 00:00:25 | 52.39542 | 21.41862 | 97° | 49km/h | 14540m | 5.0m/s | -50.4°C | 1.2% | 134.5hPa | 0V | 00:00:00 | 00:00:00 | 00:00:00 | |
| SP4MAZ | 2026-09-03 00:00:19 | 52.39545 | 21.41782 | 95° | 44km/h | 14519m | 4.1m/s | -50.3°C | 1.2% | 134.9hPa | 0V | 00:00:00 | 00:00:00 | 00:00:00 | |
| KRY50SP | 2026-09-03 00:00:17 | 52.39547 | 21.41745 | 96° | 44km/h | 14511m | 5.0m/s | -50.3°C | 1.2% | 135.1hPa | 0V | 00:00:00 | 00:00:00 | 00:00:00 | |
| KRY50SP | 2026-09-03 00:00:11 | 52.39551 | 21.41658 | 93° | 42km/h | 14486m | 4.2m/s | -50.2°C | 1.2% | 135.7hPa | 0V | 00:00:00 | 00:00:00 | 00:00:00 | |
| KRY50SP | 2026-09-03 00:00:05 | 52.39557 | 21.41550 | 96° | 49km/h | 14456m | 4.6m/s | -50.1°C | 1.2% | 136.3hPa | 0V | 00:00:00 | 00:00:00 | 00:00:00 | |
| KRY50SP | 2026-09-02 23:59:59 | 52.39562 | 21.41446 | 95° | 47km/h | 14432m | 4.5m/s | -49.9°C | 1.2% | 136.9hPa | 0V | 00:00:00 | 00:00:00 | 00:00:00 | |
| KRY50SP | 2026-09-02 23:59:54 | 52.39571 | 21.41342 | 105° | 44km/h | 14406m | 5.5m/s | -49.6°C | 1.2% | 137.4hPa | 0V | 00:00:00 | 00:00:00 | 00:00:00 | |
| KRY50SP | 2026-09-02 23:59:47 | 52.39588 | 21.41223 | 107° | 51km/h | 14376m | 5.7m/s | -49.4°C | 1.2% | 138.1hPa | 0V | 00:00:00 | 00:00:00 | 00:00:00 | |
| SP4MAZ | 2026-09-02 23:59:46 | 52.39592 | 21.41203 | 109° | 49km/h | 14370m | 3.3m/s | -49.4°C | 1.2% | 138.2hPa | 0V | 00:00:00 | 00:00:00 | 00:00:00 | |
| KRY50SP | 2026-09-02 23:59:41 | 52.39605 | 21.41109 | 109° | 46km/h | 14340m | 3.8m/s | -49.5°C | 1.1% | 138.7hPa | 0V | 00:00:00 | 00:00:00 | 00:00:00 | |
| KRY50SP | 2026-09-02 23:59:35 | 52.39629 | 21.40992 | 106° | 53km/h | 14316m | 4.8m/s | -49.5°C | 1.2% | 139.4hPa | 0V | 00:00:00 | 00:00:00 | 00:00:00 | |
| KRY50SP | 2026-09-02 23:59:29 | 52.39648 | 21.40864 | 102° | 51km/h | 14286m | 3.8m/s | -49.4°C | 1.2% | 140.0hPa | 0V | 00:00:00 | 00:00:00 | 00:00:00 | |
| KRY50SP | 2026-09-02 23:59:24 | 52.39666 | 21.40755 | 108° | 57km/h | 14258m | 4.3m/s | -49.4°C | 1.2% | 140.5hPa | 0V | 00:00:00 | 00:00:00 | 00:00:00 | |
| SP4MAZ | 2026-09-02 23:59:22 | 52.39673 | 21.40712 | 106° | 55km/h | 14248m | 3.4m/s | -49.4°C | 1.2% | 140.7hPa | 0V | 00:00:00 | 00:00:00 | 00:00:00 | |
| KRY50SP | 2026-09-02 23:59:18 | 52.39686 | 21.40622 | 102° | 58km/h | 14227m | 6.1m/s | -49.6°C | 1.2% | 141.1hPa | 0V | 00:00:00 | 00:00:00 | 00:00:00 | |
| KRY50SP | 2026-09-02 23:59:12 | 52.39699 | 21.40492 | 99° | 53km/h | 14198m | 3.5m/s | -49.8°C | 1.2% | 141.8hPa | 0V | 00:00:00 | 00:00:00 | 00:00:00 | |
| KRY50SP | 2026-09-02 23:59:07 | 52.39705 | 21.40388 | 94° | 51km/h | 14172m | 5.4m/s | -49.8°C | 1.2% | 142.3hPa | 0V | 00:00:00 | 00:00:00 | 00:00:00 | |
| KRY50SP | 2026-09-02 23:59:01 | 52.39703 | 21.40257 | 83° | 53km/h | 14142m | 4.4m/s | -49.7°C | 1.2% | 142.9hPa | 0V | 00:00:00 | 00:00:00 | 00:00:00 | |
| KRY50SP | 2026-09-02 23:58:55 | 52.39702 | 21.40134 | 99° | 42km/h | 14119m | 3.8m/s | -49.5°C | 1.2% | 143.5hPa | 0V | 00:00:00 | 00:00:00 | 00:00:00 | |
| SP4MAZ | 2026-09-02 23:58:52 | 52.39704 | 21.40078 | 96° | 49km/h | 14105m | 4.3m/s | -49.6°C | 1.2% | 143.8hPa | 0V | 00:00:00 | 00:00:00 | 00:00:00 | |
| KRY50SP | 2026-09-02 23:58:49 | 52.39708 | 21.40014 | 99° | 57km/h | 14090m | 5.7m/s | -49.5°C | 1.2% | 144.1hPa | 0V | 00:00:00 | 00:00:00 | 00:00:00 | |
| KRY50SP | 2026-09-02 23:58:43 | 52.39714 | 21.39881 | 88° | 46km/h | 14063m | 3.9m/s | -49.5°C | 1.2% | 144.7hPa | 0V | 00:00:00 | 00:00:00 | 00:00:00 | |
| KRY50SP | 2026-09-02 23:58:37 | 52.39713 | 21.39759 | 94° | 47km/h | 14037m | 4.4m/s | -49.5°C | 1.2% | 145.4hPa | 0V | 00:00:00 | 00:00:00 | 00:00:00 | |
| SP4MAZ | 2026-09-02 23:58:31 | 52.39718 | 21.39644 | 97° | 51km/h | 14008m | 4.1m/s | -49.4°C | 1.2% | 146.0hPa | 0V | 00:00:00 | 00:00:00 | 00:00:00 | |
| KRY50SP | 2026-09-02 23:58:26 | 52.39726 | 21.39542 | 98° | 46km/h | 13983m | 3.9m/s | -49.2°C | 1.2% | 146.6hPa | 0V | 00:00:00 | 00:00:00 | 00:00:00 | |
| KRY50SP | 2026-09-02 23:58:21 | 52.39736 | 21.39439 | 96° | 58km/h | 13958m | 5.1m/s | -49.1°C | 1.2% | 147.1hPa | 0V | 00:00:00 | 00:00:00 | 00:00:00 | |
| KRY50SP | 2026-09-02 23:58:10 | 52.39758 | 21.39206 | 90° | 51km/h | 13904m | 3.3m/s | -49.2°C | 1.2% | 148.3hPa | 0V | 00:00:00 | 00:00:00 | 00:00:00 | |
| SP4MAZ | 2026-09-02 23:58:08 | 52.39761 | 21.39159 | 102° | 60km/h | 13895m | 4.9m/s | -49.2°C | 1.2% | 148.5hPa | 0V | 00:00:00 | 00:00:00 | 00:00:00 | |
| KRY50SP | 2026-09-02 23:58:04 | 52.39775 | 21.39058 | 102° | 57km/h | 13877m | 4.5m/s | -49.3°C | 1.2% | 148.9hPa | 0V | 00:00:00 | 00:00:00 | 00:00:00 | |
| KRY50SP | 2026-09-02 23:57:59 | 52.39791 | 21.38950 | 100° | 49km/h | 13849m | 3.9m/s | -49.5°C | 1.2% | 149.4hPa | 0V | 00:00:00 | 00:00:00 | 00:00:00 | |
| KRY50SP | 2026-09-02 23:57:53 | 52.39809 | 21.38833 | 110° | 49km/h | 13821m | 4.3m/s | -49.7°C | 1.3% | 150.2hPa | 0V | 00:00:00 | 00:00:00 | 00:00:00 | |
| SP4MAZ | 2026-09-02 23:57:47 | 52.39829 | 21.38718 | 100° | 49km/h | 13793m | 4.0m/s | -49.7°C | 1.3% | 150.8hPa | 0V | 00:00:00 | 00:00:00 | 00:00:00 | |
| KRY50SP | 2026-09-02 23:57:43 | 52.39844 | 21.38615 | 104° | 49km/h | 13769m | 6.4m/s | -49.7°C | 1.3% | 151.4hPa | 0V | 00:00:00 | 00:00:00 | 00:00:00 | |
| KRY50SP | 2026-09-02 23:57:37 | 52.39859 | 21.38516 | 106° | 49km/h | 13745m | 5.8m/s | -49.5°C | 1.2% | 152.0hPa | 0V | 00:00:00 | 00:00:00 | 00:00:00 | |
| KRY50SP | 2026-09-02 23:57:31 | 52.39872 | 21.38404 | 99° | 42km/h | 13716m | 3.8m/s | -49.3°C | 1.2% | 152.7hPa | 0V | 00:00:00 | 00:00:00 | 00:00:00 | |
| KRY50SP | 2026-09-02 23:57:26 | 52.39884 | 21.38314 | 109° | 44km/h | 13688m | 6.0m/s | -49.2°C | 1.2% | 153.3hPa | 0V | 00:00:00 | 00:00:00 | 00:00:00 | |
| KRY50SP | 2026-09-02 23:57:20 | 52.39903 | 21.38206 | 111° | 44km/h | 13659m | 4.2m/s | -49.1°C | 1.2% | 154.0hPa | 0V | 00:00:00 | 00:00:00 | 00:00:00 | |
| KRY50SP | 2026-09-02 23:57:14 | 52.39919 | 21.38108 | 103° | 38km/h | 13629m | 5.6m/s | -49.2°C | 1.2% | 154.7hPa | 0V | 00:00:00 | 00:00:00 | 00:00:00 | |
| KRY50SP | 2026-09-02 23:57:08 | 52.39936 | 21.38015 | 109° | 38km/h | 13600m | 4.9m/s | -49.2°C | 1.3% | 155.4hPa | 0V | 00:00:00 | 00:00:00 | 00:00:00 | |
| KRY50SP | 2026-09-02 23:57:03 | 52.39950 | 21.37937 | 110° | 44km/h | 13579m | 5.1m/s | -49.3°C | 1.3% | 155.9hPa | 0V | 00:00:00 | 00:00:00 | 00:00:00 | |
| KRY50SP | 2026-09-02 23:56:57 | 52.39973 | 21.37839 | 116° | 38km/h | 13547m | 4.2m/s | -49.6°C | 1.3% | 156.7hPa | 0V | 00:00:00 | 00:00:00 | 00:00:00 | |
| KRY50SP | 2026-09-02 23:56:52 | 52.39997 | 21.37766 | 121° | 46km/h | 13520m | 3.1m/s | -49.5°C | 1.3% | 157.3hPa | 0V | 00:00:00 | 00:00:00 | 00:00:00 | |
| KRY50SP | 2026-09-02 23:56:46 | 52.40031 | 21.37668 | 116° | 44km/h | 13487m | 5.4m/s | -49.4°C | 1.3% | 158.1hPa | 0V | 00:00:00 | 00:00:00 | 00:00:00 | |
| KRY50SP | 2026-09-02 23:56:40 | 52.40060 | 21.37564 | 112° | 44km/h | 13460m | 4.1m/s | -49.5°C | 1.3% | 158.8hPa | 0V | 00:00:00 | 00:00:00 | 00:00:00 | |
| SP4MAZ | 2026-09-02 23:56:33 | 52.40089 | 21.37437 | 107° | 49km/h | 13428m | 6.3m/s | -49.4°C | 1.3% | 159.7hPa | 0V | 00:00:00 | 00:00:00 | 00:00:00 | |
| KRY50SP | 2026-09-02 23:56:28 | 52.40105 | 21.37336 | 105° | 55km/h | 13401m | 6.4m/s | -49.4°C | 1.3% | 160.3hPa | 0V | 00:00:00 | 00:00:00 | 00:00:00 | |
| KRY50SP | 2026-09-02 23:56:22 | 52.40126 | 21.37206 | 106° | 57km/h | 13367m | 4.4m/s | -49.3°C | 1.3% | 161.1hPa | 0V | 00:00:00 | 00:00:00 | 00:00:00 | |
| KRY50SP | 2026-09-02 23:56:18 | 52.40143 | 21.37092 | 103° | 58km/h | 13343m | 4.6m/s | -49.7°C | 1.3% | 161.7hPa | 0V | 00:00:00 | 00:00:00 | 00:00:00 | |
| SP4MAZ | 2026-09-02 23:56:12 | 52.40155 | 21.36969 | 99° | 60km/h | 13315m | 3.7m/s | -49.7°C | 1.3% | 162.3hPa | 0V | 00:00:00 | 00:00:00 | 00:00:00 | |
| KRY50SP | 2026-09-02 23:56:11 | 52.40157 | 21.36944 | 98° | 60km/h | 13311m | 6.2m/s | -49.7°C | 1.3% | 162.4hPa | 0V | 00:00:00 | 00:00:00 | 00:00:00 | |
| KRY50SP | 2026-09-02 23:56:05 | 52.40173 | 21.36797 | 105° | 58km/h | 13277m | 5.5m/s | -49.6°C | 1.3% | 163.2hPa | 0V | 00:00:00 | 00:00:00 | 00:00:00 | |
| KRY50SP | 2026-09-02 23:55:59 | 52.40193 | 21.36651 | 102° | 57km/h | 13246m | 4.9m/s | -49.5°C | 1.3% | 164.0hPa | 0V | 00:00:00 | 00:00:00 | 00:00:00 | |
| KRY50SP | 2026-09-02 23:55:53 | 52.40212 | 21.36518 | 105° | 57km/h | 13213m | 4.9m/s | -49.6°C | 1.3% | 164.7hPa | 0V | 00:00:00 | 00:00:00 | 00:00:00 | |
| KRY50SP | 2026-09-02 23:55:48 | 52.40232 | 21.36411 | 110° | 55km/h | 13191m | 5.1m/s | -49.5°C | 1.3% | 165.4hPa | 0V | 00:00:00 | 00:00:00 | 00:00:00 | |
| KRY50SP | 2026-09-02 23:55:43 | 52.40260 | 21.36277 | 109° | 58km/h | 13160m | 5.2m/s | -49.5°C | 1.3% | 166.1hPa | 0V | 00:00:00 | 00:00:00 | 00:00:00 | |
| SP4MAZ | 2026-09-02 23:55:41 | 52.40264 | 21.36255 | 111° | 57km/h | 13154m | 6.4m/s | -49.5°C | 0% | 166.3hPa | 0V | 00:00:00 | 00:00:00 | 00:00:00 | |
| KRY50SP | 2026-09-02 23:55:36 | 52.40285 | 21.36145 | 110° | 55km/h | 13127m | 4.3m/s | -49.6°C | 1.3% | 167.0hPa | 0V | 00:00:00 | 00:00:00 | 00:00:00 | |
| KRY50SP | 2026-09-02 23:55:24 | 52.40338 | 21.35860 | 105° | 55km/h | 13067m | 5.4m/s | -49.5°C | 1.3% | 168.4hPa | 0V | 00:00:00 | 00:00:00 | 00:00:00 | |
| SP4MAZ | 2026-09-02 23:55:20 | 52.40353 | 21.35771 | 109° | 58km/h | 13050m | 2.8m/s | -49.5°C | 0% | 168.9hPa | 0V | 00:00:00 | 00:00:00 | 00:00:00 | |
| KRY50SP | 2026-09-02 23:55:19 | 52.40357 | 21.35748 | 107° | 60km/h | 13046m | 4.5m/s | -49.5°C | 1.3% | 169.0hPa | 0V | 00:00:00 | 00:00:00 | 00:00:00 | |
| KRY50SP | 2026-09-02 23:55:13 | 52.40375 | 21.35596 | 102° | 60km/h | 13016m | 5.8m/s | -49.5°C | 1.4% | 169.8hPa | 0V | 00:00:00 | 00:00:00 | 00:00:00 | |
| KRY50SP | 2026-09-02 23:55:07 | 52.40388 | 21.35456 | 97° | 58km/h | 12991m | 4.1m/s | -49.8°C | 1.4% | 170.6hPa | 0V | 00:00:00 | 00:00:00 | 00:00:00 | |
| KRY50SP | 2026-09-02 23:55:01 | 52.40406 | 21.35297 | 105° | 66km/h | 12959m | 5.4m/s | -49.8°C | 1.4% | 171.3hPa | 0V | 00:00:00 | 00:00:00 | 00:00:00 | |
| KRY50SP | 2026-09-02 23:54:56 | 52.40419 | 21.35171 | 99° | 57km/h | 12931m | 6.2m/s | -49.6°C | 1.4% | 172.0hPa | 0V | 00:00:00 | 00:00:00 | 00:00:00 | |
| SP4MAZ | 2026-09-02 23:54:54 | 52.40421 | 21.35124 | 94° | 57km/h | 12920m | 7.2m/s | -49.6°C | 0% | 172.3hPa | 0V | 00:00:00 | 00:00:00 | 00:00:00 | |
| KRY50SP | 2026-09-02 23:54:49 | 52.40432 | 21.35003 | 95° | 62km/h | 12891m | 5.7m/s | -49.5°C | 1.4% | 172.9hPa | 0V | 00:00:00 | 00:00:00 | 00:00:00 | |
| KRY50SP | 2026-09-02 23:54:44 | 52.40436 | 21.34880 | 107° | 57km/h | 12858m | 4.1m/s | -49.5°C | 1.4% | 173.5hPa | 0V | 00:00:00 | 00:00:00 | 00:00:00 | |
| KRY50SP | 2026-09-02 23:54:38 | 52.40446 | 21.34736 | 101° | 60km/h | 12813m | 4.1m/s | -49.7°C | 1.4% | 174.3hPa | 0V | 00:00:00 | 00:00:00 | 00:00:00 | |
| KRY50SP | 2026-09-02 23:54:32 | 52.40462 | 21.34596 | 100° | 53km/h | 12788m | 5.5m/s | -49.9°C | 1.5% | 175.0hPa | 0V | 00:00:00 | 00:00:00 | 00:00:00 | |
| KRY50SP | 2026-09-02 23:54:26 | 52.40487 | 21.34464 | 102° | 58km/h | 12772m | 5.0m/s | -50.0°C | 1.5% | 175.9hPa | 0V | 00:00:00 | 00:00:00 | 00:00:00 | |
| KRY50SP | 2026-09-02 23:54:20 | 52.40503 | 21.34325 | 100° | 58km/h | 12742m | 5.6m/s | -50.0°C | 1.5% | 176.6hPa | 0V | 00:00:00 | 00:00:00 | 00:00:00 | |
| KRY50SP | 2026-09-02 23:54:14 | 52.40524 | 21.34176 | 94° | 55km/h | 12719m | 5.2m/s | -49.9°C | 1.6% | 177.6hPa | 0V | 00:00:00 | 00:00:00 | 00:00:00 | |
| KRY50SP | 2026-09-02 23:54:08 | 52.40533 | 21.34042 | 102° | 60km/h | 12685m | 4.1m/s | -49.8°C | 1.6% | 178.5hPa | 0V | 00:00:00 | 00:00:00 | 00:00:00 | |
| KRY50SP | 2026-09-02 23:54:02 | 52.40550 | 21.33897 | 102° | 53km/h | 12657m | 4.9m/s | -49.8°C | 1.6% | 179.4hPa | 0V | 00:00:00 | 00:00:00 | 00:00:00 | |
| SP4MAZ | 2026-09-02 23:54:01 | 52.40553 | 21.33876 | 105° | 55km/h | 12649m | 5.6m/s | -49.8°C | 0% | 179.6hPa | 0V | 00:00:00 | 00:00:00 | 00:00:00 | |
| KRY50SP | 2026-09-02 23:53:57 | 52.40563 | 21.33784 | 103° | 60km/h | 12625m | 4.2m/s | -49.6°C | 1.6% | 180.1hPa | 0V | 00:00:00 | 00:00:00 | 00:00:00 | |
| KRY50SP | 2026-09-02 23:53:51 | 52.40590 | 21.33643 | 106° | 58km/h | 12596m | 4.9m/s | -49.5°C | 1.7% | 180.9hPa | 0V | 00:00:00 | 00:00:00 | 00:00:00 | |
| KRY50SP | 2026-09-02 23:53:46 | 52.40606 | 21.33520 | 109° | 64km/h | 12575m | 3.9m/s | -49.4°C | 1.7% | 181.6hPa | 0V | 00:00:00 | 00:00:00 | 00:00:00 | |
| KRY50SP | 2026-09-02 23:53:41 | 52.40629 | 21.33398 | 109° | 57km/h | 12553m | 3.0m/s | -49.5°C | 1.7% | 182.2hPa | 0V | 00:00:00 | 00:00:00 | 00:00:00 | |
| KRY50SP | 2026-09-02 23:53:35 | 52.40651 | 21.33262 | 106° | 57km/h | 12521m | 5.5m/s | -49.2°C | 1.7% | 183.1hPa | 0V | 00:00:00 | 00:00:00 | 00:00:00 | |
| KRY50SP | 2026-09-02 23:53:29 | 52.40673 | 21.33130 | 108° | 57km/h | 12494m | 7.1m/s | -49.0°C | 1.7% | 184.0hPa | 0V | 00:00:00 | 00:00:00 | 00:00:00 | |
| KRY50SP | 2026-09-02 23:53:24 | 52.40691 | 21.33016 | 106° | 55km/h | 12466m | 5.8m/s | -49.2°C | 1.7% | 184.6hPa | 0V | 00:00:00 | 00:00:00 | 00:00:00 | |
| SP4MAZ | 2026-09-02 23:53:19 | 52.40713 | 21.32910 | 113° | 53km/h | 12440m | 6.3m/s | -49.1°C | 0% | 185.3hPa | 0V | 00:00:00 | 00:00:00 | 00:00:00 | |
| KRY50SP | 2026-09-02 23:53:17 | 52.40723 | 21.32870 | 113° | 49km/h | 12428m | 4.3m/s | -49.0°C | 1.7% | 185.6hPa | 0V | 00:00:00 | 00:00:00 | 00:00:00 | |
| KRY50SP | 2026-09-02 23:53:12 | 52.40745 | 21.32768 | 110° | 55km/h | 12403m | 5.1m/s | -48.9°C | 1.8% | 186.3hPa | 0V | 00:00:00 | 00:00:00 | 00:00:00 | |
| KRY50SP | 2026-09-02 23:53:07 | 52.40763 | 21.32664 | 104° | 53km/h | 12379m | 4.6m/s | -49.0°C | 1.8% | 186.9hPa | 0V | 00:00:00 | 00:00:00 | 00:00:00 | |
| KRY50SP | 2026-09-02 23:53:01 | 52.40780 | 21.32539 | 102° | 51km/h | 12352m | 5.7m/s | -49.2°C | 1.8% | 187.8hPa | 0V | 00:00:00 | 00:00:00 | 00:00:00 | |
| SP4MAZ | 2026-09-02 23:52:59 | 52.40786 | 21.32498 | 107° | 53km/h | 12343m | 3.9m/s | -49.4°C | 0% | 188.0hPa | 0V | 00:00:00 | 00:00:00 | 00:00:00 | |
| KRY50SP | 2026-09-02 23:52:55 | 52.40799 | 21.32415 | 99° | 49km/h | 12330m | 5.3m/s | -49.4°C | 1.9% | 188.6hPa | 0V | 00:00:00 | 00:00:00 | 00:00:00 | |
| KRY50SP | 2026-09-02 23:52:45 | 52.40816 | 21.32193 | 91° | 51km/h | 12283m | 4.0m/s | 0°C | 0% | 189.9hPa | 0V | 00:00:00 | 00:00:00 | 00:00:00 | |
| KRY50SP | 2026-09-02 23:52:40 | 52.40824 | 21.32075 | 97° | 66km/h | 12259m | 3.7m/s | 0°C | 0% | 190.6hPa | 0V | 00:00:00 | 00:00:00 | 00:00:00 | |
| KRY50SP | 2026-09-02 23:52:35 | 52.40834 | 21.31943 | 90° | 60km/h | 12230m | 4.3m/s | 0°C | 0% | 191.3hPa | 0V | 00:00:00 | 00:00:00 | 00:00:00 | |
| KRY50SP | 2026-09-02 23:52:29 | 52.40832 | 21.31800 | 90° | 58km/h | 12200m | 5.2m/s | 0°C | 0% | 0hPa | 0V | 00:00:00 | 00:00:00 | 00:00:00 | |
| KRY50SP | 2026-09-02 23:52:23 | 52.40836 | 21.31638 | 91° | 64km/h | 12172m | 3.5m/s | 0°C | 0% | 0hPa | 0V | 00:00:00 | 00:00:00 | 00:00:00 | |
| KRY50SP | 2026-09-02 23:52:17 | 52.40828 | 21.31480 | 90° | 68km/h | 12141m | 5.0m/s | 0°C | 0% | 0hPa | 0V | 00:00:00 | 00:00:00 | 00:00:00 | |
| KRY50SP | 2026-09-02 23:52:11 | 52.40825 | 21.31302 | 88° | 66km/h | 12109m | 4.2m/s | 0°C | 0% | 0hPa | 0V | 00:00:00 | 00:00:00 | 00:00:00 | |
| KRY50SP | 2026-09-02 23:52:04 | 52.40808 | 21.31134 | 81° | 62km/h | 12069m | 6.9m/s | 0°C | 0% | 0hPa | 0V | 00:00:00 | 00:00:00 | 00:00:00 | |
| KRY50SP | 2026-09-02 23:51:58 | 52.40804 | 21.30993 | 87° | 58km/h | 12032m | 4.3m/s | 0°C | 0% | 0hPa | 0V | 00:00:00 | 00:00:00 | 00:00:00 | |
| KRY50SP | 2026-09-02 23:51:52 | 52.40803 | 21.30861 | 95° | 47km/h | 11994m | 6.3m/s | 0°C | 0% | 0hPa | 0V | 00:00:00 | 00:00:00 | 00:00:00 | |
| SP4MAZ | 2026-09-02 23:51:51 | 52.40806 | 21.30819 | 99° | 53km/h | 11977m | 6.6m/s | -49.8°C | 0% | 198.9hPa | 0V | 00:00:00 | 00:00:00 | 00:00:00 | |
| KRY50SP | 2026-09-02 23:51:46 | 52.40808 | 21.30728 | 90° | 51km/h | 11951m | 5.0m/s | 0°C | 0% | 0hPa | 0V | 00:00:00 | 00:00:00 | 00:00:00 | |
| KRY50SP | 2026-09-02 23:51:41 | 52.40812 | 21.30632 | 101° | 46km/h | 11929m | 5.2m/s | 0°C | 0% | 0hPa | 0V | 00:00:00 | 00:00:00 | 00:00:00 | |
| KRY50SP | 2026-09-02 23:51:37 | 52.40826 | 21.30527 | 104° | 53km/h | 11899m | 5.7m/s | 0°C | 0% | 0hPa | 0V | 00:00:00 | 00:00:00 | 00:00:00 | |
| KRY50SP | 2026-09-02 23:51:30 | 52.40843 | 21.30404 | 99° | 49km/h | 11869m | 3.8m/s | 0°C | 0% | 0hPa | 0V | 00:00:00 | 00:00:00 | 00:00:00 | |
| KRY50SP | 2026-09-02 23:51:25 | 52.40850 | 21.30293 | 95° | 53km/h | 11849m | 4.4m/s | 0°C | 0% | 0hPa | 0V | 00:00:00 | 00:00:00 | 00:00:00 | |
| KRY50SP | 2026-09-02 23:51:20 | 52.40857 | 21.30180 | 94° | 55km/h | 11824m | 4.8m/s | 0°C | 0% | 0hPa | 0V | 00:00:00 | 00:00:00 | 00:00:00 | |
| KRY50SP | 2026-09-02 23:51:14 | 52.40859 | 21.30047 | 92° | 49km/h | 11792m | 7.4m/s | 0°C | 0% | 0hPa | 0V | 00:00:00 | 00:00:00 | 00:00:00 | |
| SP4MAZ | 2026-09-02 23:51:11 | 52.40864 | 21.29989 | 104° | 47km/h | 11772m | 5.5m/s | -49.9°C | 0% | 205.4hPa | 0V | 00:00:00 | 00:00:00 | 00:00:00 | |
| KRY50SP | 2026-09-02 23:51:09 | 52.40869 | 21.29949 | 101° | 49km/h | 11760m | 5.3m/s | 0°C | 0% | 0hPa | 0V | 00:00:00 | 00:00:00 | 00:00:00 | |
| KRY50SP | 2026-09-02 23:51:04 | 52.40883 | 21.29842 | 100° | 53km/h | 11733m | 6.0m/s | 0°C | 0% | 0hPa | 0V | 00:00:00 | 00:00:00 | 00:00:00 | |
| KRY50SP | 2026-09-02 23:50:58 | 52.40890 | 21.29715 | 94° | 44km/h | 11703m | 7.2m/s | 0°C | 0% | 0hPa | 0V | 00:00:00 | 00:00:00 | 00:00:00 | |
| KRY50SP | 2026-09-02 23:50:51 | 52.40912 | 21.29577 | 104° | 53km/h | 11668m | 7.8m/s | 0°C | 0% | 0hPa | 0V | 00:00:00 | 00:00:00 | 00:00:00 | |
| KRY50SP | 2026-09-02 23:50:43 | 52.40933 | 21.29426 | 110° | 44km/h | 11613m | 5.4m/s | 0°C | 0% | 0hPa | 0V | 00:00:00 | 00:00:00 | 00:00:00 | |
| SP4MAZ | 2026-09-02 23:50:31 | 52.40944 | 21.29177 | 93° | 47km/h | 11544m | 5.2m/s | -50.8°C | 0% | 212.7hPa | 0V | 00:00:00 | 00:00:00 | 00:00:00 | |
| SP4MAZ | 2026-09-02 23:50:09 | 52.40979 | 21.28762 | 98° | 49km/h | 11430m | 4.8m/s | -51.0°C | 0% | 216.3hPa | 0V | 00:00:00 | 00:00:00 | 00:00:00 | |
| SP4MAZ | 2026-09-02 23:49:38 | 52.40965 | 21.28135 | 80° | 46km/h | 11273m | 4.2m/s | -52.2°C | 0% | 221.4hPa | 0V | 00:00:00 | 00:00:00 | 00:00:00 | |
| SP4MAZ | 2026-09-02 23:49:15 | 52.40941 | 21.27713 | 101° | 46km/h | 11154m | 5.0m/s | -52.8°C | 0% | 225.8hPa | 0V | 00:00:00 | 00:00:00 | 00:00:00 | |
| SP4MAZ | 2026-09-02 23:48:55 | 52.41008 | 21.27331 | 98° | 47km/h | 11023m | 5.5m/s | -53.2°C | 0% | 230.3hPa | 0V | 00:00:00 | 00:00:00 | 00:00:00 | |
| SP4MAZ | 2026-09-02 23:48:23 | 52.41079 | 21.26656 | 100° | 60km/h | 10862m | 5.4m/s | -54.4°C | 0% | 236.1hPa | 0V | 00:00:00 | 00:00:00 | 00:00:00 | |
| SP4MAZ | 2026-09-02 23:48:00 | 52.41115 | 21.26149 | 100° | 57km/h | 10733m | 3.8m/s | -54.2°C | 0% | 240.9hPa | 0V | 00:00:00 | 00:00:00 | 00:00:00 | |
| SP4MAZ | 2026-09-02 23:47:39 | 52.41134 | 21.25748 | 104° | 44km/h | 10620m | 8.1m/s | -54.0°C | 0% | 245.4hPa | 0V | 00:00:00 | 00:00:00 | 00:00:00 | |
| SP4MAZ | 2026-09-02 23:47:08 | 52.41098 | 21.25094 | 80° | 57km/h | 10438m | 5.0m/s | -53.5°C | 0% | 252.1hPa | 0V | 00:00:00 | 00:00:00 | 00:00:00 | |
| SP4MAZ | 2026-09-02 23:46:48 | 52.41014 | 21.24712 | 65° | 40km/h | 10326m | 3.5m/s | -52.7°C | 0% | 256.7hPa | 0V | 00:00:00 | 00:00:00 | 00:00:00 | |
| SP4MAZ | 2026-09-02 23:46:26 | 52.40946 | 21.24314 | 70° | 44km/h | 10197m | 6.4m/s | -52.2°C | 0% | 261.5hPa | 0V | 00:00:00 | 00:00:00 | 00:00:00 | |
| SP4MAZ | 2026-09-02 23:46:05 | 52.40901 | 21.23975 | 79° | 38km/h | 10088m | 6.7m/s | -51.6°C | 0% | 266.3hPa | 0V | 00:00:00 | 00:00:00 | 00:00:00 | |
| SP4MAZ | 2026-09-02 23:45:44 | 52.40868 | 21.23572 | 84° | 49km/h | 9962m | 4.6m/s | -50.5°C | 0% | 271.4hPa | 0V | 00:00:00 | 00:00:00 | 00:00:00 | |
| SP4MAZ | 2026-09-02 23:45:12 | 52.40832 | 21.22988 | 76° | 47km/h | 9780m | 8.3m/s | -49.2°C | 0% | 279.1hPa | 0V | 00:00:00 | 00:00:00 | 00:00:00 | |
| SP4MAZ | 2026-09-02 23:44:52 | 52.40804 | 21.22621 | 94° | 47km/h | 9653m | 4.4m/s | -48.3°C | 0% | 284.6hPa | 0V | 00:00:00 | 00:00:00 | 00:00:00 | |
| SP4MAZ | 2026-09-02 23:44:32 | 52.40797 | 21.22256 | 76° | 40km/h | 9533m | 6.0m/s | -47.6°C | 0% | 289.6hPa | 0V | 00:00:00 | 00:00:00 | 00:00:00 | |
| SP4MAZ | 2026-09-02 23:44:09 | 52.40776 | 21.21853 | 87° | 37km/h | 9405m | 7.0m/s | -47.1°C | 0% | 295.2hPa | 0V | 00:00:00 | 00:00:00 | 00:00:00 | |
| SP4MAZ | 2026-09-02 23:43:49 | 52.40789 | 21.21494 | 84° | 44km/h | 9297m | 5.6m/s | -46.3°C | 0% | 0hPa | 0V | 00:00:00 | 00:00:00 | 00:00:00 | |
| SP4MAZ | 2026-09-02 23:43:19 | 52.40786 | 21.20937 | 94° | 46km/h | 9105m | 7.1m/s | -44.5°C | 0% | 308.7hPa | 0V | 00:00:00 | 00:00:00 | 00:00:00 | |
| SP4MAZ | 2026-09-02 23:43:00 | 52.40759 | 21.20589 | 90° | 38km/h | 8999m | 6.4m/s | -43.5°C | 0% | 313.9hPa | 0V | 00:00:00 | 00:00:00 | 00:00:00 | |
| SP4MAZ | 2026-09-02 23:42:35 | 52.40691 | 21.20189 | 76° | 47km/h | 8874m | 7.7m/s | -42.5°C | 0% | 0hPa | 0V | 00:00:00 | 00:00:00 | 00:00:00 | |
| SP4MAZ | 2026-09-02 23:42:15 | 52.40693 | 21.19832 | 88° | 42km/h | 8750m | 8.1m/s | -41.9°C | 0% | 0hPa | 0V | 00:00:00 | 00:00:00 | 00:00:00 | |
| SP4MAZ | 2026-09-02 23:41:44 | 52.40627 | 21.19336 | 71° | 44km/h | 8570m | 3.9m/s | -40.4°C | 0% | 334.3hPa | 0V | 00:00:00 | 00:00:00 | 00:00:00 | |
| SP4MAZ | 2026-09-02 23:41:24 | 52.40603 | 21.19000 | 92° | 40km/h | 8453m | 5.8m/s | -39.5°C | 0% | 339.7hPa | 0V | 00:00:00 | 00:00:00 | 00:00:00 | |
| SP4MAZ | 2026-09-02 23:41:00 | 52.40572 | 21.18640 | 101° | 53km/h | 8340m | 6.6m/s | -38.7°C | 0% | 0hPa | 0V | 00:00:00 | 00:00:00 | 00:00:00 | |
| SP4MAZ | 2026-09-02 23:40:40 | 52.40565 | 21.18301 | 100° | 47km/h | 8223m | 6.2m/s | -37.8°C | 0% | 0hPa | 0V | 00:00:00 | 00:00:00 | 00:00:00 | |
| SP4MAZ | 2026-09-02 23:40:09 | 52.40558 | 21.17782 | 84° | 46km/h | 8058m | 6.2m/s | -36.5°C | 0% | 360.2hPa | 0V | 00:00:00 | 00:00:00 | 00:00:00 | |
| SP4MAZ | 2026-09-02 23:39:48 | 52.40542 | 21.17453 | 84° | 31km/h | 7939m | 3.7m/s | -35.6°C | 0% | 366.4hPa | 0V | 00:00:00 | 00:00:00 | 00:00:00 | |
| SP4MAZ | 2026-09-02 23:39:28 | 52.40517 | 21.17084 | 100° | 46km/h | 7820m | 4.1m/s | -35.1°C | 0% | 372.9hPa | 0V | 00:00:00 | 00:00:00 | 00:00:00 | |
| SP4MAZ | 2026-09-02 23:39:04 | 52.40549 | 21.16544 | 95° | 44km/h | 7693m | 5.4m/s | -34.6°C | 0% | 0hPa | 0V | 00:00:00 | 00:00:00 | 00:00:00 | |
| SP4MAZ | 2026-09-02 23:38:34 | 52.40602 | 21.15942 | 85° | 44km/h | 7494m | 7.5m/s | -32.9°C | 0% | 390.6hPa | 0V | 00:00:00 | 00:00:00 | 00:00:00 | |
| SP4MAZ | 2026-09-02 23:38:12 | 52.40612 | 21.15547 | 79° | 44km/h | 7373m | 5.7m/s | -31.7°C | 0% | 0hPa | 0V | 00:00:00 | 00:00:00 | 00:00:00 | |
| SP4MAZ | 2026-09-02 23:37:49 | 52.40632 | 21.15137 | 84° | 38km/h | 7229m | 4.1m/s | -30.5°C | 0% | 0hPa | 0V | 00:00:00 | 00:00:00 | 00:00:00 | |
| SP4MAZ | 2026-09-02 23:37:29 | 52.40595 | 21.14762 | 71° | 44km/h | 7117m | 6.8m/s | -29.5°C | 0% | 0hPa | 0V | 00:00:00 | 00:00:00 | 00:00:00 | |
| KRY50SP | 2026-09-02 23:37:14 | 52.40558 | 21.14449 | 95° | 51km/h | 7035m | 4.7m/s | 0°C | 0% | 0hPa | 0V | 00:00:00 | 00:00:00 | 00:00:00 | |
| SP4MAZ | 2026-09-02 23:37:08 | 52.40564 | 21.14369 | 86° | 27km/h | 7006m | 5.5m/s | -28.5°C | 0% | 0hPa | 0V | 00:00:00 | 00:00:00 | 00:00:00 | |
| SP4MAZ | 2026-09-02 23:36:38 | 52.40532 | 21.13945 | 85° | 47km/h | 6842m | 5.3m/s | -27.0°C | 0% | 0hPa | 0V | 00:00:00 | 00:00:00 | 00:00:00 | |
| SP4MAZ | 2026-09-02 23:36:18 | 52.40491 | 21.13630 | 74° | 35km/h | 6723m | 6.4m/s | -26.1°C | 0% | 0hPa | 0V | 00:00:00 | 00:00:00 | 00:00:00 | |
| SP4MAZ | 2026-09-02 23:35:57 | 52.40445 | 21.13264 | 84° | 44km/h | 6585m | 4.6m/s | -25.2°C | 0% | 0hPa | 0V | 00:00:00 | 00:00:00 | 00:00:00 | |
| SP4MAZ | 2026-09-02 23:35:36 | 52.40421 | 21.12922 | 79° | 46km/h | 6466m | 6.3m/s | -24.7°C | 0% | 0hPa | 0V | 00:00:00 | 00:00:00 | 00:00:00 | |
| SP4MAZ | 2026-09-02 23:35:14 | 52.40389 | 21.12584 | 100° | 44km/h | 6342m | 4.8m/s | -23.8°C | 0% | 0hPa | 0V | 00:00:00 | 00:00:00 | 00:00:00 | |
| SP4MAZ | 2026-09-02 23:34:42 | 52.40361 | 21.12051 | 94° | 51km/h | 6170m | 4.2m/s | 0°C | 0% | 0hPa | 0V | 00:00:00 | 00:00:00 | 00:00:00 | |
| SP4MAZ | 2026-09-02 23:34:19 | 52.40373 | 21.11650 | 81° | 40km/h | 6044m | 7.5m/s | -21.6°C | 0% | 0hPa | 0V | 00:00:00 | 00:00:00 | 00:00:00 | |
| SP4MAZ | 2026-09-02 23:33:58 | 52.40383 | 21.11294 | 112° | 42km/h | 5912m | 6.4m/s | -20.7°C | 0% | 0hPa | 0V | 00:00:00 | 00:00:00 | 00:00:00 | |
| SP4MAZ | 2026-09-02 23:33:05 | 52.40465 | 21.10441 | 94° | 31km/h | 5617m | 7.8m/s | 0°C | 0% | 0hPa | 0V | 00:00:00 | 00:00:00 | 00:00:00 | |
| SP4MAZ | 2026-09-02 23:32:46 | 52.40506 | 21.10087 | 101° | 51km/h | 5499m | 6.3m/s | 0°C | 0% | 0hPa | 0V | 00:00:00 | 00:00:00 | 00:00:00 | |
| SP4MAZ | 2026-09-02 23:32:21 | 52.40541 | 21.09629 | 101° | 62km/h | 5363m | 7.0m/s | -16.8°C | 0% | 0hPa | 0V | 00:00:00 | 00:00:00 | 00:00:00 | |
| SP4MAZ | 2026-09-02 23:32:01 | 52.40566 | 21.09228 | 120° | 55km/h | 5249m | 6.8m/s | -16.3°C | 0% | 0hPa | 0V | 00:00:00 | 00:00:00 | 00:00:00 | |
| SP4MAZ | 2026-09-02 23:31:40 | 52.40614 | 21.08768 | 100° | 58km/h | 5136m | 4.6m/s | -15.8°C | 0% | 0hPa | 0V | 00:00:00 | 00:00:00 | 00:00:00 | |
| SP4MAZ | 2026-09-02 23:31:09 | 52.40628 | 21.08109 | 99° | 49km/h | 4973m | 4.9m/s | 0°C | 0% | 0hPa | 0V | 00:00:00 | 00:00:00 | 00:00:00 | |
| SP4MAZ | 2026-09-02 23:30:46 | 52.40639 | 21.07603 | 100° | 57km/h | 4855m | 4.3m/s | -14.4°C | 0% | 0hPa | 0V | 00:00:00 | 00:00:00 | 00:00:00 | |
| SP4MAZ | 2026-09-02 23:30:26 | 52.40644 | 21.07237 | 104° | 38km/h | 4748m | 7.1m/s | -13.5°C | 0% | 0hPa | 0V | 00:00:00 | 00:00:00 | 00:00:00 | |
| SP4MAZ | 2026-09-02 23:30:06 | 52.40648 | 21.06864 | 80° | 57km/h | 4638m | 5.5m/s | -12.6°C | 0% | 0hPa | 0V | 00:00:00 | 00:00:00 | 00:00:00 | |
| SP4MAZ | 2026-09-02 23:29:45 | 52.40658 | 21.06436 | 87° | 44km/h | 4521m | 5.2m/s | -12.0°C | 0% | 0hPa | 0V | 00:00:00 | 00:00:00 | 00:00:00 | |
| SP4MAZ | 2026-09-02 23:29:25 | 52.40709 | 21.06073 | 105° | 35km/h | 4407m | 5.6m/s | -11.1°C | 0% | 0hPa | 0V | 00:00:00 | 00:00:00 | 00:00:00 | |
| SP4MAZ | 2026-09-02 23:28:31 | 52.40837 | 21.04989 | 90° | 47km/h | 4132m | 5.0m/s | 0°C | 0% | 0hPa | 0V | 00:00:00 | 00:00:00 | 00:00:00 | |
| SP4MAZ | 2026-09-02 23:28:09 | 52.40823 | 21.04521 | 101° | 53km/h | 4011m | 4.5m/s | 0°C | 0% | 0hPa | 0V | 00:00:00 | 00:00:00 | 00:00:00 | |
| SP4MAZ | 2026-09-02 23:27:48 | 52.40809 | 21.04093 | 88° | 51km/h | 3901m | 3.3m/s | 0°C | 0% | 0hPa | 0V | 00:00:00 | 00:00:00 | 00:00:00 | |
| SP4MAZ | 2026-09-02 23:27:23 | 52.40788 | 21.03581 | 79° | 40km/h | 3781m | 5.5m/s | 0°C | 0% | 0hPa | 0V | 00:00:00 | 00:00:00 | 00:00:00 |